<?xml version="1.0" encoding="UTF-8" standalone="no" ?>
<gpx xmlns="http://www.topografix.com/GPX/1/1" xmlns:xsi="http://www.w3.org/2001/XMLSchema-instance" xsi:schemaLocation="http://www.topografix.com/GPX/1/1 http://www.topografix.com/GPX/1/1/gpx.xsd" version="1.1" creator="VisuGPX - https://www.visugpx.com">
  <metadata>
    <name>Un nouveau chemin du côté de la Ducambarderie</name>
    <desc><![CDATA[Nous sommes parties pour aller côté Ducambarderie/le Mesle, en cours de route, nous bifurquons sur un chemin inconnu...]]></desc>
  </metadata>
  <trk>
    <name><![CDATA[Côté Ducambarderie (avec un nouveau chemin)]]></name>
    <desc><![CDATA[Nous sommes parties pour aller côté Ducambarderie/le Mesle, en cours de route, nous bifurquons sur un chemin inconnu...]]></desc>
    <trkseg>
      <trkpt lat="48.70758" lon="1.75356">
        <ele>172.80000305176</ele>
        <time>2012-02-25T11:45:03.000Z</time>
      </trkpt>
      <trkpt lat="48.70764" lon="1.75345">
        <ele>173</ele>
        <time>2012-02-25T11:45:11.000Z</time>
      </trkpt>
      <trkpt lat="48.70766" lon="1.75339">
        <ele>173.19999694824</ele>
        <time>2012-02-25T11:45:15.000Z</time>
      </trkpt>
      <trkpt lat="48.70768" lon="1.7533">
        <ele>173.19999694824</ele>
        <time>2012-02-25T11:45:19.000Z</time>
      </trkpt>
      <trkpt lat="48.7077" lon="1.75327">
        <ele>173.19999694824</ele>
        <time>2012-02-25T11:45:22.000Z</time>
      </trkpt>
      <trkpt lat="48.70773" lon="1.75317">
        <ele>173.19999694824</ele>
        <time>2012-02-25T11:45:27.000Z</time>
      </trkpt>
      <trkpt lat="48.70778" lon="1.75302">
        <ele>173.39999389648</ele>
        <time>2012-02-25T11:45:35.000Z</time>
      </trkpt>
      <trkpt lat="48.70779" lon="1.75301">
        <ele>173.39999389648</ele>
        <time>2012-02-25T11:45:36.000Z</time>
      </trkpt>
      <trkpt lat="48.70783" lon="1.75288">
        <ele>173.39999389648</ele>
        <time>2012-02-25T11:45:42.000Z</time>
      </trkpt>
      <trkpt lat="48.70786" lon="1.75279">
        <ele>173.39999389648</ele>
        <time>2012-02-25T11:45:48.000Z</time>
      </trkpt>
      <trkpt lat="48.70789" lon="1.75267">
        <ele>173.39999389648</ele>
        <time>2012-02-25T11:45:55.000Z</time>
      </trkpt>
      <trkpt lat="48.7079" lon="1.75262">
        <ele>173.39999389648</ele>
        <time>2012-02-25T11:46:01.000Z</time>
      </trkpt>
      <trkpt lat="48.7079" lon="1.75261">
        <ele>173.39999389648</ele>
        <time>2012-02-25T11:46:04.000Z</time>
      </trkpt>
      <trkpt lat="48.70794" lon="1.75254">
        <ele>173.60000610352</ele>
        <time>2012-02-25T11:46:11.000Z</time>
      </trkpt>
      <trkpt lat="48.70796" lon="1.75249">
        <ele>173.60000610352</ele>
        <time>2012-02-25T11:46:14.000Z</time>
      </trkpt>
      <trkpt lat="48.70799" lon="1.75241">
        <ele>173.60000610352</ele>
        <time>2012-02-25T11:46:19.000Z</time>
      </trkpt>
      <trkpt lat="48.70803" lon="1.75232">
        <ele>173.60000610352</ele>
        <time>2012-02-25T11:46:26.000Z</time>
      </trkpt>
      <trkpt lat="48.70806" lon="1.75224">
        <ele>173.60000610352</ele>
        <time>2012-02-25T11:46:31.000Z</time>
      </trkpt>
      <trkpt lat="48.7081" lon="1.75213">
        <ele>173.80000305176</ele>
        <time>2012-02-25T11:46:38.000Z</time>
      </trkpt>
      <trkpt lat="48.70813" lon="1.75207">
        <ele>173.80000305176</ele>
        <time>2012-02-25T11:46:42.000Z</time>
      </trkpt>
      <trkpt lat="48.70815" lon="1.75197">
        <ele>173.80000305176</ele>
        <time>2012-02-25T11:46:46.000Z</time>
      </trkpt>
      <trkpt lat="48.70817" lon="1.75196">
        <ele>173.80000305176</ele>
        <time>2012-02-25T11:46:50.000Z</time>
      </trkpt>
      <trkpt lat="48.70824" lon="1.75183">
        <ele>173.80000305176</ele>
        <time>2012-02-25T11:47:01.000Z</time>
      </trkpt>
      <trkpt lat="48.70829" lon="1.75174">
        <ele>174</ele>
        <time>2012-02-25T11:47:06.000Z</time>
      </trkpt>
      <trkpt lat="48.70833" lon="1.75164">
        <ele>174</ele>
        <time>2012-02-25T11:47:12.000Z</time>
      </trkpt>
      <trkpt lat="48.70838" lon="1.75153">
        <ele>174</ele>
        <time>2012-02-25T11:47:19.000Z</time>
      </trkpt>
      <trkpt lat="48.70839" lon="1.7515">
        <ele>174</ele>
        <time>2012-02-25T11:47:21.000Z</time>
      </trkpt>
      <trkpt lat="48.70843" lon="1.75144">
        <ele>174</ele>
        <time>2012-02-25T11:47:27.000Z</time>
      </trkpt>
      <trkpt lat="48.70843" lon="1.75144">
        <ele>174</ele>
        <time>2012-02-25T11:47:28.000Z</time>
      </trkpt>
      <trkpt lat="48.70844" lon="1.75133">
        <ele>174</ele>
        <time>2012-02-25T11:47:47.000Z</time>
      </trkpt>
      <trkpt lat="48.70846" lon="1.75128">
        <ele>174</ele>
        <time>2012-02-25T11:47:49.000Z</time>
      </trkpt>
      <trkpt lat="48.70849" lon="1.75125">
        <ele>174</ele>
        <time>2012-02-25T11:47:52.000Z</time>
      </trkpt>
      <trkpt lat="48.70851" lon="1.75117">
        <ele>174</ele>
        <time>2012-02-25T11:47:56.000Z</time>
      </trkpt>
      <trkpt lat="48.70855" lon="1.7511">
        <ele>174</ele>
        <time>2012-02-25T11:48:01.000Z</time>
      </trkpt>
      <trkpt lat="48.70857" lon="1.75104">
        <ele>174</ele>
        <time>2012-02-25T11:48:06.000Z</time>
      </trkpt>
      <trkpt lat="48.7086" lon="1.75101">
        <ele>174</ele>
        <time>2012-02-25T11:48:08.000Z</time>
      </trkpt>
      <trkpt lat="48.70864" lon="1.75093">
        <ele>174</ele>
        <time>2012-02-25T11:48:14.000Z</time>
      </trkpt>
      <trkpt lat="48.70865" lon="1.75092">
        <ele>174</ele>
        <time>2012-02-25T11:48:15.000Z</time>
      </trkpt>
      <trkpt lat="48.70871" lon="1.75079">
        <ele>174</ele>
        <time>2012-02-25T11:48:24.000Z</time>
      </trkpt>
      <trkpt lat="48.70876" lon="1.75071">
        <ele>174.19999694824</ele>
        <time>2012-02-25T11:48:31.000Z</time>
      </trkpt>
      <trkpt lat="48.70878" lon="1.75067">
        <ele>174.19999694824</ele>
        <time>2012-02-25T11:48:34.000Z</time>
      </trkpt>
      <trkpt lat="48.70882" lon="1.75059">
        <ele>174.19999694824</ele>
        <time>2012-02-25T11:48:39.000Z</time>
      </trkpt>
      <trkpt lat="48.70886" lon="1.7505">
        <ele>174.39999389648</ele>
        <time>2012-02-25T11:48:45.000Z</time>
      </trkpt>
      <trkpt lat="48.7089" lon="1.7504">
        <ele>174.60000610352</ele>
        <time>2012-02-25T11:48:52.000Z</time>
      </trkpt>
      <trkpt lat="48.70894" lon="1.75032">
        <ele>174.60000610352</ele>
        <time>2012-02-25T11:48:57.000Z</time>
      </trkpt>
      <trkpt lat="48.70897" lon="1.75028">
        <ele>174.60000610352</ele>
        <time>2012-02-25T11:49:00.000Z</time>
      </trkpt>
      <trkpt lat="48.70901" lon="1.75021">
        <ele>174.80000305176</ele>
        <time>2012-02-25T11:49:05.000Z</time>
      </trkpt>
      <trkpt lat="48.70905" lon="1.75011">
        <ele>174.80000305176</ele>
        <time>2012-02-25T11:49:11.000Z</time>
      </trkpt>
      <trkpt lat="48.70911" lon="1.75">
        <ele>175</ele>
        <time>2012-02-25T11:49:19.000Z</time>
      </trkpt>
      <trkpt lat="48.70917" lon="1.74986">
        <ele>175</ele>
        <time>2012-02-25T11:49:28.000Z</time>
      </trkpt>
      <trkpt lat="48.70919" lon="1.74978">
        <ele>175.19999694824</ele>
        <time>2012-02-25T11:49:33.000Z</time>
      </trkpt>
      <trkpt lat="48.70923" lon="1.74971">
        <ele>175.19999694824</ele>
        <time>2012-02-25T11:49:38.000Z</time>
      </trkpt>
      <trkpt lat="48.70928" lon="1.74963">
        <ele>175.39999389648</ele>
        <time>2012-02-25T11:49:44.000Z</time>
      </trkpt>
      <trkpt lat="48.70932" lon="1.74954">
        <ele>175.60000610352</ele>
        <time>2012-02-25T11:49:49.000Z</time>
      </trkpt>
      <trkpt lat="48.7094" lon="1.74941">
        <ele>176</ele>
        <time>2012-02-25T11:49:59.000Z</time>
      </trkpt>
      <trkpt lat="48.70943" lon="1.74936">
        <ele>176.19999694824</ele>
        <time>2012-02-25T11:50:02.000Z</time>
      </trkpt>
      <trkpt lat="48.70949" lon="1.74929">
        <ele>176.39999389648</ele>
        <time>2012-02-25T11:50:08.000Z</time>
      </trkpt>
      <trkpt lat="48.70955" lon="1.74918">
        <ele>176.80000305176</ele>
        <time>2012-02-25T11:50:15.000Z</time>
      </trkpt>
      <trkpt lat="48.70962" lon="1.74909">
        <ele>177.19999694824</ele>
        <time>2012-02-25T11:50:22.000Z</time>
      </trkpt>
      <trkpt lat="48.70967" lon="1.74903">
        <ele>177.60000610352</ele>
        <time>2012-02-25T11:50:28.000Z</time>
      </trkpt>
      <trkpt lat="48.70972" lon="1.74897">
        <ele>178</ele>
        <time>2012-02-25T11:50:33.000Z</time>
      </trkpt>
      <trkpt lat="48.70973" lon="1.74895">
        <ele>178</ele>
        <time>2012-02-25T11:50:34.000Z</time>
      </trkpt>
      <trkpt lat="48.70978" lon="1.74888">
        <ele>178.19999694824</ele>
        <time>2012-02-25T11:50:40.000Z</time>
      </trkpt>
      <trkpt lat="48.70979" lon="1.74886">
        <ele>178.19999694824</ele>
        <time>2012-02-25T11:50:41.000Z</time>
      </trkpt>
      <trkpt lat="48.70986" lon="1.74879">
        <ele>178.60000610352</ele>
        <time>2012-02-25T11:50:47.000Z</time>
      </trkpt>
      <trkpt lat="48.70988" lon="1.74875">
        <ele>178.60000610352</ele>
        <time>2012-02-25T11:50:50.000Z</time>
      </trkpt>
      <trkpt lat="48.70992" lon="1.7487">
        <ele>178.80000305176</ele>
        <time>2012-02-25T11:50:54.000Z</time>
      </trkpt>
      <trkpt lat="48.70999" lon="1.74861">
        <ele>179</ele>
        <time>2012-02-25T11:51:01.000Z</time>
      </trkpt>
      <trkpt lat="48.71003" lon="1.74858">
        <ele>178.80000305176</ele>
        <time>2012-02-25T11:51:04.000Z</time>
      </trkpt>
      <trkpt lat="48.71006" lon="1.74851">
        <ele>178.60000610352</ele>
        <time>2012-02-25T11:51:08.000Z</time>
      </trkpt>
      <trkpt lat="48.71009" lon="1.74845">
        <ele>178.60000610352</ele>
        <time>2012-02-25T11:51:11.000Z</time>
      </trkpt>
      <trkpt lat="48.71009" lon="1.74832">
        <ele>178.39999389648</ele>
        <time>2012-02-25T11:51:17.000Z</time>
      </trkpt>
      <trkpt lat="48.71009" lon="1.74831">
        <ele>178.39999389648</ele>
        <time>2012-02-25T11:51:18.000Z</time>
      </trkpt>
      <trkpt lat="48.71004" lon="1.74823">
        <ele>178.60000610352</ele>
        <time>2012-02-25T11:51:24.000Z</time>
      </trkpt>
      <trkpt lat="48.70999" lon="1.74819">
        <ele>178.80000305176</ele>
        <time>2012-02-25T11:51:30.000Z</time>
      </trkpt>
      <trkpt lat="48.70994" lon="1.74814">
        <ele>178.80000305176</ele>
        <time>2012-02-25T11:51:35.000Z</time>
      </trkpt>
      <trkpt lat="48.70992" lon="1.74812">
        <ele>178.60000610352</ele>
        <time>2012-02-25T11:51:37.000Z</time>
      </trkpt>
      <trkpt lat="48.70988" lon="1.74806">
        <ele>178.60000610352</ele>
        <time>2012-02-25T11:51:41.000Z</time>
      </trkpt>
      <trkpt lat="48.70986" lon="1.74803">
        <ele>178.60000610352</ele>
        <time>2012-02-25T11:51:43.000Z</time>
      </trkpt>
      <trkpt lat="48.70978" lon="1.74795">
        <ele>178.39999389648</ele>
        <time>2012-02-25T11:51:50.000Z</time>
      </trkpt>
      <trkpt lat="48.70973" lon="1.74791">
        <ele>178.39999389648</ele>
        <time>2012-02-25T11:51:55.000Z</time>
      </trkpt>
      <trkpt lat="48.70971" lon="1.74789">
        <ele>178.39999389648</ele>
        <time>2012-02-25T11:51:57.000Z</time>
      </trkpt>
      <trkpt lat="48.70964" lon="1.74778">
        <ele>178.19999694824</ele>
        <time>2012-02-25T11:52:05.000Z</time>
      </trkpt>
      <trkpt lat="48.70958" lon="1.74768">
        <ele>178.19999694824</ele>
        <time>2012-02-25T11:52:11.000Z</time>
      </trkpt>
      <trkpt lat="48.70954" lon="1.74764">
        <ele>178</ele>
        <time>2012-02-25T11:52:15.000Z</time>
      </trkpt>
      <trkpt lat="48.70948" lon="1.74755">
        <ele>178</ele>
        <time>2012-02-25T11:52:21.000Z</time>
      </trkpt>
      <trkpt lat="48.70942" lon="1.74748">
        <ele>178</ele>
        <time>2012-02-25T11:52:28.000Z</time>
      </trkpt>
      <trkpt lat="48.70936" lon="1.74741">
        <ele>177.80000305176</ele>
        <time>2012-02-25T11:52:34.000Z</time>
      </trkpt>
      <trkpt lat="48.70931" lon="1.74733">
        <ele>177.80000305176</ele>
        <time>2012-02-25T11:52:40.000Z</time>
      </trkpt>
      <trkpt lat="48.7093" lon="1.74732">
        <ele>177.60000610352</ele>
        <time>2012-02-25T11:52:41.000Z</time>
      </trkpt>
      <trkpt lat="48.70923" lon="1.74722">
        <ele>177.39999389648</ele>
        <time>2012-02-25T11:52:49.000Z</time>
      </trkpt>
      <trkpt lat="48.70917" lon="1.74713">
        <ele>177.19999694824</ele>
        <time>2012-02-25T11:52:56.000Z</time>
      </trkpt>
      <trkpt lat="48.70909" lon="1.74704">
        <ele>177</ele>
        <time>2012-02-25T11:53:04.000Z</time>
      </trkpt>
      <trkpt lat="48.70904" lon="1.74696">
        <ele>176.80000305176</ele>
        <time>2012-02-25T11:53:10.000Z</time>
      </trkpt>
      <trkpt lat="48.70901" lon="1.74692">
        <ele>176.80000305176</ele>
        <time>2012-02-25T11:53:13.000Z</time>
      </trkpt>
      <trkpt lat="48.70896" lon="1.74685">
        <ele>176.60000610352</ele>
        <time>2012-02-25T11:53:18.000Z</time>
      </trkpt>
      <trkpt lat="48.70894" lon="1.7468">
        <ele>176.39999389648</ele>
        <time>2012-02-25T11:53:23.000Z</time>
      </trkpt>
      <trkpt lat="48.70888" lon="1.74671">
        <ele>176.19999694824</ele>
        <time>2012-02-25T11:53:29.000Z</time>
      </trkpt>
      <trkpt lat="48.7088" lon="1.74663">
        <ele>176</ele>
        <time>2012-02-25T11:53:36.000Z</time>
      </trkpt>
      <trkpt lat="48.70871" lon="1.74653">
        <ele>176</ele>
        <time>2012-02-25T11:53:44.000Z</time>
      </trkpt>
      <trkpt lat="48.70868" lon="1.74647">
        <ele>176</ele>
        <time>2012-02-25T11:53:48.000Z</time>
      </trkpt>
      <trkpt lat="48.70863" lon="1.74641">
        <ele>175.80000305176</ele>
        <time>2012-02-25T11:53:53.000Z</time>
      </trkpt>
      <trkpt lat="48.70856" lon="1.74631">
        <ele>175.80000305176</ele>
        <time>2012-02-25T11:54:00.000Z</time>
      </trkpt>
      <trkpt lat="48.70849" lon="1.74621">
        <ele>175.80000305176</ele>
        <time>2012-02-25T11:54:07.000Z</time>
      </trkpt>
      <trkpt lat="48.70847" lon="1.74619">
        <ele>176</ele>
        <time>2012-02-25T11:54:09.000Z</time>
      </trkpt>
      <trkpt lat="48.70841" lon="1.74613">
        <ele>176</ele>
        <time>2012-02-25T11:54:15.000Z</time>
      </trkpt>
      <trkpt lat="48.7084" lon="1.74611">
        <ele>176</ele>
        <time>2012-02-25T11:54:16.000Z</time>
      </trkpt>
      <trkpt lat="48.70837" lon="1.74605">
        <ele>176</ele>
        <time>2012-02-25T11:54:20.000Z</time>
      </trkpt>
      <trkpt lat="48.70832" lon="1.74596">
        <ele>176</ele>
        <time>2012-02-25T11:54:26.000Z</time>
      </trkpt>
      <trkpt lat="48.70826" lon="1.74588">
        <ele>176</ele>
        <time>2012-02-25T11:54:32.000Z</time>
      </trkpt>
      <trkpt lat="48.70824" lon="1.74586">
        <ele>176.19999694824</ele>
        <time>2012-02-25T11:54:34.000Z</time>
      </trkpt>
      <trkpt lat="48.70819" lon="1.74581">
        <ele>176.19999694824</ele>
        <time>2012-02-25T11:54:39.000Z</time>
      </trkpt>
      <trkpt lat="48.70817" lon="1.74579">
        <ele>176.19999694824</ele>
        <time>2012-02-25T11:54:41.000Z</time>
      </trkpt>
      <trkpt lat="48.70817" lon="1.74577">
        <ele>176.19999694824</ele>
        <time>2012-02-25T11:54:44.000Z</time>
      </trkpt>
      <trkpt lat="48.70791" lon="1.74547">
        <ele>176.60000610352</ele>
        <time>2012-02-25T11:55:28.000Z</time>
      </trkpt>
      <trkpt lat="48.70789" lon="1.74543">
        <ele>176.60000610352</ele>
        <time>2012-02-25T11:55:31.000Z</time>
      </trkpt>
      <trkpt lat="48.70784" lon="1.74539">
        <ele>176.60000610352</ele>
        <time>2012-02-25T11:55:36.000Z</time>
      </trkpt>
      <trkpt lat="48.70782" lon="1.74534">
        <ele>176.60000610352</ele>
        <time>2012-02-25T11:55:40.000Z</time>
      </trkpt>
      <trkpt lat="48.70776" lon="1.74528">
        <ele>176.60000610352</ele>
        <time>2012-02-25T11:55:46.000Z</time>
      </trkpt>
      <trkpt lat="48.70775" lon="1.74526">
        <ele>176.60000610352</ele>
        <time>2012-02-25T11:55:48.000Z</time>
      </trkpt>
      <trkpt lat="48.70771" lon="1.74521">
        <ele>176.80000305176</ele>
        <time>2012-02-25T11:55:54.000Z</time>
      </trkpt>
      <trkpt lat="48.70769" lon="1.74517">
        <ele>176.80000305176</ele>
        <time>2012-02-25T11:55:58.000Z</time>
      </trkpt>
      <trkpt lat="48.70766" lon="1.74514">
        <ele>176.80000305176</ele>
        <time>2012-02-25T11:56:01.000Z</time>
      </trkpt>
      <trkpt lat="48.70763" lon="1.74509">
        <ele>176.80000305176</ele>
        <time>2012-02-25T11:56:07.000Z</time>
      </trkpt>
      <trkpt lat="48.70749" lon="1.74492">
        <ele>177.19999694824</ele>
        <time>2012-02-25T11:56:26.000Z</time>
      </trkpt>
      <trkpt lat="48.70745" lon="1.74487">
        <ele>177.39999389648</ele>
        <time>2012-02-25T11:56:30.000Z</time>
      </trkpt>
      <trkpt lat="48.70739" lon="1.74482">
        <ele>177.60000610352</ele>
        <time>2012-02-25T11:56:37.000Z</time>
      </trkpt>
      <trkpt lat="48.70735" lon="1.74478">
        <ele>177.80000305176</ele>
        <time>2012-02-25T11:56:41.000Z</time>
      </trkpt>
      <trkpt lat="48.70734" lon="1.74475">
        <ele>177.80000305176</ele>
        <time>2012-02-25T11:56:43.000Z</time>
      </trkpt>
      <trkpt lat="48.70736" lon="1.74475">
        <ele>177.80000305176</ele>
        <time>2012-02-25T11:56:47.000Z</time>
      </trkpt>
      <trkpt lat="48.70729" lon="1.74469">
        <ele>178.19999694824</ele>
        <time>2012-02-25T11:57:20.000Z</time>
      </trkpt>
      <trkpt lat="48.70727" lon="1.74462">
        <ele>178.19999694824</ele>
        <time>2012-02-25T11:57:24.000Z</time>
      </trkpt>
      <trkpt lat="48.70727" lon="1.74461">
        <ele>178.19999694824</ele>
        <time>2012-02-25T11:57:25.000Z</time>
      </trkpt>
      <trkpt lat="48.70731" lon="1.74454">
        <ele>178.19999694824</ele>
        <time>2012-02-25T11:57:31.000Z</time>
      </trkpt>
      <trkpt lat="48.70732" lon="1.74451">
        <ele>178.19999694824</ele>
        <time>2012-02-25T11:57:34.000Z</time>
      </trkpt>
      <trkpt lat="48.70736" lon="1.74448">
        <ele>178.19999694824</ele>
        <time>2012-02-25T11:57:37.000Z</time>
      </trkpt>
      <trkpt lat="48.70742" lon="1.74444">
        <ele>178</ele>
        <time>2012-02-25T11:57:42.000Z</time>
      </trkpt>
      <trkpt lat="48.70752" lon="1.74439">
        <ele>177.80000305176</ele>
        <time>2012-02-25T11:57:51.000Z</time>
      </trkpt>
      <trkpt lat="48.70758" lon="1.74436">
        <ele>177.60000610352</ele>
        <time>2012-02-25T11:57:57.000Z</time>
      </trkpt>
      <trkpt lat="48.70761" lon="1.74435">
        <ele>177.60000610352</ele>
        <time>2012-02-25T11:58:00.000Z</time>
      </trkpt>
      <trkpt lat="48.70762" lon="1.74434">
        <ele>177.60000610352</ele>
        <time>2012-02-25T11:58:04.000Z</time>
      </trkpt>
      <trkpt lat="48.70774" lon="1.74428">
        <ele>177.39999389648</ele>
        <time>2012-02-25T11:58:21.000Z</time>
      </trkpt>
      <trkpt lat="48.70776" lon="1.74426">
        <ele>177.39999389648</ele>
        <time>2012-02-25T11:58:22.000Z</time>
      </trkpt>
      <trkpt lat="48.70783" lon="1.74422">
        <ele>177.19999694824</ele>
        <time>2012-02-25T11:58:29.000Z</time>
      </trkpt>
      <trkpt lat="48.70785" lon="1.74422">
        <ele>177.19999694824</ele>
        <time>2012-02-25T11:58:30.000Z</time>
      </trkpt>
      <trkpt lat="48.70794" lon="1.74416">
        <ele>177</ele>
        <time>2012-02-25T11:58:39.000Z</time>
      </trkpt>
      <trkpt lat="48.70798" lon="1.74413">
        <ele>177</ele>
        <time>2012-02-25T11:58:43.000Z</time>
      </trkpt>
      <trkpt lat="48.70803" lon="1.74411">
        <ele>176.80000305176</ele>
        <time>2012-02-25T11:58:47.000Z</time>
      </trkpt>
      <trkpt lat="48.70806" lon="1.74407">
        <ele>176.80000305176</ele>
        <time>2012-02-25T11:58:51.000Z</time>
      </trkpt>
      <trkpt lat="48.70816" lon="1.744">
        <ele>176.60000610352</ele>
        <time>2012-02-25T11:58:59.000Z</time>
      </trkpt>
      <trkpt lat="48.70822" lon="1.74395">
        <ele>176.60000610352</ele>
        <time>2012-02-25T11:59:05.000Z</time>
      </trkpt>
      <trkpt lat="48.70829" lon="1.74387">
        <ele>176.39999389648</ele>
        <time>2012-02-25T11:59:12.000Z</time>
      </trkpt>
      <trkpt lat="48.70837" lon="1.74376">
        <ele>176.39999389648</ele>
        <time>2012-02-25T11:59:20.000Z</time>
      </trkpt>
      <trkpt lat="48.70839" lon="1.74376">
        <ele>176.39999389648</ele>
        <time>2012-02-25T11:59:25.000Z</time>
      </trkpt>
      <trkpt lat="48.70839" lon="1.74376">
        <ele>176.39999389648</ele>
        <time>2012-02-25T11:59:26.000Z</time>
      </trkpt>
      <trkpt lat="48.70856" lon="1.74344">
        <ele>176.60000610352</ele>
        <time>2012-02-25T12:00:39.000Z</time>
      </trkpt>
      <trkpt lat="48.70861" lon="1.74336">
        <ele>176.60000610352</ele>
        <time>2012-02-25T12:00:44.000Z</time>
      </trkpt>
      <trkpt lat="48.70864" lon="1.74329">
        <ele>176.80000305176</ele>
        <time>2012-02-25T12:00:49.000Z</time>
      </trkpt>
      <trkpt lat="48.70869" lon="1.74319">
        <ele>177.19999694824</ele>
        <time>2012-02-25T12:00:57.000Z</time>
      </trkpt>
      <trkpt lat="48.70873" lon="1.7431">
        <ele>177.60000610352</ele>
        <time>2012-02-25T12:01:03.000Z</time>
      </trkpt>
      <trkpt lat="48.70877" lon="1.74303">
        <ele>178</ele>
        <time>2012-02-25T12:01:08.000Z</time>
      </trkpt>
      <trkpt lat="48.70878" lon="1.74302">
        <ele>178</ele>
        <time>2012-02-25T12:01:09.000Z</time>
      </trkpt>
      <trkpt lat="48.7088" lon="1.74298">
        <ele>178.19999694824</ele>
        <time>2012-02-25T12:01:13.000Z</time>
      </trkpt>
      <trkpt lat="48.70882" lon="1.74293">
        <ele>178.39999389648</ele>
        <time>2012-02-25T12:01:16.000Z</time>
      </trkpt>
      <trkpt lat="48.70888" lon="1.74286">
        <ele>178.80000305176</ele>
        <time>2012-02-25T12:01:23.000Z</time>
      </trkpt>
      <trkpt lat="48.7089" lon="1.74284">
        <ele>179</ele>
        <time>2012-02-25T12:01:25.000Z</time>
      </trkpt>
      <trkpt lat="48.70892" lon="1.74282">
        <ele>179</ele>
        <time>2012-02-25T12:01:27.000Z</time>
      </trkpt>
      <trkpt lat="48.70895" lon="1.74275">
        <ele>179.39999389648</ele>
        <time>2012-02-25T12:01:32.000Z</time>
      </trkpt>
      <trkpt lat="48.70896" lon="1.74272">
        <ele>179.60000610352</ele>
        <time>2012-02-25T12:01:34.000Z</time>
      </trkpt>
      <trkpt lat="48.70901" lon="1.74258">
        <ele>180.39999389648</ele>
        <time>2012-02-25T12:01:43.000Z</time>
      </trkpt>
      <trkpt lat="48.70902" lon="1.74257">
        <ele>180.39999389648</ele>
        <time>2012-02-25T12:01:44.000Z</time>
      </trkpt>
      <trkpt lat="48.70904" lon="1.74247">
        <ele>181</ele>
        <time>2012-02-25T12:01:51.000Z</time>
      </trkpt>
      <trkpt lat="48.70905" lon="1.74238">
        <ele>181.19999694824</ele>
        <time>2012-02-25T12:01:56.000Z</time>
      </trkpt>
      <trkpt lat="48.70905" lon="1.74237">
        <ele>181.19999694824</ele>
        <time>2012-02-25T12:02:01.000Z</time>
      </trkpt>
      <trkpt lat="48.70913" lon="1.74194">
        <ele>182.39999389648</ele>
        <time>2012-02-25T12:03:52.000Z</time>
      </trkpt>
      <trkpt lat="48.70915" lon="1.74181">
        <ele>182.60000610352</ele>
        <time>2012-02-25T12:03:58.000Z</time>
      </trkpt>
      <trkpt lat="48.70917" lon="1.7417">
        <ele>183</ele>
        <time>2012-02-25T12:04:04.000Z</time>
      </trkpt>
      <trkpt lat="48.70918" lon="1.74163">
        <ele>183</ele>
        <time>2012-02-25T12:04:08.000Z</time>
      </trkpt>
      <trkpt lat="48.70923" lon="1.74147">
        <ele>182.80000305176</ele>
        <time>2012-02-25T12:04:17.000Z</time>
      </trkpt>
      <trkpt lat="48.70924" lon="1.74141">
        <ele>182.80000305176</ele>
        <time>2012-02-25T12:04:20.000Z</time>
      </trkpt>
      <trkpt lat="48.70925" lon="1.74134">
        <ele>182.80000305176</ele>
        <time>2012-02-25T12:04:24.000Z</time>
      </trkpt>
      <trkpt lat="48.70928" lon="1.74116">
        <ele>182.80000305176</ele>
        <time>2012-02-25T12:04:33.000Z</time>
      </trkpt>
      <trkpt lat="48.7093" lon="1.74108">
        <ele>182.80000305176</ele>
        <time>2012-02-25T12:04:38.000Z</time>
      </trkpt>
      <trkpt lat="48.70933" lon="1.74099">
        <ele>182.80000305176</ele>
        <time>2012-02-25T12:04:45.000Z</time>
      </trkpt>
      <trkpt lat="48.70933" lon="1.74097">
        <ele>182.80000305176</ele>
        <time>2012-02-25T12:04:46.000Z</time>
      </trkpt>
      <trkpt lat="48.70939" lon="1.74092">
        <ele>182.60000610352</ele>
        <time>2012-02-25T12:04:51.000Z</time>
      </trkpt>
      <trkpt lat="48.70943" lon="1.74079">
        <ele>182.60000610352</ele>
        <time>2012-02-25T12:04:58.000Z</time>
      </trkpt>
      <trkpt lat="48.70946" lon="1.74069">
        <ele>182.60000610352</ele>
        <time>2012-02-25T12:05:04.000Z</time>
      </trkpt>
      <trkpt lat="48.70948" lon="1.74062">
        <ele>182.60000610352</ele>
        <time>2012-02-25T12:05:09.000Z</time>
      </trkpt>
      <trkpt lat="48.70949" lon="1.74053">
        <ele>182.60000610352</ele>
        <time>2012-02-25T12:05:14.000Z</time>
      </trkpt>
      <trkpt lat="48.70952" lon="1.74038">
        <ele>182.60000610352</ele>
        <time>2012-02-25T12:05:21.000Z</time>
      </trkpt>
      <trkpt lat="48.70955" lon="1.74026">
        <ele>182.60000610352</ele>
        <time>2012-02-25T12:05:27.000Z</time>
      </trkpt>
      <trkpt lat="48.7096" lon="1.74012">
        <ele>182.39999389648</ele>
        <time>2012-02-25T12:05:35.000Z</time>
      </trkpt>
      <trkpt lat="48.70962" lon="1.73999">
        <ele>182.39999389648</ele>
        <time>2012-02-25T12:05:42.000Z</time>
      </trkpt>
      <trkpt lat="48.70965" lon="1.73986">
        <ele>182.80000305176</ele>
        <time>2012-02-25T12:05:49.000Z</time>
      </trkpt>
      <trkpt lat="48.70966" lon="1.73975">
        <ele>183</ele>
        <time>2012-02-25T12:05:55.000Z</time>
      </trkpt>
      <trkpt lat="48.7097" lon="1.73956">
        <ele>183.39999389648</ele>
        <time>2012-02-25T12:06:04.000Z</time>
      </trkpt>
      <trkpt lat="48.70972" lon="1.73946">
        <ele>183.60000610352</ele>
        <time>2012-02-25T12:06:10.000Z</time>
      </trkpt>
      <trkpt lat="48.70977" lon="1.73932">
        <ele>184</ele>
        <time>2012-02-25T12:06:18.000Z</time>
      </trkpt>
      <trkpt lat="48.7098" lon="1.7392">
        <ele>184.39999389648</ele>
        <time>2012-02-25T12:06:25.000Z</time>
      </trkpt>
      <trkpt lat="48.70984" lon="1.73908">
        <ele>184.39999389648</ele>
        <time>2012-02-25T12:06:31.000Z</time>
      </trkpt>
      <trkpt lat="48.70987" lon="1.73892">
        <ele>184</ele>
        <time>2012-02-25T12:06:39.000Z</time>
      </trkpt>
      <trkpt lat="48.70989" lon="1.73879">
        <ele>183.80000305176</ele>
        <time>2012-02-25T12:06:46.000Z</time>
      </trkpt>
      <trkpt lat="48.70992" lon="1.7387">
        <ele>183.60000610352</ele>
        <time>2012-02-25T12:06:51.000Z</time>
      </trkpt>
      <trkpt lat="48.70995" lon="1.73858">
        <ele>183.39999389648</ele>
        <time>2012-02-25T12:06:58.000Z</time>
      </trkpt>
      <trkpt lat="48.70998" lon="1.73847">
        <ele>183.19999694824</ele>
        <time>2012-02-25T12:07:04.000Z</time>
      </trkpt>
      <trkpt lat="48.71" lon="1.73837">
        <ele>183</ele>
        <time>2012-02-25T12:07:09.000Z</time>
      </trkpt>
      <trkpt lat="48.71003" lon="1.73817">
        <ele>182.60000610352</ele>
        <time>2012-02-25T12:07:17.000Z</time>
      </trkpt>
      <trkpt lat="48.71005" lon="1.73806">
        <ele>182.39999389648</ele>
        <time>2012-02-25T12:07:23.000Z</time>
      </trkpt>
      <trkpt lat="48.71006" lon="1.73802">
        <ele>182.19999694824</ele>
        <time>2012-02-25T12:07:28.000Z</time>
      </trkpt>
      <trkpt lat="48.71016" lon="1.73799">
        <ele>182.19999694824</ele>
        <time>2012-02-25T12:07:42.000Z</time>
      </trkpt>
      <trkpt lat="48.71024" lon="1.73794">
        <ele>182.19999694824</ele>
        <time>2012-02-25T12:07:45.000Z</time>
      </trkpt>
      <trkpt lat="48.7103" lon="1.73786">
        <ele>182.19999694824</ele>
        <time>2012-02-25T12:07:51.000Z</time>
      </trkpt>
      <trkpt lat="48.71039" lon="1.73776">
        <ele>182.19999694824</ele>
        <time>2012-02-25T12:07:59.000Z</time>
      </trkpt>
      <trkpt lat="48.71041" lon="1.73774">
        <ele>182.19999694824</ele>
        <time>2012-02-25T12:08:01.000Z</time>
      </trkpt>
      <trkpt lat="48.7105" lon="1.73759">
        <ele>182.19999694824</ele>
        <time>2012-02-25T12:08:06.000Z</time>
      </trkpt>
      <trkpt lat="48.71064" lon="1.73743">
        <ele>182.19999694824</ele>
        <time>2012-02-25T12:08:11.000Z</time>
      </trkpt>
      <trkpt lat="48.7107" lon="1.73736">
        <ele>182</ele>
        <time>2012-02-25T12:08:15.000Z</time>
      </trkpt>
      <trkpt lat="48.71078" lon="1.73731">
        <ele>182</ele>
        <time>2012-02-25T12:08:21.000Z</time>
      </trkpt>
      <trkpt lat="48.71086" lon="1.73723">
        <ele>181.80000305176</ele>
        <time>2012-02-25T12:08:28.000Z</time>
      </trkpt>
      <trkpt lat="48.71092" lon="1.73716">
        <ele>181.60000610352</ele>
        <time>2012-02-25T12:08:34.000Z</time>
      </trkpt>
      <trkpt lat="48.71099" lon="1.7371">
        <ele>181.60000610352</ele>
        <time>2012-02-25T12:08:40.000Z</time>
      </trkpt>
      <trkpt lat="48.71106" lon="1.73701">
        <ele>181.39999389648</ele>
        <time>2012-02-25T12:08:47.000Z</time>
      </trkpt>
      <trkpt lat="48.71108" lon="1.73699">
        <ele>181.39999389648</ele>
        <time>2012-02-25T12:08:49.000Z</time>
      </trkpt>
      <trkpt lat="48.71119" lon="1.73688">
        <ele>181.39999389648</ele>
        <time>2012-02-25T12:08:59.000Z</time>
      </trkpt>
      <trkpt lat="48.71121" lon="1.73686">
        <ele>181.39999389648</ele>
        <time>2012-02-25T12:09:01.000Z</time>
      </trkpt>
      <trkpt lat="48.71125" lon="1.7368">
        <ele>181.39999389648</ele>
        <time>2012-02-25T12:09:05.000Z</time>
      </trkpt>
      <trkpt lat="48.71129" lon="1.73676">
        <ele>181.39999389648</ele>
        <time>2012-02-25T12:09:09.000Z</time>
      </trkpt>
      <trkpt lat="48.7113" lon="1.73673">
        <ele>181.39999389648</ele>
        <time>2012-02-25T12:09:11.000Z</time>
      </trkpt>
      <trkpt lat="48.71133" lon="1.73667">
        <ele>181.39999389648</ele>
        <time>2012-02-25T12:09:18.000Z</time>
      </trkpt>
      <trkpt lat="48.71142" lon="1.73661">
        <ele>181.60000610352</ele>
        <time>2012-02-25T12:09:38.000Z</time>
      </trkpt>
      <trkpt lat="48.71149" lon="1.73656">
        <ele>181.80000305176</ele>
        <time>2012-02-25T12:09:43.000Z</time>
      </trkpt>
      <trkpt lat="48.71158" lon="1.73649">
        <ele>182</ele>
        <time>2012-02-25T12:09:51.000Z</time>
      </trkpt>
      <trkpt lat="48.71167" lon="1.73642">
        <ele>182.19999694824</ele>
        <time>2012-02-25T12:09:59.000Z</time>
      </trkpt>
      <trkpt lat="48.71173" lon="1.73635">
        <ele>182</ele>
        <time>2012-02-25T12:10:05.000Z</time>
      </trkpt>
      <trkpt lat="48.71179" lon="1.73631">
        <ele>182</ele>
        <time>2012-02-25T12:10:10.000Z</time>
      </trkpt>
      <trkpt lat="48.71191" lon="1.73615">
        <ele>182</ele>
        <time>2012-02-25T12:10:21.000Z</time>
      </trkpt>
      <trkpt lat="48.71197" lon="1.73603">
        <ele>182.19999694824</ele>
        <time>2012-02-25T12:10:28.000Z</time>
      </trkpt>
      <trkpt lat="48.71206" lon="1.73605">
        <ele>182.60000610352</ele>
        <time>2012-02-25T12:10:35.000Z</time>
      </trkpt>
      <trkpt lat="48.71215" lon="1.73611">
        <ele>183</ele>
        <time>2012-02-25T12:10:43.000Z</time>
      </trkpt>
      <trkpt lat="48.71225" lon="1.73611">
        <ele>183.39999389648</ele>
        <time>2012-02-25T12:10:53.000Z</time>
      </trkpt>
      <trkpt lat="48.71235" lon="1.73614">
        <ele>183.80000305176</ele>
        <time>2012-02-25T12:11:01.000Z</time>
      </trkpt>
      <trkpt lat="48.71241" lon="1.73615">
        <ele>184</ele>
        <time>2012-02-25T12:11:09.000Z</time>
      </trkpt>
      <trkpt lat="48.71246" lon="1.73618">
        <ele>184</ele>
        <time>2012-02-25T12:11:14.000Z</time>
      </trkpt>
      <trkpt lat="48.71255" lon="1.73618">
        <ele>183.19999694824</ele>
        <time>2012-02-25T12:11:20.000Z</time>
      </trkpt>
      <trkpt lat="48.71261" lon="1.73617">
        <ele>182.19999694824</ele>
        <time>2012-02-25T12:11:26.000Z</time>
      </trkpt>
      <trkpt lat="48.71263" lon="1.73615">
        <ele>182</ele>
        <time>2012-02-25T12:11:30.000Z</time>
      </trkpt>
      <trkpt lat="48.7127" lon="1.73604">
        <ele>181</ele>
        <time>2012-02-25T12:11:42.000Z</time>
      </trkpt>
      <trkpt lat="48.71275" lon="1.736">
        <ele>180.39999389648</ele>
        <time>2012-02-25T12:11:45.000Z</time>
      </trkpt>
      <trkpt lat="48.7128" lon="1.73591">
        <ele>179.80000305176</ele>
        <time>2012-02-25T12:11:51.000Z</time>
      </trkpt>
      <trkpt lat="48.71291" lon="1.7358">
        <ele>178.19999694824</ele>
        <time>2012-02-25T12:12:01.000Z</time>
      </trkpt>
      <trkpt lat="48.71296" lon="1.73564">
        <ele>177.80000305176</ele>
        <time>2012-02-25T12:12:09.000Z</time>
      </trkpt>
      <trkpt lat="48.713" lon="1.73555">
        <ele>177.39999389648</ele>
        <time>2012-02-25T12:12:16.000Z</time>
      </trkpt>
      <trkpt lat="48.71302" lon="1.73543">
        <ele>177.39999389648</ele>
        <time>2012-02-25T12:12:25.000Z</time>
      </trkpt>
      <trkpt lat="48.71308" lon="1.73535">
        <ele>177.19999694824</ele>
        <time>2012-02-25T12:12:31.000Z</time>
      </trkpt>
      <trkpt lat="48.71314" lon="1.73537">
        <ele>176.39999389648</ele>
        <time>2012-02-25T12:12:38.000Z</time>
      </trkpt>
      <trkpt lat="48.71317" lon="1.73535">
        <ele>176.19999694824</ele>
        <time>2012-02-25T12:12:53.000Z</time>
      </trkpt>
      <trkpt lat="48.71321" lon="1.73532">
        <ele>176</ele>
        <time>2012-02-25T12:12:55.000Z</time>
      </trkpt>
      <trkpt lat="48.71323" lon="1.73528">
        <ele>176</ele>
        <time>2012-02-25T12:13:03.000Z</time>
      </trkpt>
      <trkpt lat="48.71324" lon="1.73525">
        <ele>176</ele>
        <time>2012-02-25T12:13:10.000Z</time>
      </trkpt>
      <trkpt lat="48.71332" lon="1.73519">
        <ele>175.80000305176</ele>
        <time>2012-02-25T12:13:15.000Z</time>
      </trkpt>
      <trkpt lat="48.71343" lon="1.73526">
        <ele>173.80000305176</ele>
        <time>2012-02-25T12:13:22.000Z</time>
      </trkpt>
      <trkpt lat="48.71348" lon="1.73534">
        <ele>172.80000305176</ele>
        <time>2012-02-25T12:13:27.000Z</time>
      </trkpt>
      <trkpt lat="48.71357" lon="1.73539">
        <ele>171.39999389648</ele>
        <time>2012-02-25T12:13:34.000Z</time>
      </trkpt>
      <trkpt lat="48.7136" lon="1.73545">
        <ele>170.60000610352</ele>
        <time>2012-02-25T12:13:38.000Z</time>
      </trkpt>
      <trkpt lat="48.71365" lon="1.7355">
        <ele>169.60000610352</ele>
        <time>2012-02-25T12:13:43.000Z</time>
      </trkpt>
      <trkpt lat="48.71366" lon="1.73552">
        <ele>169.39999389648</ele>
        <time>2012-02-25T12:13:47.000Z</time>
      </trkpt>
      <trkpt lat="48.71372" lon="1.73561">
        <ele>168.19999694824</ele>
        <time>2012-02-25T12:13:57.000Z</time>
      </trkpt>
      <trkpt lat="48.71375" lon="1.73567">
        <ele>167.39999389648</ele>
        <time>2012-02-25T12:14:00.000Z</time>
      </trkpt>
      <trkpt lat="48.71376" lon="1.73568">
        <ele>167.19999694824</ele>
        <time>2012-02-25T12:14:02.000Z</time>
      </trkpt>
      <trkpt lat="48.71381" lon="1.73571">
        <ele>166.60000610352</ele>
        <time>2012-02-25T12:14:07.000Z</time>
      </trkpt>
      <trkpt lat="48.71388" lon="1.73572">
        <ele>165.80000305176</ele>
        <time>2012-02-25T12:14:13.000Z</time>
      </trkpt>
      <trkpt lat="48.71393" lon="1.73569">
        <ele>165.39999389648</ele>
        <time>2012-02-25T12:14:19.000Z</time>
      </trkpt>
      <trkpt lat="48.71393" lon="1.73569">
        <ele>165.39999389648</ele>
        <time>2012-02-25T12:14:20.000Z</time>
      </trkpt>
      <trkpt lat="48.71399" lon="1.73572">
        <ele>164.39999389648</ele>
        <time>2012-02-25T12:14:31.000Z</time>
      </trkpt>
      <trkpt lat="48.71401" lon="1.73573">
        <ele>164.19999694824</ele>
        <time>2012-02-25T12:14:32.000Z</time>
      </trkpt>
      <trkpt lat="48.71407" lon="1.73572">
        <ele>163.60000610352</ele>
        <time>2012-02-25T12:14:36.000Z</time>
      </trkpt>
      <trkpt lat="48.71411" lon="1.7357">
        <ele>163.19999694824</ele>
        <time>2012-02-25T12:14:41.000Z</time>
      </trkpt>
      <trkpt lat="48.71418" lon="1.73565">
        <ele>162.80000305176</ele>
        <time>2012-02-25T12:14:50.000Z</time>
      </trkpt>
      <trkpt lat="48.7142" lon="1.73561">
        <ele>162.80000305176</ele>
        <time>2012-02-25T12:14:53.000Z</time>
      </trkpt>
      <trkpt lat="48.71427" lon="1.73559">
        <ele>162</ele>
        <time>2012-02-25T12:15:00.000Z</time>
      </trkpt>
      <trkpt lat="48.71432" lon="1.73558">
        <ele>161.60000610352</ele>
        <time>2012-02-25T12:15:06.000Z</time>
      </trkpt>
      <trkpt lat="48.71438" lon="1.73555">
        <ele>161</ele>
        <time>2012-02-25T12:15:11.000Z</time>
      </trkpt>
      <trkpt lat="48.71445" lon="1.73554">
        <ele>160.19999694824</ele>
        <time>2012-02-25T12:15:18.000Z</time>
      </trkpt>
      <trkpt lat="48.7145" lon="1.7355">
        <ele>159.60000610352</ele>
        <time>2012-02-25T12:15:24.000Z</time>
      </trkpt>
      <trkpt lat="48.71455" lon="1.73548">
        <ele>159.19999694824</ele>
        <time>2012-02-25T12:15:29.000Z</time>
      </trkpt>
      <trkpt lat="48.71462" lon="1.73553">
        <ele>158.19999694824</ele>
        <time>2012-02-25T12:15:36.000Z</time>
      </trkpt>
      <trkpt lat="48.71473" lon="1.73554">
        <ele>157</ele>
        <time>2012-02-25T12:15:44.000Z</time>
      </trkpt>
      <trkpt lat="48.71478" lon="1.73555">
        <ele>156.39999389648</ele>
        <time>2012-02-25T12:15:48.000Z</time>
      </trkpt>
      <trkpt lat="48.71483" lon="1.73552">
        <ele>155.80000305176</ele>
        <time>2012-02-25T12:15:55.000Z</time>
      </trkpt>
      <trkpt lat="48.71489" lon="1.73549">
        <ele>155.19999694824</ele>
        <time>2012-02-25T12:16:00.000Z</time>
      </trkpt>
      <trkpt lat="48.71492" lon="1.73547">
        <ele>154.60000610352</ele>
        <time>2012-02-25T12:16:04.000Z</time>
      </trkpt>
      <trkpt lat="48.71495" lon="1.73548">
        <ele>154.39999389648</ele>
        <time>2012-02-25T12:16:06.000Z</time>
      </trkpt>
      <trkpt lat="48.71503" lon="1.73547">
        <ele>153.39999389648</ele>
        <time>2012-02-25T12:16:12.000Z</time>
      </trkpt>
      <trkpt lat="48.71506" lon="1.73547">
        <ele>153</ele>
        <time>2012-02-25T12:16:14.000Z</time>
      </trkpt>
      <trkpt lat="48.71509" lon="1.73545">
        <ele>152.60000610352</ele>
        <time>2012-02-25T12:16:17.000Z</time>
      </trkpt>
      <trkpt lat="48.71517" lon="1.73542">
        <ele>151.60000610352</ele>
        <time>2012-02-25T12:16:25.000Z</time>
      </trkpt>
      <trkpt lat="48.71518" lon="1.73542">
        <ele>151.60000610352</ele>
        <time>2012-02-25T12:16:27.000Z</time>
      </trkpt>
      <trkpt lat="48.71521" lon="1.73543">
        <ele>151.19999694824</ele>
        <time>2012-02-25T12:16:46.000Z</time>
      </trkpt>
      <trkpt lat="48.71529" lon="1.73545">
        <ele>150.39999389648</ele>
        <time>2012-02-25T12:16:51.000Z</time>
      </trkpt>
      <trkpt lat="48.71531" lon="1.73545">
        <ele>150.19999694824</ele>
        <time>2012-02-25T12:16:52.000Z</time>
      </trkpt>
      <trkpt lat="48.71538" lon="1.73542">
        <ele>149.39999389648</ele>
        <time>2012-02-25T12:16:59.000Z</time>
      </trkpt>
      <trkpt lat="48.71539" lon="1.73542">
        <ele>149.19999694824</ele>
        <time>2012-02-25T12:17:02.000Z</time>
      </trkpt>
      <trkpt lat="48.71553" lon="1.73544">
        <ele>147.80000305176</ele>
        <time>2012-02-25T12:17:33.000Z</time>
      </trkpt>
      <trkpt lat="48.71561" lon="1.7354">
        <ele>147</ele>
        <time>2012-02-25T12:17:40.000Z</time>
      </trkpt>
      <trkpt lat="48.71568" lon="1.73538">
        <ele>146.19999694824</ele>
        <time>2012-02-25T12:17:46.000Z</time>
      </trkpt>
      <trkpt lat="48.71572" lon="1.73536">
        <ele>145.60000610352</ele>
        <time>2012-02-25T12:17:50.000Z</time>
      </trkpt>
      <trkpt lat="48.71578" lon="1.73536">
        <ele>145</ele>
        <time>2012-02-25T12:17:56.000Z</time>
      </trkpt>
      <trkpt lat="48.7158" lon="1.73536">
        <ele>144.80000305176</ele>
        <time>2012-02-25T12:18:00.000Z</time>
      </trkpt>
      <trkpt lat="48.71587" lon="1.73535">
        <ele>144.19999694824</ele>
        <time>2012-02-25T12:18:08.000Z</time>
      </trkpt>
      <trkpt lat="48.71595" lon="1.73531">
        <ele>143.80000305176</ele>
        <time>2012-02-25T12:18:14.000Z</time>
      </trkpt>
      <trkpt lat="48.71597" lon="1.73532">
        <ele>143.60000610352</ele>
        <time>2012-02-25T12:18:16.000Z</time>
      </trkpt>
      <trkpt lat="48.71608" lon="1.73531">
        <ele>143</ele>
        <time>2012-02-25T12:18:24.000Z</time>
      </trkpt>
      <trkpt lat="48.71616" lon="1.73532">
        <ele>142.60000610352</ele>
        <time>2012-02-25T12:18:30.000Z</time>
      </trkpt>
      <trkpt lat="48.71618" lon="1.73531">
        <ele>142.60000610352</ele>
        <time>2012-02-25T12:18:32.000Z</time>
      </trkpt>
      <trkpt lat="48.7162" lon="1.7353">
        <ele>142.39999389648</ele>
        <time>2012-02-25T12:18:34.000Z</time>
      </trkpt>
      <trkpt lat="48.71626" lon="1.73526">
        <ele>142.19999694824</ele>
        <time>2012-02-25T12:18:40.000Z</time>
      </trkpt>
      <trkpt lat="48.71628" lon="1.73525">
        <ele>142</ele>
        <time>2012-02-25T12:18:42.000Z</time>
      </trkpt>
      <trkpt lat="48.71636" lon="1.7352">
        <ele>141.60000610352</ele>
        <time>2012-02-25T12:18:49.000Z</time>
      </trkpt>
      <trkpt lat="48.71643" lon="1.73519">
        <ele>141.19999694824</ele>
        <time>2012-02-25T12:18:55.000Z</time>
      </trkpt>
      <trkpt lat="48.71655" lon="1.73516">
        <ele>140.60000610352</ele>
        <time>2012-02-25T12:19:04.000Z</time>
      </trkpt>
      <trkpt lat="48.71661" lon="1.73515">
        <ele>140.39999389648</ele>
        <time>2012-02-25T12:19:09.000Z</time>
      </trkpt>
      <trkpt lat="48.71666" lon="1.73512">
        <ele>140</ele>
        <time>2012-02-25T12:19:14.000Z</time>
      </trkpt>
      <trkpt lat="48.71671" lon="1.7351">
        <ele>139.80000305176</ele>
        <time>2012-02-25T12:19:19.000Z</time>
      </trkpt>
      <trkpt lat="48.71674" lon="1.7351">
        <ele>139.80000305176</ele>
        <time>2012-02-25T12:19:25.000Z</time>
      </trkpt>
      <trkpt lat="48.71679" lon="1.73511">
        <ele>139.60000610352</ele>
        <time>2012-02-25T12:19:30.000Z</time>
      </trkpt>
      <trkpt lat="48.71682" lon="1.73511">
        <ele>139.60000610352</ele>
        <time>2012-02-25T12:19:33.000Z</time>
      </trkpt>
      <trkpt lat="48.7169" lon="1.73508">
        <ele>139.19999694824</ele>
        <time>2012-02-25T12:19:41.000Z</time>
      </trkpt>
      <trkpt lat="48.71691" lon="1.73507">
        <ele>139.19999694824</ele>
        <time>2012-02-25T12:19:42.000Z</time>
      </trkpt>
      <trkpt lat="48.71701" lon="1.73507">
        <ele>138.80000305176</ele>
        <time>2012-02-25T12:19:50.000Z</time>
      </trkpt>
      <trkpt lat="48.71706" lon="1.73508">
        <ele>138.80000305176</ele>
        <time>2012-02-25T12:19:55.000Z</time>
      </trkpt>
      <trkpt lat="48.71707" lon="1.73509">
        <ele>138.80000305176</ele>
        <time>2012-02-25T12:19:58.000Z</time>
      </trkpt>
      <trkpt lat="48.71712" lon="1.73505">
        <ele>138.39999389648</ele>
        <time>2012-02-25T12:20:07.000Z</time>
      </trkpt>
      <trkpt lat="48.7172" lon="1.73504">
        <ele>138.19999694824</ele>
        <time>2012-02-25T12:20:11.000Z</time>
      </trkpt>
      <trkpt lat="48.71728" lon="1.73501">
        <ele>137.80000305176</ele>
        <time>2012-02-25T12:20:17.000Z</time>
      </trkpt>
      <trkpt lat="48.71741" lon="1.73498">
        <ele>137.39999389648</ele>
        <time>2012-02-25T12:20:26.000Z</time>
      </trkpt>
      <trkpt lat="48.71747" lon="1.73491">
        <ele>137.19999694824</ele>
        <time>2012-02-25T12:20:31.000Z</time>
      </trkpt>
      <trkpt lat="48.71753" lon="1.73484">
        <ele>136.80000305176</ele>
        <time>2012-02-25T12:20:36.000Z</time>
      </trkpt>
      <trkpt lat="48.71753" lon="1.73465">
        <ele>136.80000305176</ele>
        <time>2012-02-25T12:20:45.000Z</time>
      </trkpt>
      <trkpt lat="48.71749" lon="1.73448">
        <ele>137</ele>
        <time>2012-02-25T12:20:54.000Z</time>
      </trkpt>
      <trkpt lat="48.71745" lon="1.7343">
        <ele>137.19999694824</ele>
        <time>2012-02-25T12:21:03.000Z</time>
      </trkpt>
      <trkpt lat="48.7174" lon="1.73412">
        <ele>137.19999694824</ele>
        <time>2012-02-25T12:21:12.000Z</time>
      </trkpt>
      <trkpt lat="48.71737" lon="1.734">
        <ele>137</ele>
        <time>2012-02-25T12:21:18.000Z</time>
      </trkpt>
      <trkpt lat="48.71732" lon="1.7338">
        <ele>136.80000305176</ele>
        <time>2012-02-25T12:21:28.000Z</time>
      </trkpt>
      <trkpt lat="48.7173" lon="1.7337">
        <ele>136.60000610352</ele>
        <time>2012-02-25T12:21:34.000Z</time>
      </trkpt>
      <trkpt lat="48.71724" lon="1.73354">
        <ele>136.39999389648</ele>
        <time>2012-02-25T12:21:43.000Z</time>
      </trkpt>
      <trkpt lat="48.7172" lon="1.73339">
        <ele>136.19999694824</ele>
        <time>2012-02-25T12:21:51.000Z</time>
      </trkpt>
      <trkpt lat="48.71715" lon="1.73321">
        <ele>136.19999694824</ele>
        <time>2012-02-25T12:22:00.000Z</time>
      </trkpt>
      <trkpt lat="48.71712" lon="1.73302">
        <ele>136.19999694824</ele>
        <time>2012-02-25T12:22:09.000Z</time>
      </trkpt>
      <trkpt lat="48.7171" lon="1.73286">
        <ele>136.19999694824</ele>
        <time>2012-02-25T12:22:17.000Z</time>
      </trkpt>
      <trkpt lat="48.71707" lon="1.73268">
        <ele>136.19999694824</ele>
        <time>2012-02-25T12:22:26.000Z</time>
      </trkpt>
      <trkpt lat="48.71706" lon="1.73251">
        <ele>136.19999694824</ele>
        <time>2012-02-25T12:22:34.000Z</time>
      </trkpt>
      <trkpt lat="48.71703" lon="1.7323">
        <ele>136.19999694824</ele>
        <time>2012-02-25T12:22:44.000Z</time>
      </trkpt>
      <trkpt lat="48.71701" lon="1.73215">
        <ele>136.19999694824</ele>
        <time>2012-02-25T12:22:52.000Z</time>
      </trkpt>
      <trkpt lat="48.71698" lon="1.73198">
        <ele>136</ele>
        <time>2012-02-25T12:23:00.000Z</time>
      </trkpt>
      <trkpt lat="48.71696" lon="1.73182">
        <ele>136</ele>
        <time>2012-02-25T12:23:08.000Z</time>
      </trkpt>
      <trkpt lat="48.71693" lon="1.73163">
        <ele>136.19999694824</ele>
        <time>2012-02-25T12:23:17.000Z</time>
      </trkpt>
      <trkpt lat="48.71691" lon="1.73149">
        <ele>136.39999389648</ele>
        <time>2012-02-25T12:23:24.000Z</time>
      </trkpt>
      <trkpt lat="48.71689" lon="1.73137">
        <ele>136.80000305176</ele>
        <time>2012-02-25T12:23:30.000Z</time>
      </trkpt>
      <trkpt lat="48.71685" lon="1.73112">
        <ele>137.60000610352</ele>
        <time>2012-02-25T12:23:42.000Z</time>
      </trkpt>
      <trkpt lat="48.71683" lon="1.73094">
        <ele>138</ele>
        <time>2012-02-25T12:23:51.000Z</time>
      </trkpt>
      <trkpt lat="48.71681" lon="1.73076">
        <ele>138.19999694824</ele>
        <time>2012-02-25T12:24:00.000Z</time>
      </trkpt>
      <trkpt lat="48.71678" lon="1.73054">
        <ele>138</ele>
        <time>2012-02-25T12:24:10.000Z</time>
      </trkpt>
      <trkpt lat="48.71676" lon="1.73041">
        <ele>138</ele>
        <time>2012-02-25T12:24:18.000Z</time>
      </trkpt>
      <trkpt lat="48.71676" lon="1.73041">
        <ele>138</ele>
        <time>2012-02-25T12:24:19.000Z</time>
      </trkpt>
      <trkpt lat="48.71674" lon="1.73029">
        <ele>138</ele>
        <time>2012-02-25T12:24:27.000Z</time>
      </trkpt>
      <trkpt lat="48.71674" lon="1.73027">
        <ele>138</ele>
        <time>2012-02-25T12:24:28.000Z</time>
      </trkpt>
      <trkpt lat="48.71672" lon="1.7301">
        <ele>137.80000305176</ele>
        <time>2012-02-25T12:24:33.000Z</time>
      </trkpt>
      <trkpt lat="48.71669" lon="1.73001">
        <ele>137.80000305176</ele>
        <time>2012-02-25T12:24:38.000Z</time>
      </trkpt>
      <trkpt lat="48.71664" lon="1.72987">
        <ele>138</ele>
        <time>2012-02-25T12:24:44.000Z</time>
      </trkpt>
      <trkpt lat="48.71657" lon="1.72975">
        <ele>138.19999694824</ele>
        <time>2012-02-25T12:24:52.000Z</time>
      </trkpt>
      <trkpt lat="48.71655" lon="1.72968">
        <ele>138.19999694824</ele>
        <time>2012-02-25T12:24:57.000Z</time>
      </trkpt>
      <trkpt lat="48.71652" lon="1.72956">
        <ele>138.19999694824</ele>
        <time>2012-02-25T12:25:04.000Z</time>
      </trkpt>
      <trkpt lat="48.71646" lon="1.7294">
        <ele>138.19999694824</ele>
        <time>2012-02-25T12:25:14.000Z</time>
      </trkpt>
      <trkpt lat="48.71641" lon="1.72928">
        <ele>138.39999389648</ele>
        <time>2012-02-25T12:25:21.000Z</time>
      </trkpt>
      <trkpt lat="48.71636" lon="1.72917">
        <ele>138.39999389648</ele>
        <time>2012-02-25T12:25:28.000Z</time>
      </trkpt>
      <trkpt lat="48.71632" lon="1.72903">
        <ele>138.60000610352</ele>
        <time>2012-02-25T12:25:36.000Z</time>
      </trkpt>
      <trkpt lat="48.7163" lon="1.72897">
        <ele>138.60000610352</ele>
        <time>2012-02-25T12:25:40.000Z</time>
      </trkpt>
      <trkpt lat="48.71623" lon="1.72888">
        <ele>139</ele>
        <time>2012-02-25T12:25:46.000Z</time>
      </trkpt>
      <trkpt lat="48.71615" lon="1.72871">
        <ele>139.19999694824</ele>
        <time>2012-02-25T12:25:56.000Z</time>
      </trkpt>
      <trkpt lat="48.71609" lon="1.72861">
        <ele>139.39999389648</ele>
        <time>2012-02-25T12:26:03.000Z</time>
      </trkpt>
      <trkpt lat="48.71602" lon="1.72849">
        <ele>139.39999389648</ele>
        <time>2012-02-25T12:26:11.000Z</time>
      </trkpt>
      <trkpt lat="48.71598" lon="1.72837">
        <ele>139.39999389648</ele>
        <time>2012-02-25T12:26:18.000Z</time>
      </trkpt>
      <trkpt lat="48.71594" lon="1.72833">
        <ele>139.60000610352</ele>
        <time>2012-02-25T12:26:22.000Z</time>
      </trkpt>
      <trkpt lat="48.7159" lon="1.72827">
        <ele>139.80000305176</ele>
        <time>2012-02-25T12:26:26.000Z</time>
      </trkpt>
      <trkpt lat="48.71584" lon="1.72815">
        <ele>140.19999694824</ele>
        <time>2012-02-25T12:26:34.000Z</time>
      </trkpt>
      <trkpt lat="48.71578" lon="1.72803">
        <ele>140.60000610352</ele>
        <time>2012-02-25T12:26:41.000Z</time>
      </trkpt>
      <trkpt lat="48.71572" lon="1.72792">
        <ele>141.19999694824</ele>
        <time>2012-02-25T12:26:48.000Z</time>
      </trkpt>
      <trkpt lat="48.71568" lon="1.72781">
        <ele>141.60000610352</ele>
        <time>2012-02-25T12:26:55.000Z</time>
      </trkpt>
      <trkpt lat="48.71562" lon="1.7277">
        <ele>142</ele>
        <time>2012-02-25T12:27:03.000Z</time>
      </trkpt>
      <trkpt lat="48.71561" lon="1.72767">
        <ele>142.19999694824</ele>
        <time>2012-02-25T12:27:05.000Z</time>
      </trkpt>
      <trkpt lat="48.71558" lon="1.72759">
        <ele>142.39999389648</ele>
        <time>2012-02-25T12:27:10.000Z</time>
      </trkpt>
      <trkpt lat="48.71552" lon="1.72744">
        <ele>142.80000305176</ele>
        <time>2012-02-25T12:27:18.000Z</time>
      </trkpt>
      <trkpt lat="48.71545" lon="1.7273">
        <ele>143</ele>
        <time>2012-02-25T12:27:26.000Z</time>
      </trkpt>
      <trkpt lat="48.71539" lon="1.72714">
        <ele>143</ele>
        <time>2012-02-25T12:27:34.000Z</time>
      </trkpt>
      <trkpt lat="48.71534" lon="1.72701">
        <ele>143</ele>
        <time>2012-02-25T12:27:41.000Z</time>
      </trkpt>
      <trkpt lat="48.71528" lon="1.72681">
        <ele>143</ele>
        <time>2012-02-25T12:27:51.000Z</time>
      </trkpt>
      <trkpt lat="48.71524" lon="1.72664">
        <ele>142.80000305176</ele>
        <time>2012-02-25T12:28:00.000Z</time>
      </trkpt>
      <trkpt lat="48.71518" lon="1.72655">
        <ele>142.80000305176</ele>
        <time>2012-02-25T12:28:07.000Z</time>
      </trkpt>
      <trkpt lat="48.71518" lon="1.72652">
        <ele>142.80000305176</ele>
        <time>2012-02-25T12:28:10.000Z</time>
      </trkpt>
      <trkpt lat="48.71513" lon="1.72637">
        <ele>142.60000610352</ele>
        <time>2012-02-25T12:28:18.000Z</time>
      </trkpt>
      <trkpt lat="48.71509" lon="1.72621">
        <ele>142.39999389648</ele>
        <time>2012-02-25T12:28:26.000Z</time>
      </trkpt>
      <trkpt lat="48.71507" lon="1.72607">
        <ele>142.19999694824</ele>
        <time>2012-02-25T12:28:33.000Z</time>
      </trkpt>
      <trkpt lat="48.71505" lon="1.72594">
        <ele>142</ele>
        <time>2012-02-25T12:28:42.000Z</time>
      </trkpt>
      <trkpt lat="48.71505" lon="1.72594">
        <ele>142</ele>
        <time>2012-02-25T12:28:43.000Z</time>
      </trkpt>
      <trkpt lat="48.71507" lon="1.72585">
        <ele>141.80000305176</ele>
        <time>2012-02-25T12:28:54.000Z</time>
      </trkpt>
      <trkpt lat="48.71505" lon="1.72579">
        <ele>141.60000610352</ele>
        <time>2012-02-25T12:28:56.000Z</time>
      </trkpt>
      <trkpt lat="48.71504" lon="1.72567">
        <ele>141.60000610352</ele>
        <time>2012-02-25T12:29:02.000Z</time>
      </trkpt>
      <trkpt lat="48.71501" lon="1.72549">
        <ele>141.60000610352</ele>
        <time>2012-02-25T12:29:10.000Z</time>
      </trkpt>
      <trkpt lat="48.715" lon="1.72536">
        <ele>141.39999389648</ele>
        <time>2012-02-25T12:29:16.000Z</time>
      </trkpt>
      <trkpt lat="48.71498" lon="1.72522">
        <ele>141.39999389648</ele>
        <time>2012-02-25T12:29:22.000Z</time>
      </trkpt>
      <trkpt lat="48.71496" lon="1.72507">
        <ele>141.39999389648</ele>
        <time>2012-02-25T12:29:29.000Z</time>
      </trkpt>
      <trkpt lat="48.71492" lon="1.7249">
        <ele>141.19999694824</ele>
        <time>2012-02-25T12:29:37.000Z</time>
      </trkpt>
      <trkpt lat="48.71491" lon="1.72472">
        <ele>140.80000305176</ele>
        <time>2012-02-25T12:29:46.000Z</time>
      </trkpt>
      <trkpt lat="48.71491" lon="1.72468">
        <ele>140.80000305176</ele>
        <time>2012-02-25T12:29:48.000Z</time>
      </trkpt>
      <trkpt lat="48.7149" lon="1.7246">
        <ele>140.60000610352</ele>
        <time>2012-02-25T12:29:53.000Z</time>
      </trkpt>
      <trkpt lat="48.7149" lon="1.72445">
        <ele>140.19999694824</ele>
        <time>2012-02-25T12:30:01.000Z</time>
      </trkpt>
      <trkpt lat="48.7149" lon="1.72439">
        <ele>140.19999694824</ele>
        <time>2012-02-25T12:30:04.000Z</time>
      </trkpt>
      <trkpt lat="48.7149" lon="1.72434">
        <ele>140</ele>
        <time>2012-02-25T12:30:07.000Z</time>
      </trkpt>
      <trkpt lat="48.71489" lon="1.72419">
        <ele>139.80000305176</ele>
        <time>2012-02-25T12:30:15.000Z</time>
      </trkpt>
      <trkpt lat="48.71488" lon="1.72396">
        <ele>139.60000610352</ele>
        <time>2012-02-25T12:30:26.000Z</time>
      </trkpt>
      <trkpt lat="48.71487" lon="1.72379">
        <ele>139.39999389648</ele>
        <time>2012-02-25T12:30:34.000Z</time>
      </trkpt>
      <trkpt lat="48.71488" lon="1.72361">
        <ele>139</ele>
        <time>2012-02-25T12:30:42.000Z</time>
      </trkpt>
      <trkpt lat="48.71488" lon="1.72346">
        <ele>138.80000305176</ele>
        <time>2012-02-25T12:30:49.000Z</time>
      </trkpt>
      <trkpt lat="48.71488" lon="1.72329">
        <ele>138.60000610352</ele>
        <time>2012-02-25T12:30:56.000Z</time>
      </trkpt>
      <trkpt lat="48.71486" lon="1.7231">
        <ele>138.60000610352</ele>
        <time>2012-02-25T12:31:04.000Z</time>
      </trkpt>
      <trkpt lat="48.71486" lon="1.72297">
        <ele>138.39999389648</ele>
        <time>2012-02-25T12:31:10.000Z</time>
      </trkpt>
      <trkpt lat="48.71485" lon="1.72279">
        <ele>138.39999389648</ele>
        <time>2012-02-25T12:31:18.000Z</time>
      </trkpt>
      <trkpt lat="48.71482" lon="1.72261">
        <ele>138.39999389648</ele>
        <time>2012-02-25T12:31:26.000Z</time>
      </trkpt>
      <trkpt lat="48.71477" lon="1.7225">
        <ele>138.60000610352</ele>
        <time>2012-02-25T12:31:32.000Z</time>
      </trkpt>
      <trkpt lat="48.71474" lon="1.72238">
        <ele>139.19999694824</ele>
        <time>2012-02-25T12:31:38.000Z</time>
      </trkpt>
      <trkpt lat="48.71469" lon="1.72224">
        <ele>140</ele>
        <time>2012-02-25T12:31:45.000Z</time>
      </trkpt>
      <trkpt lat="48.71464" lon="1.72209">
        <ele>140.80000305176</ele>
        <time>2012-02-25T12:31:52.000Z</time>
      </trkpt>
      <trkpt lat="48.71458" lon="1.72196">
        <ele>141.60000610352</ele>
        <time>2012-02-25T12:31:59.000Z</time>
      </trkpt>
      <trkpt lat="48.71449" lon="1.72189">
        <ele>142.80000305176</ele>
        <time>2012-02-25T12:32:05.000Z</time>
      </trkpt>
      <trkpt lat="48.71439" lon="1.7218">
        <ele>144.19999694824</ele>
        <time>2012-02-25T12:32:14.000Z</time>
      </trkpt>
      <trkpt lat="48.71433" lon="1.72171">
        <ele>145</ele>
        <time>2012-02-25T12:32:20.000Z</time>
      </trkpt>
      <trkpt lat="48.71431" lon="1.72166">
        <ele>145.39999389648</ele>
        <time>2012-02-25T12:32:23.000Z</time>
      </trkpt>
      <trkpt lat="48.71429" lon="1.7216">
        <ele>145.39999389648</ele>
        <time>2012-02-25T12:32:26.000Z</time>
      </trkpt>
      <trkpt lat="48.71429" lon="1.72142">
        <ele>144.80000305176</ele>
        <time>2012-02-25T12:32:33.000Z</time>
      </trkpt>
      <trkpt lat="48.71428" lon="1.72138">
        <ele>144.60000610352</ele>
        <time>2012-02-25T12:32:35.000Z</time>
      </trkpt>
      <trkpt lat="48.71428" lon="1.72135">
        <ele>144.60000610352</ele>
        <time>2012-02-25T12:32:37.000Z</time>
      </trkpt>
      <trkpt lat="48.71425" lon="1.72126">
        <ele>144.39999389648</ele>
        <time>2012-02-25T12:32:44.000Z</time>
      </trkpt>
      <trkpt lat="48.71423" lon="1.72118">
        <ele>144.19999694824</ele>
        <time>2012-02-25T12:32:48.000Z</time>
      </trkpt>
      <trkpt lat="48.71419" lon="1.72105">
        <ele>144</ele>
        <time>2012-02-25T12:32:53.000Z</time>
      </trkpt>
      <trkpt lat="48.71416" lon="1.72091">
        <ele>143.39999389648</ele>
        <time>2012-02-25T12:33:00.000Z</time>
      </trkpt>
      <trkpt lat="48.71415" lon="1.72088">
        <ele>143.39999389648</ele>
        <time>2012-02-25T12:33:01.000Z</time>
      </trkpt>
      <trkpt lat="48.7141" lon="1.72067">
        <ele>144</ele>
        <time>2012-02-25T12:33:09.000Z</time>
      </trkpt>
      <trkpt lat="48.71401" lon="1.72055">
        <ele>145</ele>
        <time>2012-02-25T12:33:17.000Z</time>
      </trkpt>
      <trkpt lat="48.71393" lon="1.72044">
        <ele>145.60000610352</ele>
        <time>2012-02-25T12:33:24.000Z</time>
      </trkpt>
      <trkpt lat="48.71387" lon="1.72037">
        <ele>146</ele>
        <time>2012-02-25T12:33:29.000Z</time>
      </trkpt>
      <trkpt lat="48.71381" lon="1.72031">
        <ele>146.39999389648</ele>
        <time>2012-02-25T12:33:35.000Z</time>
      </trkpt>
      <trkpt lat="48.71378" lon="1.72027">
        <ele>146.39999389648</ele>
        <time>2012-02-25T12:33:38.000Z</time>
      </trkpt>
      <trkpt lat="48.71374" lon="1.72018">
        <ele>146.39999389648</ele>
        <time>2012-02-25T12:33:44.000Z</time>
      </trkpt>
      <trkpt lat="48.71364" lon="1.72009">
        <ele>146.39999389648</ele>
        <time>2012-02-25T12:33:51.000Z</time>
      </trkpt>
      <trkpt lat="48.71352" lon="1.72004">
        <ele>146.60000610352</ele>
        <time>2012-02-25T12:33:59.000Z</time>
      </trkpt>
      <trkpt lat="48.7134" lon="1.71996">
        <ele>146.80000305176</ele>
        <time>2012-02-25T12:34:07.000Z</time>
      </trkpt>
      <trkpt lat="48.71335" lon="1.71986">
        <ele>147.19999694824</ele>
        <time>2012-02-25T12:34:13.000Z</time>
      </trkpt>
      <trkpt lat="48.7133" lon="1.71979">
        <ele>148</ele>
        <time>2012-02-25T12:34:18.000Z</time>
      </trkpt>
      <trkpt lat="48.7132" lon="1.71971">
        <ele>149.19999694824</ele>
        <time>2012-02-25T12:34:26.000Z</time>
      </trkpt>
      <trkpt lat="48.71318" lon="1.7197">
        <ele>149.39999389648</ele>
        <time>2012-02-25T12:34:28.000Z</time>
      </trkpt>
      <trkpt lat="48.71312" lon="1.71961">
        <ele>150.19999694824</ele>
        <time>2012-02-25T12:34:34.000Z</time>
      </trkpt>
      <trkpt lat="48.71311" lon="1.71946">
        <ele>150.80000305176</ele>
        <time>2012-02-25T12:34:41.000Z</time>
      </trkpt>
      <trkpt lat="48.71311" lon="1.71925">
        <ele>151.19999694824</ele>
        <time>2012-02-25T12:34:51.000Z</time>
      </trkpt>
      <trkpt lat="48.71313" lon="1.71907">
        <ele>151.39999389648</ele>
        <time>2012-02-25T12:35:00.000Z</time>
      </trkpt>
      <trkpt lat="48.71314" lon="1.71895">
        <ele>151.39999389648</ele>
        <time>2012-02-25T12:35:07.000Z</time>
      </trkpt>
      <trkpt lat="48.71316" lon="1.71891">
        <ele>151.19999694824</ele>
        <time>2012-02-25T12:35:09.000Z</time>
      </trkpt>
      <trkpt lat="48.71317" lon="1.71881">
        <ele>151.19999694824</ele>
        <time>2012-02-25T12:35:14.000Z</time>
      </trkpt>
      <trkpt lat="48.71319" lon="1.7187">
        <ele>151.19999694824</ele>
        <time>2012-02-25T12:35:20.000Z</time>
      </trkpt>
      <trkpt lat="48.71321" lon="1.71864">
        <ele>151</ele>
        <time>2012-02-25T12:35:23.000Z</time>
      </trkpt>
      <trkpt lat="48.71325" lon="1.71847">
        <ele>150.80000305176</ele>
        <time>2012-02-25T12:35:31.000Z</time>
      </trkpt>
      <trkpt lat="48.71326" lon="1.71842">
        <ele>150.80000305176</ele>
        <time>2012-02-25T12:35:33.000Z</time>
      </trkpt>
      <trkpt lat="48.71326" lon="1.71827">
        <ele>150.60000610352</ele>
        <time>2012-02-25T12:35:41.000Z</time>
      </trkpt>
      <trkpt lat="48.71326" lon="1.71823">
        <ele>150.39999389648</ele>
        <time>2012-02-25T12:35:43.000Z</time>
      </trkpt>
      <trkpt lat="48.71326" lon="1.71803">
        <ele>149.80000305176</ele>
        <time>2012-02-25T12:35:52.000Z</time>
      </trkpt>
      <trkpt lat="48.71326" lon="1.71791">
        <ele>149.19999694824</ele>
        <time>2012-02-25T12:35:58.000Z</time>
      </trkpt>
      <trkpt lat="48.71323" lon="1.71774">
        <ele>148.80000305176</ele>
        <time>2012-02-25T12:36:07.000Z</time>
      </trkpt>
      <trkpt lat="48.71322" lon="1.71754">
        <ele>148.19999694824</ele>
        <time>2012-02-25T12:36:17.000Z</time>
      </trkpt>
      <trkpt lat="48.71321" lon="1.71731">
        <ele>147.80000305176</ele>
        <time>2012-02-25T12:36:28.000Z</time>
      </trkpt>
      <trkpt lat="48.7132" lon="1.71712">
        <ele>147.39999389648</ele>
        <time>2012-02-25T12:36:37.000Z</time>
      </trkpt>
      <trkpt lat="48.7132" lon="1.71694">
        <ele>147.19999694824</ele>
        <time>2012-02-25T12:36:46.000Z</time>
      </trkpt>
      <trkpt lat="48.7132" lon="1.71685">
        <ele>147</ele>
        <time>2012-02-25T12:36:51.000Z</time>
      </trkpt>
      <trkpt lat="48.7132" lon="1.71676">
        <ele>146.80000305176</ele>
        <time>2012-02-25T12:36:56.000Z</time>
      </trkpt>
      <trkpt lat="48.71318" lon="1.7166">
        <ele>146.60000610352</ele>
        <time>2012-02-25T12:37:04.000Z</time>
      </trkpt>
      <trkpt lat="48.71317" lon="1.71649">
        <ele>146.19999694824</ele>
        <time>2012-02-25T12:37:10.000Z</time>
      </trkpt>
      <trkpt lat="48.71317" lon="1.71637">
        <ele>145.80000305176</ele>
        <time>2012-02-25T12:37:16.000Z</time>
      </trkpt>
      <trkpt lat="48.71316" lon="1.71624">
        <ele>145.39999389648</ele>
        <time>2012-02-25T12:37:22.000Z</time>
      </trkpt>
      <trkpt lat="48.71316" lon="1.71619">
        <ele>145.19999694824</ele>
        <time>2012-02-25T12:37:24.000Z</time>
      </trkpt>
      <trkpt lat="48.71315" lon="1.7161">
        <ele>145</ele>
        <time>2012-02-25T12:37:28.000Z</time>
      </trkpt>
      <trkpt lat="48.71315" lon="1.71594">
        <ele>144.39999389648</ele>
        <time>2012-02-25T12:37:36.000Z</time>
      </trkpt>
      <trkpt lat="48.71315" lon="1.71589">
        <ele>144.19999694824</ele>
        <time>2012-02-25T12:37:38.000Z</time>
      </trkpt>
      <trkpt lat="48.71316" lon="1.71575">
        <ele>144</ele>
        <time>2012-02-25T12:37:46.000Z</time>
      </trkpt>
      <trkpt lat="48.71314" lon="1.71553">
        <ele>143.80000305176</ele>
        <time>2012-02-25T12:37:56.000Z</time>
      </trkpt>
      <trkpt lat="48.71312" lon="1.7154">
        <ele>143.60000610352</ele>
        <time>2012-02-25T12:38:05.000Z</time>
      </trkpt>
      <trkpt lat="48.71314" lon="1.7153">
        <ele>143.39999389648</ele>
        <time>2012-02-25T12:38:13.000Z</time>
      </trkpt>
      <trkpt lat="48.71314" lon="1.71518">
        <ele>143.19999694824</ele>
        <time>2012-02-25T12:38:17.000Z</time>
      </trkpt>
      <trkpt lat="48.71314" lon="1.71499">
        <ele>143</ele>
        <time>2012-02-25T12:38:24.000Z</time>
      </trkpt>
      <trkpt lat="48.71313" lon="1.71482">
        <ele>142.80000305176</ele>
        <time>2012-02-25T12:38:31.000Z</time>
      </trkpt>
      <trkpt lat="48.71309" lon="1.71473">
        <ele>143</ele>
        <time>2012-02-25T12:38:36.000Z</time>
      </trkpt>
      <trkpt lat="48.71304" lon="1.71454">
        <ele>143</ele>
        <time>2012-02-25T12:38:45.000Z</time>
      </trkpt>
      <trkpt lat="48.71299" lon="1.71434">
        <ele>143.19999694824</ele>
        <time>2012-02-25T12:38:55.000Z</time>
      </trkpt>
      <trkpt lat="48.71298" lon="1.71413">
        <ele>143</ele>
        <time>2012-02-25T12:39:04.000Z</time>
      </trkpt>
      <trkpt lat="48.71296" lon="1.71392">
        <ele>142.80000305176</ele>
        <time>2012-02-25T12:39:14.000Z</time>
      </trkpt>
      <trkpt lat="48.71293" lon="1.71369">
        <ele>142.60000610352</ele>
        <time>2012-02-25T12:39:25.000Z</time>
      </trkpt>
      <trkpt lat="48.71291" lon="1.71352">
        <ele>142.39999389648</ele>
        <time>2012-02-25T12:39:33.000Z</time>
      </trkpt>
      <trkpt lat="48.71287" lon="1.71333">
        <ele>142.19999694824</ele>
        <time>2012-02-25T12:39:42.000Z</time>
      </trkpt>
      <trkpt lat="48.71284" lon="1.71313">
        <ele>142</ele>
        <time>2012-02-25T12:39:51.000Z</time>
      </trkpt>
      <trkpt lat="48.71281" lon="1.71297">
        <ele>142</ele>
        <time>2012-02-25T12:39:58.000Z</time>
      </trkpt>
      <trkpt lat="48.71279" lon="1.7128">
        <ele>141.80000305176</ele>
        <time>2012-02-25T12:40:06.000Z</time>
      </trkpt>
      <trkpt lat="48.71275" lon="1.71255">
        <ele>141.39999389648</ele>
        <time>2012-02-25T12:40:18.000Z</time>
      </trkpt>
      <trkpt lat="48.71274" lon="1.71235">
        <ele>141.39999389648</ele>
        <time>2012-02-25T12:40:27.000Z</time>
      </trkpt>
      <trkpt lat="48.71274" lon="1.7121">
        <ele>141.19999694824</ele>
        <time>2012-02-25T12:40:38.000Z</time>
      </trkpt>
      <trkpt lat="48.71277" lon="1.71195">
        <ele>141.19999694824</ele>
        <time>2012-02-25T12:40:45.000Z</time>
      </trkpt>
      <trkpt lat="48.71274" lon="1.71176">
        <ele>141.19999694824</ele>
        <time>2012-02-25T12:40:54.000Z</time>
      </trkpt>
      <trkpt lat="48.71271" lon="1.71158">
        <ele>141.19999694824</ele>
        <time>2012-02-25T12:41:03.000Z</time>
      </trkpt>
      <trkpt lat="48.71265" lon="1.71138">
        <ele>141.60000610352</ele>
        <time>2012-02-25T12:41:13.000Z</time>
      </trkpt>
      <trkpt lat="48.71262" lon="1.71123">
        <ele>141.60000610352</ele>
        <time>2012-02-25T12:41:21.000Z</time>
      </trkpt>
      <trkpt lat="48.71256" lon="1.7111">
        <ele>141.80000305176</ele>
        <time>2012-02-25T12:41:28.000Z</time>
      </trkpt>
      <trkpt lat="48.71248" lon="1.71097">
        <ele>142.19999694824</ele>
        <time>2012-02-25T12:41:36.000Z</time>
      </trkpt>
      <trkpt lat="48.71244" lon="1.71085">
        <ele>142.60000610352</ele>
        <time>2012-02-25T12:41:42.000Z</time>
      </trkpt>
      <trkpt lat="48.71237" lon="1.71068">
        <ele>143.39999389648</ele>
        <time>2012-02-25T12:41:51.000Z</time>
      </trkpt>
      <trkpt lat="48.7123" lon="1.71058">
        <ele>144</ele>
        <time>2012-02-25T12:41:57.000Z</time>
      </trkpt>
      <trkpt lat="48.71225" lon="1.71049">
        <ele>144.39999389648</ele>
        <time>2012-02-25T12:42:02.000Z</time>
      </trkpt>
      <trkpt lat="48.71219" lon="1.71034">
        <ele>145</ele>
        <time>2012-02-25T12:42:09.000Z</time>
      </trkpt>
      <trkpt lat="48.71215" lon="1.71026">
        <ele>145.19999694824</ele>
        <time>2012-02-25T12:42:13.000Z</time>
      </trkpt>
      <trkpt lat="48.71214" lon="1.71024">
        <ele>145.19999694824</ele>
        <time>2012-02-25T12:42:17.000Z</time>
      </trkpt>
      <trkpt lat="48.71214" lon="1.71015">
        <ele>145.19999694824</ele>
        <time>2012-02-25T12:42:30.000Z</time>
      </trkpt>
      <trkpt lat="48.71213" lon="1.71003">
        <ele>145.19999694824</ele>
        <time>2012-02-25T12:42:34.000Z</time>
      </trkpt>
      <trkpt lat="48.71213" lon="1.71001">
        <ele>145.19999694824</ele>
        <time>2012-02-25T12:42:35.000Z</time>
      </trkpt>
      <trkpt lat="48.71212" lon="1.70983">
        <ele>145.60000610352</ele>
        <time>2012-02-25T12:42:43.000Z</time>
      </trkpt>
      <trkpt lat="48.71209" lon="1.70968">
        <ele>146</ele>
        <time>2012-02-25T12:42:49.000Z</time>
      </trkpt>
      <trkpt lat="48.71207" lon="1.70951">
        <ele>146.60000610352</ele>
        <time>2012-02-25T12:42:56.000Z</time>
      </trkpt>
      <trkpt lat="48.71205" lon="1.70934">
        <ele>147</ele>
        <time>2012-02-25T12:43:03.000Z</time>
      </trkpt>
      <trkpt lat="48.71206" lon="1.70919">
        <ele>147.19999694824</ele>
        <time>2012-02-25T12:43:09.000Z</time>
      </trkpt>
      <trkpt lat="48.71207" lon="1.70915">
        <ele>147.19999694824</ele>
        <time>2012-02-25T12:43:11.000Z</time>
      </trkpt>
      <trkpt lat="48.71208" lon="1.70902">
        <ele>147.80000305176</ele>
        <time>2012-02-25T12:43:16.000Z</time>
      </trkpt>
      <trkpt lat="48.71206" lon="1.70889">
        <ele>148.60000610352</ele>
        <time>2012-02-25T12:43:20.000Z</time>
      </trkpt>
      <trkpt lat="48.71206" lon="1.70872">
        <ele>149.39999389648</ele>
        <time>2012-02-25T12:43:28.000Z</time>
      </trkpt>
      <trkpt lat="48.71198" lon="1.70864">
        <ele>150.39999389648</ele>
        <time>2012-02-25T12:43:32.000Z</time>
      </trkpt>
      <trkpt lat="48.71188" lon="1.70851">
        <ele>152.19999694824</ele>
        <time>2012-02-25T12:43:37.000Z</time>
      </trkpt>
      <trkpt lat="48.71179" lon="1.70835">
        <ele>153.80000305176</ele>
        <time>2012-02-25T12:43:43.000Z</time>
      </trkpt>
      <trkpt lat="48.71168" lon="1.70817">
        <ele>154.39999389648</ele>
        <time>2012-02-25T12:43:52.000Z</time>
      </trkpt>
      <trkpt lat="48.71159" lon="1.70803">
        <ele>154.60000610352</ele>
        <time>2012-02-25T12:43:59.000Z</time>
      </trkpt>
      <trkpt lat="48.71149" lon="1.70786">
        <ele>154.60000610352</ele>
        <time>2012-02-25T12:44:07.000Z</time>
      </trkpt>
      <trkpt lat="48.71143" lon="1.70775">
        <ele>154.60000610352</ele>
        <time>2012-02-25T12:44:13.000Z</time>
      </trkpt>
      <trkpt lat="48.71141" lon="1.70772">
        <ele>154.60000610352</ele>
        <time>2012-02-25T12:44:15.000Z</time>
      </trkpt>
      <trkpt lat="48.71132" lon="1.70761">
        <ele>154.80000305176</ele>
        <time>2012-02-25T12:44:23.000Z</time>
      </trkpt>
      <trkpt lat="48.71123" lon="1.70749">
        <ele>155</ele>
        <time>2012-02-25T12:44:30.000Z</time>
      </trkpt>
      <trkpt lat="48.71115" lon="1.70739">
        <ele>155.39999389648</ele>
        <time>2012-02-25T12:44:37.000Z</time>
      </trkpt>
      <trkpt lat="48.71108" lon="1.70728">
        <ele>155.80000305176</ele>
        <time>2012-02-25T12:44:44.000Z</time>
      </trkpt>
      <trkpt lat="48.71099" lon="1.70715">
        <ele>156.19999694824</ele>
        <time>2012-02-25T12:44:52.000Z</time>
      </trkpt>
      <trkpt lat="48.71088" lon="1.70698">
        <ele>156.80000305176</ele>
        <time>2012-02-25T12:45:02.000Z</time>
      </trkpt>
      <trkpt lat="48.71077" lon="1.70684">
        <ele>157.60000610352</ele>
        <time>2012-02-25T12:45:12.000Z</time>
      </trkpt>
      <trkpt lat="48.71064" lon="1.70666">
        <ele>158.60000610352</ele>
        <time>2012-02-25T12:45:23.000Z</time>
      </trkpt>
      <trkpt lat="48.71055" lon="1.70653">
        <ele>159</ele>
        <time>2012-02-25T12:45:31.000Z</time>
      </trkpt>
      <trkpt lat="48.71044" lon="1.70637">
        <ele>159.39999389648</ele>
        <time>2012-02-25T12:45:40.000Z</time>
      </trkpt>
      <trkpt lat="48.71037" lon="1.70632">
        <ele>159.80000305176</ele>
        <time>2012-02-25T12:45:46.000Z</time>
      </trkpt>
      <trkpt lat="48.71029" lon="1.70627">
        <ele>160.19999694824</ele>
        <time>2012-02-25T12:45:52.000Z</time>
      </trkpt>
      <trkpt lat="48.71028" lon="1.70624">
        <ele>160.19999694824</ele>
        <time>2012-02-25T12:45:54.000Z</time>
      </trkpt>
      <trkpt lat="48.71027" lon="1.70623">
        <ele>160.19999694824</ele>
        <time>2012-02-25T12:45:57.000Z</time>
      </trkpt>
      <trkpt lat="48.71023" lon="1.70609">
        <ele>159.80000305176</ele>
        <time>2012-02-25T12:46:21.000Z</time>
      </trkpt>
      <trkpt lat="48.7102" lon="1.70603">
        <ele>159.80000305176</ele>
        <time>2012-02-25T12:46:23.000Z</time>
      </trkpt>
      <trkpt lat="48.71007" lon="1.70586">
        <ele>159.80000305176</ele>
        <time>2012-02-25T12:46:32.000Z</time>
      </trkpt>
      <trkpt lat="48.70998" lon="1.70573">
        <ele>159.39999389648</ele>
        <time>2012-02-25T12:46:40.000Z</time>
      </trkpt>
      <trkpt lat="48.7099" lon="1.70561">
        <ele>158.80000305176</ele>
        <time>2012-02-25T12:46:48.000Z</time>
      </trkpt>
      <trkpt lat="48.7098" lon="1.7055">
        <ele>158.19999694824</ele>
        <time>2012-02-25T12:46:57.000Z</time>
      </trkpt>
      <trkpt lat="48.70973" lon="1.70537">
        <ele>157.60000610352</ele>
        <time>2012-02-25T12:47:04.000Z</time>
      </trkpt>
      <trkpt lat="48.70963" lon="1.70524">
        <ele>157</ele>
        <time>2012-02-25T12:47:12.000Z</time>
      </trkpt>
      <trkpt lat="48.70959" lon="1.70518">
        <ele>156.80000305176</ele>
        <time>2012-02-25T12:47:18.000Z</time>
      </trkpt>
      <trkpt lat="48.70956" lon="1.70514">
        <ele>156.80000305176</ele>
        <time>2012-02-25T12:47:22.000Z</time>
      </trkpt>
      <trkpt lat="48.70947" lon="1.70498">
        <ele>156.39999389648</ele>
        <time>2012-02-25T12:47:28.000Z</time>
      </trkpt>
      <trkpt lat="48.70941" lon="1.70481">
        <ele>157.60000610352</ele>
        <time>2012-02-25T12:47:33.000Z</time>
      </trkpt>
      <trkpt lat="48.70934" lon="1.70455">
        <ele>159.39999389648</ele>
        <time>2012-02-25T12:47:38.000Z</time>
      </trkpt>
      <trkpt lat="48.70931" lon="1.70434">
        <ele>160.80000305176</ele>
        <time>2012-02-25T12:47:42.000Z</time>
      </trkpt>
      <trkpt lat="48.70926" lon="1.70418">
        <ele>162.19999694824</ele>
        <time>2012-02-25T12:47:47.000Z</time>
      </trkpt>
      <trkpt lat="48.70924" lon="1.70415">
        <ele>162.80000305176</ele>
        <time>2012-02-25T12:47:49.000Z</time>
      </trkpt>
      <trkpt lat="48.70921" lon="1.70407">
        <ele>164</ele>
        <time>2012-02-25T12:47:53.000Z</time>
      </trkpt>
      <trkpt lat="48.70915" lon="1.70396">
        <ele>166</ele>
        <time>2012-02-25T12:47:59.000Z</time>
      </trkpt>
      <trkpt lat="48.70912" lon="1.7039">
        <ele>167</ele>
        <time>2012-02-25T12:48:03.000Z</time>
      </trkpt>
      <trkpt lat="48.70907" lon="1.70382">
        <ele>168.19999694824</ele>
        <time>2012-02-25T12:48:09.000Z</time>
      </trkpt>
      <trkpt lat="48.70901" lon="1.70372">
        <ele>170</ele>
        <time>2012-02-25T12:48:15.000Z</time>
      </trkpt>
      <trkpt lat="48.70895" lon="1.7036">
        <ele>171.80000305176</ele>
        <time>2012-02-25T12:48:20.000Z</time>
      </trkpt>
      <trkpt lat="48.7089" lon="1.7035">
        <ele>173.39999389648</ele>
        <time>2012-02-25T12:48:25.000Z</time>
      </trkpt>
      <trkpt lat="48.70888" lon="1.70345">
        <ele>174.19999694824</ele>
        <time>2012-02-25T12:48:28.000Z</time>
      </trkpt>
      <trkpt lat="48.70883" lon="1.70338">
        <ele>175.60000610352</ele>
        <time>2012-02-25T12:48:34.000Z</time>
      </trkpt>
      <trkpt lat="48.70879" lon="1.70334">
        <ele>176.19999694824</ele>
        <time>2012-02-25T12:48:37.000Z</time>
      </trkpt>
      <trkpt lat="48.70868" lon="1.70325">
        <ele>177.39999389648</ele>
        <time>2012-02-25T12:48:45.000Z</time>
      </trkpt>
      <trkpt lat="48.70857" lon="1.70319">
        <ele>178.60000610352</ele>
        <time>2012-02-25T12:48:53.000Z</time>
      </trkpt>
      <trkpt lat="48.70849" lon="1.70313">
        <ele>179.80000305176</ele>
        <time>2012-02-25T12:48:59.000Z</time>
      </trkpt>
      <trkpt lat="48.70839" lon="1.70306">
        <ele>181.19999694824</ele>
        <time>2012-02-25T12:49:06.000Z</time>
      </trkpt>
      <trkpt lat="48.70836" lon="1.70306">
        <ele>181.39999389648</ele>
        <time>2012-02-25T12:49:08.000Z</time>
      </trkpt>
      <trkpt lat="48.70826" lon="1.70301">
        <ele>182</ele>
        <time>2012-02-25T12:49:14.000Z</time>
      </trkpt>
      <trkpt lat="48.70815" lon="1.70296">
        <ele>182</ele>
        <time>2012-02-25T12:49:22.000Z</time>
      </trkpt>
      <trkpt lat="48.70807" lon="1.70293">
        <ele>182</ele>
        <time>2012-02-25T12:49:28.000Z</time>
      </trkpt>
      <trkpt lat="48.70801" lon="1.70292">
        <ele>182</ele>
        <time>2012-02-25T12:49:32.000Z</time>
      </trkpt>
      <trkpt lat="48.70793" lon="1.70284">
        <ele>182.39999389648</ele>
        <time>2012-02-25T12:49:39.000Z</time>
      </trkpt>
      <trkpt lat="48.70782" lon="1.70275">
        <ele>183</ele>
        <time>2012-02-25T12:49:47.000Z</time>
      </trkpt>
      <trkpt lat="48.70773" lon="1.70265">
        <ele>183.60000610352</ele>
        <time>2012-02-25T12:49:54.000Z</time>
      </trkpt>
      <trkpt lat="48.70766" lon="1.70255">
        <ele>184.39999389648</ele>
        <time>2012-02-25T12:50:00.000Z</time>
      </trkpt>
      <trkpt lat="48.70758" lon="1.70246">
        <ele>184.60000610352</ele>
        <time>2012-02-25T12:50:07.000Z</time>
      </trkpt>
      <trkpt lat="48.70755" lon="1.70242">
        <ele>184.39999389648</ele>
        <time>2012-02-25T12:50:12.000Z</time>
      </trkpt>
      <trkpt lat="48.70748" lon="1.70232">
        <ele>184.39999389648</ele>
        <time>2012-02-25T12:50:18.000Z</time>
      </trkpt>
      <trkpt lat="48.70738" lon="1.7022">
        <ele>184.19999694824</ele>
        <time>2012-02-25T12:50:25.000Z</time>
      </trkpt>
      <trkpt lat="48.70736" lon="1.70216">
        <ele>184.19999694824</ele>
        <time>2012-02-25T12:50:27.000Z</time>
      </trkpt>
      <trkpt lat="48.70728" lon="1.70208">
        <ele>184.19999694824</ele>
        <time>2012-02-25T12:50:34.000Z</time>
      </trkpt>
      <trkpt lat="48.70722" lon="1.702">
        <ele>184</ele>
        <time>2012-02-25T12:50:40.000Z</time>
      </trkpt>
      <trkpt lat="48.70718" lon="1.70195">
        <ele>184</ele>
        <time>2012-02-25T12:50:43.000Z</time>
      </trkpt>
      <trkpt lat="48.70709" lon="1.70183">
        <ele>184</ele>
        <time>2012-02-25T12:50:51.000Z</time>
      </trkpt>
      <trkpt lat="48.70702" lon="1.70172">
        <ele>184</ele>
        <time>2012-02-25T12:50:58.000Z</time>
      </trkpt>
      <trkpt lat="48.70694" lon="1.70165">
        <ele>184</ele>
        <time>2012-02-25T12:51:04.000Z</time>
      </trkpt>
      <trkpt lat="48.70685" lon="1.70156">
        <ele>184.19999694824</ele>
        <time>2012-02-25T12:51:11.000Z</time>
      </trkpt>
      <trkpt lat="48.70676" lon="1.70143">
        <ele>184.39999389648</ele>
        <time>2012-02-25T12:51:19.000Z</time>
      </trkpt>
      <trkpt lat="48.70667" lon="1.70132">
        <ele>184.60000610352</ele>
        <time>2012-02-25T12:51:27.000Z</time>
      </trkpt>
      <trkpt lat="48.70658" lon="1.7012">
        <ele>184.80000305176</ele>
        <time>2012-02-25T12:51:34.000Z</time>
      </trkpt>
      <trkpt lat="48.70652" lon="1.7011">
        <ele>185</ele>
        <time>2012-02-25T12:51:39.000Z</time>
      </trkpt>
      <trkpt lat="48.70642" lon="1.70098">
        <ele>185.19999694824</ele>
        <time>2012-02-25T12:51:47.000Z</time>
      </trkpt>
      <trkpt lat="48.70634" lon="1.70086">
        <ele>185.39999389648</ele>
        <time>2012-02-25T12:51:55.000Z</time>
      </trkpt>
      <trkpt lat="48.70634" lon="1.70085">
        <ele>185.39999389648</ele>
        <time>2012-02-25T12:51:57.000Z</time>
      </trkpt>
      <trkpt lat="48.7063" lon="1.70081">
        <ele>185.19999694824</ele>
        <time>2012-02-25T12:52:03.000Z</time>
      </trkpt>
      <trkpt lat="48.70628" lon="1.70078">
        <ele>185.19999694824</ele>
        <time>2012-02-25T12:52:04.000Z</time>
      </trkpt>
      <trkpt lat="48.70621" lon="1.70071">
        <ele>185</ele>
        <time>2012-02-25T12:52:09.000Z</time>
      </trkpt>
      <trkpt lat="48.7061" lon="1.70058">
        <ele>184.60000610352</ele>
        <time>2012-02-25T12:52:17.000Z</time>
      </trkpt>
      <trkpt lat="48.706" lon="1.70046">
        <ele>184.60000610352</ele>
        <time>2012-02-25T12:52:26.000Z</time>
      </trkpt>
      <trkpt lat="48.70594" lon="1.70039">
        <ele>184.39999389648</ele>
        <time>2012-02-25T12:52:31.000Z</time>
      </trkpt>
      <trkpt lat="48.70584" lon="1.70024">
        <ele>184.39999389648</ele>
        <time>2012-02-25T12:52:39.000Z</time>
      </trkpt>
      <trkpt lat="48.70577" lon="1.70012">
        <ele>184.60000610352</ele>
        <time>2012-02-25T12:52:46.000Z</time>
      </trkpt>
      <trkpt lat="48.70566" lon="1.70001">
        <ele>184.80000305176</ele>
        <time>2012-02-25T12:52:54.000Z</time>
      </trkpt>
      <trkpt lat="48.70558" lon="1.69991">
        <ele>184.39999389648</ele>
        <time>2012-02-25T12:53:00.000Z</time>
      </trkpt>
      <trkpt lat="48.70549" lon="1.69978">
        <ele>184.19999694824</ele>
        <time>2012-02-25T12:53:08.000Z</time>
      </trkpt>
      <trkpt lat="48.70539" lon="1.69965">
        <ele>183.80000305176</ele>
        <time>2012-02-25T12:53:16.000Z</time>
      </trkpt>
      <trkpt lat="48.7053" lon="1.69953">
        <ele>183.80000305176</ele>
        <time>2012-02-25T12:53:23.000Z</time>
      </trkpt>
      <trkpt lat="48.70522" lon="1.69943">
        <ele>183.80000305176</ele>
        <time>2012-02-25T12:53:29.000Z</time>
      </trkpt>
      <trkpt lat="48.70513" lon="1.69931">
        <ele>183.80000305176</ele>
        <time>2012-02-25T12:53:36.000Z</time>
      </trkpt>
      <trkpt lat="48.70504" lon="1.6992">
        <ele>184</ele>
        <time>2012-02-25T12:53:43.000Z</time>
      </trkpt>
      <trkpt lat="48.70491" lon="1.69903">
        <ele>183.80000305176</ele>
        <time>2012-02-25T12:53:53.000Z</time>
      </trkpt>
      <trkpt lat="48.70483" lon="1.69895">
        <ele>183.60000610352</ele>
        <time>2012-02-25T12:53:59.000Z</time>
      </trkpt>
      <trkpt lat="48.7048" lon="1.69891">
        <ele>183.39999389648</ele>
        <time>2012-02-25T12:54:04.000Z</time>
      </trkpt>
      <trkpt lat="48.70477" lon="1.69887">
        <ele>183.39999389648</ele>
        <time>2012-02-25T12:54:07.000Z</time>
      </trkpt>
      <trkpt lat="48.70467" lon="1.69873">
        <ele>183.19999694824</ele>
        <time>2012-02-25T12:54:15.000Z</time>
      </trkpt>
      <trkpt lat="48.70461" lon="1.69866">
        <ele>183</ele>
        <time>2012-02-25T12:54:20.000Z</time>
      </trkpt>
      <trkpt lat="48.70448" lon="1.6985">
        <ele>182.80000305176</ele>
        <time>2012-02-25T12:54:30.000Z</time>
      </trkpt>
      <trkpt lat="48.7044" lon="1.69838">
        <ele>182.80000305176</ele>
        <time>2012-02-25T12:54:37.000Z</time>
      </trkpt>
      <trkpt lat="48.7043" lon="1.69828">
        <ele>182.60000610352</ele>
        <time>2012-02-25T12:54:45.000Z</time>
      </trkpt>
      <trkpt lat="48.70426" lon="1.69824">
        <ele>182.60000610352</ele>
        <time>2012-02-25T12:54:48.000Z</time>
      </trkpt>
      <trkpt lat="48.70418" lon="1.69811">
        <ele>182.60000610352</ele>
        <time>2012-02-25T12:54:55.000Z</time>
      </trkpt>
      <trkpt lat="48.70411" lon="1.69805">
        <ele>182.80000305176</ele>
        <time>2012-02-25T12:55:00.000Z</time>
      </trkpt>
      <trkpt lat="48.70401" lon="1.69791">
        <ele>183.39999389648</ele>
        <time>2012-02-25T12:55:08.000Z</time>
      </trkpt>
      <trkpt lat="48.70393" lon="1.69779">
        <ele>184</ele>
        <time>2012-02-25T12:55:15.000Z</time>
      </trkpt>
      <trkpt lat="48.70385" lon="1.69769">
        <ele>184.39999389648</ele>
        <time>2012-02-25T12:55:22.000Z</time>
      </trkpt>
      <trkpt lat="48.70381" lon="1.69761">
        <ele>184.60000610352</ele>
        <time>2012-02-25T12:55:26.000Z</time>
      </trkpt>
      <trkpt lat="48.70374" lon="1.69754">
        <ele>185</ele>
        <time>2012-02-25T12:55:33.000Z</time>
      </trkpt>
      <trkpt lat="48.7037" lon="1.69749">
        <ele>185.19999694824</ele>
        <time>2012-02-25T12:55:37.000Z</time>
      </trkpt>
      <trkpt lat="48.70358" lon="1.69731">
        <ele>185.60000610352</ele>
        <time>2012-02-25T12:55:47.000Z</time>
      </trkpt>
      <trkpt lat="48.70347" lon="1.69722">
        <ele>186</ele>
        <time>2012-02-25T12:55:54.000Z</time>
      </trkpt>
      <trkpt lat="48.70345" lon="1.6972">
        <ele>186</ele>
        <time>2012-02-25T12:55:56.000Z</time>
      </trkpt>
      <trkpt lat="48.70337" lon="1.69708">
        <ele>186.39999389648</ele>
        <time>2012-02-25T12:56:03.000Z</time>
      </trkpt>
      <trkpt lat="48.7033" lon="1.69699">
        <ele>186.39999389648</ele>
        <time>2012-02-25T12:56:10.000Z</time>
      </trkpt>
      <trkpt lat="48.70324" lon="1.69695">
        <ele>186.19999694824</ele>
        <time>2012-02-25T12:56:15.000Z</time>
      </trkpt>
      <trkpt lat="48.70317" lon="1.69689">
        <ele>186</ele>
        <time>2012-02-25T12:56:22.000Z</time>
      </trkpt>
      <trkpt lat="48.70317" lon="1.69689">
        <ele>186</ele>
        <time>2012-02-25T12:56:23.000Z</time>
      </trkpt>
      <trkpt lat="48.70314" lon="1.69682">
        <ele>186</ele>
        <time>2012-02-25T12:56:32.000Z</time>
      </trkpt>
      <trkpt lat="48.70308" lon="1.69674">
        <ele>185.80000305176</ele>
        <time>2012-02-25T12:56:36.000Z</time>
      </trkpt>
      <trkpt lat="48.70299" lon="1.69664">
        <ele>185.39999389648</ele>
        <time>2012-02-25T12:56:43.000Z</time>
      </trkpt>
      <trkpt lat="48.70291" lon="1.69653">
        <ele>185</ele>
        <time>2012-02-25T12:56:50.000Z</time>
      </trkpt>
      <trkpt lat="48.70284" lon="1.69641">
        <ele>184.39999389648</ele>
        <time>2012-02-25T12:56:58.000Z</time>
      </trkpt>
      <trkpt lat="48.70274" lon="1.69628">
        <ele>184</ele>
        <time>2012-02-25T12:57:06.000Z</time>
      </trkpt>
      <trkpt lat="48.7027" lon="1.69623">
        <ele>183.80000305176</ele>
        <time>2012-02-25T12:57:11.000Z</time>
      </trkpt>
      <trkpt lat="48.70265" lon="1.69618">
        <ele>183.60000610352</ele>
        <time>2012-02-25T12:57:19.000Z</time>
      </trkpt>
      <trkpt lat="48.70254" lon="1.69605">
        <ele>183.19999694824</ele>
        <time>2012-02-25T12:57:26.000Z</time>
      </trkpt>
      <trkpt lat="48.70246" lon="1.69596">
        <ele>183</ele>
        <time>2012-02-25T12:57:32.000Z</time>
      </trkpt>
      <trkpt lat="48.70234" lon="1.69583">
        <ele>182.80000305176</ele>
        <time>2012-02-25T12:57:41.000Z</time>
      </trkpt>
      <trkpt lat="48.70224" lon="1.6957">
        <ele>182.80000305176</ele>
        <time>2012-02-25T12:57:49.000Z</time>
      </trkpt>
      <trkpt lat="48.7021" lon="1.69553">
        <ele>182.60000610352</ele>
        <time>2012-02-25T12:58:00.000Z</time>
      </trkpt>
      <trkpt lat="48.70197" lon="1.69535">
        <ele>182.80000305176</ele>
        <time>2012-02-25T12:58:11.000Z</time>
      </trkpt>
      <trkpt lat="48.70189" lon="1.69522">
        <ele>182.80000305176</ele>
        <time>2012-02-25T12:58:19.000Z</time>
      </trkpt>
      <trkpt lat="48.70179" lon="1.6951">
        <ele>182.80000305176</ele>
        <time>2012-02-25T12:58:27.000Z</time>
      </trkpt>
      <trkpt lat="48.70167" lon="1.69495">
        <ele>183</ele>
        <time>2012-02-25T12:58:37.000Z</time>
      </trkpt>
      <trkpt lat="48.70155" lon="1.69483">
        <ele>182.80000305176</ele>
        <time>2012-02-25T12:58:46.000Z</time>
      </trkpt>
      <trkpt lat="48.70144" lon="1.69484">
        <ele>182.60000610352</ele>
        <time>2012-02-25T12:58:54.000Z</time>
      </trkpt>
      <trkpt lat="48.70134" lon="1.69488">
        <ele>182.19999694824</ele>
        <time>2012-02-25T12:59:00.000Z</time>
      </trkpt>
      <trkpt lat="48.70124" lon="1.69489">
        <ele>182</ele>
        <time>2012-02-25T12:59:05.000Z</time>
      </trkpt>
      <trkpt lat="48.70113" lon="1.69491">
        <ele>181.60000610352</ele>
        <time>2012-02-25T12:59:11.000Z</time>
      </trkpt>
      <trkpt lat="48.70096" lon="1.69495">
        <ele>181.19999694824</ele>
        <time>2012-02-25T12:59:21.000Z</time>
      </trkpt>
      <trkpt lat="48.70083" lon="1.69498">
        <ele>181</ele>
        <time>2012-02-25T12:59:28.000Z</time>
      </trkpt>
      <trkpt lat="48.70072" lon="1.69501">
        <ele>180.19999694824</ele>
        <time>2012-02-25T12:59:33.000Z</time>
      </trkpt>
      <trkpt lat="48.70061" lon="1.69503">
        <ele>179.39999389648</ele>
        <time>2012-02-25T12:59:38.000Z</time>
      </trkpt>
      <trkpt lat="48.70059" lon="1.69504">
        <ele>179</ele>
        <time>2012-02-25T12:59:42.000Z</time>
      </trkpt>
      <trkpt lat="48.70055" lon="1.69504">
        <ele>178.80000305176</ele>
        <time>2012-02-25T12:59:46.000Z</time>
      </trkpt>
      <trkpt lat="48.7004" lon="1.69509">
        <ele>177.60000610352</ele>
        <time>2012-02-25T12:59:53.000Z</time>
      </trkpt>
      <trkpt lat="48.70025" lon="1.69513">
        <ele>176.39999389648</ele>
        <time>2012-02-25T13:00:02.000Z</time>
      </trkpt>
      <trkpt lat="48.70011" lon="1.69515">
        <ele>175.39999389648</ele>
        <time>2012-02-25T13:00:10.000Z</time>
      </trkpt>
      <trkpt lat="48.69998" lon="1.69517">
        <ele>174.39999389648</ele>
        <time>2012-02-25T13:00:18.000Z</time>
      </trkpt>
      <trkpt lat="48.69984" lon="1.69524">
        <ele>172.60000610352</ele>
        <time>2012-02-25T13:00:27.000Z</time>
      </trkpt>
      <trkpt lat="48.69969" lon="1.69526">
        <ele>171</ele>
        <time>2012-02-25T13:00:36.000Z</time>
      </trkpt>
      <trkpt lat="48.69957" lon="1.69526">
        <ele>169.60000610352</ele>
        <time>2012-02-25T13:00:43.000Z</time>
      </trkpt>
      <trkpt lat="48.69941" lon="1.69522">
        <ele>168.19999694824</ele>
        <time>2012-02-25T13:00:52.000Z</time>
      </trkpt>
      <trkpt lat="48.69933" lon="1.69519">
        <ele>167.19999694824</ele>
        <time>2012-02-25T13:00:57.000Z</time>
      </trkpt>
      <trkpt lat="48.69921" lon="1.69514">
        <ele>166</ele>
        <time>2012-02-25T13:01:04.000Z</time>
      </trkpt>
      <trkpt lat="48.69916" lon="1.69513">
        <ele>165.60000610352</ele>
        <time>2012-02-25T13:01:09.000Z</time>
      </trkpt>
      <trkpt lat="48.69913" lon="1.69512">
        <ele>165.60000610352</ele>
        <time>2012-02-25T13:01:18.000Z</time>
      </trkpt>
      <trkpt lat="48.69895" lon="1.69506">
        <ele>165.39999389648</ele>
        <time>2012-02-25T13:01:28.000Z</time>
      </trkpt>
      <trkpt lat="48.69882" lon="1.695">
        <ele>165.19999694824</ele>
        <time>2012-02-25T13:01:36.000Z</time>
      </trkpt>
      <trkpt lat="48.69867" lon="1.69493">
        <ele>164.80000305176</ele>
        <time>2012-02-25T13:01:45.000Z</time>
      </trkpt>
      <trkpt lat="48.69854" lon="1.69491">
        <ele>164.39999389648</ele>
        <time>2012-02-25T13:01:53.000Z</time>
      </trkpt>
      <trkpt lat="48.6985" lon="1.6949">
        <ele>164.19999694824</ele>
        <time>2012-02-25T13:01:55.000Z</time>
      </trkpt>
      <trkpt lat="48.69846" lon="1.69486">
        <ele>164</ele>
        <time>2012-02-25T13:01:58.000Z</time>
      </trkpt>
      <trkpt lat="48.69844" lon="1.69477">
        <ele>163.80000305176</ele>
        <time>2012-02-25T13:02:02.000Z</time>
      </trkpt>
      <trkpt lat="48.69839" lon="1.69466">
        <ele>163.39999389648</ele>
        <time>2012-02-25T13:02:08.000Z</time>
      </trkpt>
      <trkpt lat="48.69834" lon="1.69469">
        <ele>163.19999694824</ele>
        <time>2012-02-25T13:02:12.000Z</time>
      </trkpt>
      <trkpt lat="48.69828" lon="1.69466">
        <ele>162.60000610352</ele>
        <time>2012-02-25T13:02:16.000Z</time>
      </trkpt>
      <trkpt lat="48.69826" lon="1.69463">
        <ele>162.39999389648</ele>
        <time>2012-02-25T13:02:18.000Z</time>
      </trkpt>
      <trkpt lat="48.69825" lon="1.69463">
        <ele>162.19999694824</ele>
        <time>2012-02-25T13:02:21.000Z</time>
      </trkpt>
      <trkpt lat="48.6982" lon="1.69462">
        <ele>161.80000305176</ele>
        <time>2012-02-25T13:02:26.000Z</time>
      </trkpt>
      <trkpt lat="48.69816" lon="1.69469">
        <ele>161.39999389648</ele>
        <time>2012-02-25T13:02:29.000Z</time>
      </trkpt>
      <trkpt lat="48.69824" lon="1.69486">
        <ele>162.60000610352</ele>
        <time>2012-02-25T13:02:36.000Z</time>
      </trkpt>
      <trkpt lat="48.69825" lon="1.69489">
        <ele>162.80000305176</ele>
        <time>2012-02-25T13:02:37.000Z</time>
      </trkpt>
      <trkpt lat="48.6983" lon="1.69508">
        <ele>163.39999389648</ele>
        <time>2012-02-25T13:02:45.000Z</time>
      </trkpt>
      <trkpt lat="48.69835" lon="1.69529">
        <ele>163.39999389648</ele>
        <time>2012-02-25T13:02:50.000Z</time>
      </trkpt>
      <trkpt lat="48.69845" lon="1.6956">
        <ele>162.80000305176</ele>
        <time>2012-02-25T13:02:57.000Z</time>
      </trkpt>
      <trkpt lat="48.69853" lon="1.69587">
        <ele>162.39999389648</ele>
        <time>2012-02-25T13:03:03.000Z</time>
      </trkpt>
      <trkpt lat="48.6986" lon="1.69612">
        <ele>162.39999389648</ele>
        <time>2012-02-25T13:03:08.000Z</time>
      </trkpt>
      <trkpt lat="48.69868" lon="1.69637">
        <ele>162.39999389648</ele>
        <time>2012-02-25T13:03:13.000Z</time>
      </trkpt>
      <trkpt lat="48.69874" lon="1.69659">
        <ele>162.60000610352</ele>
        <time>2012-02-25T13:03:17.000Z</time>
      </trkpt>
      <trkpt lat="48.69882" lon="1.6968">
        <ele>163.39999389648</ele>
        <time>2012-02-25T13:03:21.000Z</time>
      </trkpt>
      <trkpt lat="48.69891" lon="1.69706">
        <ele>165</ele>
        <time>2012-02-25T13:03:26.000Z</time>
      </trkpt>
      <trkpt lat="48.69898" lon="1.69723">
        <ele>166</ele>
        <time>2012-02-25T13:03:29.000Z</time>
      </trkpt>
      <trkpt lat="48.69908" lon="1.69743">
        <ele>167.39999389648</ele>
        <time>2012-02-25T13:03:33.000Z</time>
      </trkpt>
      <trkpt lat="48.69915" lon="1.69772">
        <ele>169.19999694824</ele>
        <time>2012-02-25T13:03:38.000Z</time>
      </trkpt>
      <trkpt lat="48.69917" lon="1.69778">
        <ele>169.60000610352</ele>
        <time>2012-02-25T13:03:39.000Z</time>
      </trkpt>
      <trkpt lat="48.69928" lon="1.69805">
        <ele>171.60000610352</ele>
        <time>2012-02-25T13:03:45.000Z</time>
      </trkpt>
      <trkpt lat="48.69935" lon="1.69824">
        <ele>172.60000610352</ele>
        <time>2012-02-25T13:03:49.000Z</time>
      </trkpt>
      <trkpt lat="48.69943" lon="1.69857">
        <ele>173.80000305176</ele>
        <time>2012-02-25T13:03:55.000Z</time>
      </trkpt>
      <trkpt lat="48.69952" lon="1.69882">
        <ele>174.60000610352</ele>
        <time>2012-02-25T13:04:00.000Z</time>
      </trkpt>
      <trkpt lat="48.69968" lon="1.6991">
        <ele>175.19999694824</ele>
        <time>2012-02-25T13:04:06.000Z</time>
      </trkpt>
      <trkpt lat="48.69983" lon="1.69932">
        <ele>175.60000610352</ele>
        <time>2012-02-25T13:04:12.000Z</time>
      </trkpt>
      <trkpt lat="48.69995" lon="1.69952">
        <ele>176</ele>
        <time>2012-02-25T13:04:17.000Z</time>
      </trkpt>
      <trkpt lat="48.70009" lon="1.69971">
        <ele>176.60000610352</ele>
        <time>2012-02-25T13:04:22.000Z</time>
      </trkpt>
      <trkpt lat="48.70023" lon="1.69992">
        <ele>178</ele>
        <time>2012-02-25T13:04:27.000Z</time>
      </trkpt>
      <trkpt lat="48.7004" lon="1.70012">
        <ele>179</ele>
        <time>2012-02-25T13:04:32.000Z</time>
      </trkpt>
      <trkpt lat="48.7006" lon="1.70046">
        <ele>180</ele>
        <time>2012-02-25T13:04:40.000Z</time>
      </trkpt>
      <trkpt lat="48.70077" lon="1.70072">
        <ele>180.80000305176</ele>
        <time>2012-02-25T13:04:46.000Z</time>
      </trkpt>
      <trkpt lat="48.7009" lon="1.70094">
        <ele>180.80000305176</ele>
        <time>2012-02-25T13:04:51.000Z</time>
      </trkpt>
      <trkpt lat="48.70098" lon="1.70108">
        <ele>180.39999389648</ele>
        <time>2012-02-25T13:04:54.000Z</time>
      </trkpt>
      <trkpt lat="48.70115" lon="1.70135">
        <ele>179.60000610352</ele>
        <time>2012-02-25T13:05:00.000Z</time>
      </trkpt>
      <trkpt lat="48.70122" lon="1.70149">
        <ele>179.19999694824</ele>
        <time>2012-02-25T13:05:03.000Z</time>
      </trkpt>
      <trkpt lat="48.70137" lon="1.70189">
        <ele>178.19999694824</ele>
        <time>2012-02-25T13:05:11.000Z</time>
      </trkpt>
      <trkpt lat="48.70153" lon="1.70232">
        <ele>177.19999694824</ele>
        <time>2012-02-25T13:05:19.000Z</time>
      </trkpt>
      <trkpt lat="48.70158" lon="1.70249">
        <ele>177</ele>
        <time>2012-02-25T13:05:22.000Z</time>
      </trkpt>
      <trkpt lat="48.70167" lon="1.70277">
        <ele>177.39999389648</ele>
        <time>2012-02-25T13:05:27.000Z</time>
      </trkpt>
      <trkpt lat="48.70178" lon="1.70304">
        <ele>178.39999389648</ele>
        <time>2012-02-25T13:05:33.000Z</time>
      </trkpt>
      <trkpt lat="48.70188" lon="1.70327">
        <ele>179.19999694824</ele>
        <time>2012-02-25T13:05:38.000Z</time>
      </trkpt>
      <trkpt lat="48.70197" lon="1.7036">
        <ele>180.19999694824</ele>
        <time>2012-02-25T13:05:44.000Z</time>
      </trkpt>
      <trkpt lat="48.70204" lon="1.70383">
        <ele>180.80000305176</ele>
        <time>2012-02-25T13:05:48.000Z</time>
      </trkpt>
      <trkpt lat="48.70213" lon="1.70404">
        <ele>181.60000610352</ele>
        <time>2012-02-25T13:05:52.000Z</time>
      </trkpt>
      <trkpt lat="48.70225" lon="1.70439">
        <ele>182</ele>
        <time>2012-02-25T13:05:59.000Z</time>
      </trkpt>
      <trkpt lat="48.70232" lon="1.70458">
        <ele>182</ele>
        <time>2012-02-25T13:06:03.000Z</time>
      </trkpt>
      <trkpt lat="48.70241" lon="1.70485">
        <ele>182</ele>
        <time>2012-02-25T13:06:08.000Z</time>
      </trkpt>
      <trkpt lat="48.70251" lon="1.70515">
        <ele>181.80000305176</ele>
        <time>2012-02-25T13:06:14.000Z</time>
      </trkpt>
      <trkpt lat="48.70259" lon="1.70542">
        <ele>182</ele>
        <time>2012-02-25T13:06:19.000Z</time>
      </trkpt>
      <trkpt lat="48.7027" lon="1.70573">
        <ele>182.19999694824</ele>
        <time>2012-02-25T13:06:25.000Z</time>
      </trkpt>
      <trkpt lat="48.70278" lon="1.70598">
        <ele>182.60000610352</ele>
        <time>2012-02-25T13:06:30.000Z</time>
      </trkpt>
      <trkpt lat="48.70288" lon="1.70628">
        <ele>183.19999694824</ele>
        <time>2012-02-25T13:06:36.000Z</time>
      </trkpt>
      <trkpt lat="48.70295" lon="1.7065">
        <ele>183.60000610352</ele>
        <time>2012-02-25T13:06:40.000Z</time>
      </trkpt>
      <trkpt lat="48.70304" lon="1.70677">
        <ele>184.19999694824</ele>
        <time>2012-02-25T13:06:45.000Z</time>
      </trkpt>
      <trkpt lat="48.70305" lon="1.70683">
        <ele>184.19999694824</ele>
        <time>2012-02-25T13:06:46.000Z</time>
      </trkpt>
      <trkpt lat="48.70318" lon="1.70717">
        <ele>184.39999389648</ele>
        <time>2012-02-25T13:06:53.000Z</time>
      </trkpt>
      <trkpt lat="48.70326" lon="1.7074">
        <ele>184</ele>
        <time>2012-02-25T13:06:58.000Z</time>
      </trkpt>
      <trkpt lat="48.70335" lon="1.7077">
        <ele>184.60000610352</ele>
        <time>2012-02-25T13:07:04.000Z</time>
      </trkpt>
      <trkpt lat="48.70345" lon="1.70798">
        <ele>185.39999389648</ele>
        <time>2012-02-25T13:07:10.000Z</time>
      </trkpt>
      <trkpt lat="48.70355" lon="1.70828">
        <ele>186.19999694824</ele>
        <time>2012-02-25T13:07:16.000Z</time>
      </trkpt>
      <trkpt lat="48.70362" lon="1.7085">
        <ele>186.39999389648</ele>
        <time>2012-02-25T13:07:21.000Z</time>
      </trkpt>
      <trkpt lat="48.70372" lon="1.70877">
        <ele>186.80000305176</ele>
        <time>2012-02-25T13:07:27.000Z</time>
      </trkpt>
      <trkpt lat="48.70381" lon="1.70895">
        <ele>186.80000305176</ele>
        <time>2012-02-25T13:07:32.000Z</time>
      </trkpt>
      <trkpt lat="48.70389" lon="1.70915">
        <ele>187</ele>
        <time>2012-02-25T13:07:37.000Z</time>
      </trkpt>
      <trkpt lat="48.70397" lon="1.70939">
        <ele>187</ele>
        <time>2012-02-25T13:07:42.000Z</time>
      </trkpt>
      <trkpt lat="48.70404" lon="1.7096">
        <ele>187</ele>
        <time>2012-02-25T13:07:47.000Z</time>
      </trkpt>
      <trkpt lat="48.70413" lon="1.70982">
        <ele>187</ele>
        <time>2012-02-25T13:07:52.000Z</time>
      </trkpt>
      <trkpt lat="48.70421" lon="1.71008">
        <ele>186.60000610352</ele>
        <time>2012-02-25T13:07:58.000Z</time>
      </trkpt>
      <trkpt lat="48.70431" lon="1.7104">
        <ele>185.80000305176</ele>
        <time>2012-02-25T13:08:05.000Z</time>
      </trkpt>
      <trkpt lat="48.70436" lon="1.71059">
        <ele>185.39999389648</ele>
        <time>2012-02-25T13:08:10.000Z</time>
      </trkpt>
      <trkpt lat="48.70443" lon="1.71079">
        <ele>185</ele>
        <time>2012-02-25T13:08:15.000Z</time>
      </trkpt>
      <trkpt lat="48.70448" lon="1.71107">
        <ele>185.19999694824</ele>
        <time>2012-02-25T13:08:21.000Z</time>
      </trkpt>
      <trkpt lat="48.70451" lon="1.71116">
        <ele>185.19999694824</ele>
        <time>2012-02-25T13:08:25.000Z</time>
      </trkpt>
      <trkpt lat="48.7046" lon="1.71128">
        <ele>185.19999694824</ele>
        <time>2012-02-25T13:08:32.000Z</time>
      </trkpt>
      <trkpt lat="48.70465" lon="1.71137">
        <ele>185.19999694824</ele>
        <time>2012-02-25T13:08:37.000Z</time>
      </trkpt>
      <trkpt lat="48.70474" lon="1.7114">
        <ele>185.19999694824</ele>
        <time>2012-02-25T13:08:42.000Z</time>
      </trkpt>
      <trkpt lat="48.70489" lon="1.71149">
        <ele>185.19999694824</ele>
        <time>2012-02-25T13:08:51.000Z</time>
      </trkpt>
      <trkpt lat="48.70497" lon="1.71157">
        <ele>185</ele>
        <time>2012-02-25T13:08:57.000Z</time>
      </trkpt>
      <trkpt lat="48.70498" lon="1.7117">
        <ele>185</ele>
        <time>2012-02-25T13:09:03.000Z</time>
      </trkpt>
      <trkpt lat="48.70495" lon="1.71188">
        <ele>185.39999389648</ele>
        <time>2012-02-25T13:09:11.000Z</time>
      </trkpt>
      <trkpt lat="48.70491" lon="1.71202">
        <ele>185.60000610352</ele>
        <time>2012-02-25T13:09:17.000Z</time>
      </trkpt>
      <trkpt lat="48.70487" lon="1.71215">
        <ele>185.80000305176</ele>
        <time>2012-02-25T13:09:23.000Z</time>
      </trkpt>
      <trkpt lat="48.70485" lon="1.71231">
        <ele>186</ele>
        <time>2012-02-25T13:09:31.000Z</time>
      </trkpt>
      <trkpt lat="48.70479" lon="1.71246">
        <ele>186.19999694824</ele>
        <time>2012-02-25T13:09:38.000Z</time>
      </trkpt>
      <trkpt lat="48.70475" lon="1.71267">
        <ele>186.60000610352</ele>
        <time>2012-02-25T13:09:46.000Z</time>
      </trkpt>
      <trkpt lat="48.70471" lon="1.71292">
        <ele>186.80000305176</ele>
        <time>2012-02-25T13:09:55.000Z</time>
      </trkpt>
      <trkpt lat="48.70466" lon="1.71311">
        <ele>187</ele>
        <time>2012-02-25T13:10:02.000Z</time>
      </trkpt>
      <trkpt lat="48.70462" lon="1.71327">
        <ele>187</ele>
        <time>2012-02-25T13:10:09.000Z</time>
      </trkpt>
      <trkpt lat="48.70459" lon="1.71342">
        <ele>187</ele>
        <time>2012-02-25T13:10:15.000Z</time>
      </trkpt>
      <trkpt lat="48.70455" lon="1.71361">
        <ele>186.80000305176</ele>
        <time>2012-02-25T13:10:23.000Z</time>
      </trkpt>
      <trkpt lat="48.70453" lon="1.71376">
        <ele>186.80000305176</ele>
        <time>2012-02-25T13:10:30.000Z</time>
      </trkpt>
      <trkpt lat="48.70447" lon="1.714">
        <ele>186.60000610352</ele>
        <time>2012-02-25T13:10:37.000Z</time>
      </trkpt>
      <trkpt lat="48.70445" lon="1.71412">
        <ele>186.39999389648</ele>
        <time>2012-02-25T13:10:43.000Z</time>
      </trkpt>
      <trkpt lat="48.70442" lon="1.71428">
        <ele>186.19999694824</ele>
        <time>2012-02-25T13:10:51.000Z</time>
      </trkpt>
      <trkpt lat="48.70438" lon="1.71446">
        <ele>186.19999694824</ele>
        <time>2012-02-25T13:11:00.000Z</time>
      </trkpt>
      <trkpt lat="48.70434" lon="1.71466">
        <ele>186</ele>
        <time>2012-02-25T13:11:08.000Z</time>
      </trkpt>
      <trkpt lat="48.70431" lon="1.71482">
        <ele>186</ele>
        <time>2012-02-25T13:11:15.000Z</time>
      </trkpt>
      <trkpt lat="48.70428" lon="1.71497">
        <ele>186.19999694824</ele>
        <time>2012-02-25T13:11:22.000Z</time>
      </trkpt>
      <trkpt lat="48.70423" lon="1.71519">
        <ele>185.80000305176</ele>
        <time>2012-02-25T13:11:31.000Z</time>
      </trkpt>
      <trkpt lat="48.70418" lon="1.71542">
        <ele>185.60000610352</ele>
        <time>2012-02-25T13:11:40.000Z</time>
      </trkpt>
      <trkpt lat="48.70414" lon="1.71562">
        <ele>185.19999694824</ele>
        <time>2012-02-25T13:11:49.000Z</time>
      </trkpt>
      <trkpt lat="48.7041" lon="1.71579">
        <ele>185</ele>
        <time>2012-02-25T13:11:56.000Z</time>
      </trkpt>
      <trkpt lat="48.70407" lon="1.71593">
        <ele>184.80000305176</ele>
        <time>2012-02-25T13:12:02.000Z</time>
      </trkpt>
      <trkpt lat="48.70402" lon="1.71613">
        <ele>185</ele>
        <time>2012-02-25T13:12:11.000Z</time>
      </trkpt>
      <trkpt lat="48.70397" lon="1.71631">
        <ele>185</ele>
        <time>2012-02-25T13:12:19.000Z</time>
      </trkpt>
      <trkpt lat="48.70394" lon="1.7165">
        <ele>185.19999694824</ele>
        <time>2012-02-25T13:12:27.000Z</time>
      </trkpt>
      <trkpt lat="48.70392" lon="1.71666">
        <ele>185.39999389648</ele>
        <time>2012-02-25T13:12:35.000Z</time>
      </trkpt>
      <trkpt lat="48.70389" lon="1.71684">
        <ele>185.60000610352</ele>
        <time>2012-02-25T13:12:43.000Z</time>
      </trkpt>
      <trkpt lat="48.70387" lon="1.71693">
        <ele>185.80000305176</ele>
        <time>2012-02-25T13:12:47.000Z</time>
      </trkpt>
      <trkpt lat="48.70385" lon="1.71708">
        <ele>186</ele>
        <time>2012-02-25T13:12:53.000Z</time>
      </trkpt>
      <trkpt lat="48.70382" lon="1.71721">
        <ele>186</ele>
        <time>2012-02-25T13:12:58.000Z</time>
      </trkpt>
      <trkpt lat="48.70381" lon="1.71727">
        <ele>186.19999694824</ele>
        <time>2012-02-25T13:13:00.000Z</time>
      </trkpt>
      <trkpt lat="48.7038" lon="1.71739">
        <ele>186.39999389648</ele>
        <time>2012-02-25T13:13:05.000Z</time>
      </trkpt>
      <trkpt lat="48.70374" lon="1.71758">
        <ele>186.39999389648</ele>
        <time>2012-02-25T13:13:13.000Z</time>
      </trkpt>
      <trkpt lat="48.70371" lon="1.71771">
        <ele>186</ele>
        <time>2012-02-25T13:13:19.000Z</time>
      </trkpt>
      <trkpt lat="48.70367" lon="1.71785">
        <ele>185.80000305176</ele>
        <time>2012-02-25T13:13:25.000Z</time>
      </trkpt>
      <trkpt lat="48.70363" lon="1.718">
        <ele>185.39999389648</ele>
        <time>2012-02-25T13:13:31.000Z</time>
      </trkpt>
      <trkpt lat="48.70359" lon="1.71817">
        <ele>185</ele>
        <time>2012-02-25T13:13:38.000Z</time>
      </trkpt>
      <trkpt lat="48.70355" lon="1.71838">
        <ele>184.39999389648</ele>
        <time>2012-02-25T13:13:47.000Z</time>
      </trkpt>
      <trkpt lat="48.70352" lon="1.71856">
        <ele>184.19999694824</ele>
        <time>2012-02-25T13:13:55.000Z</time>
      </trkpt>
      <trkpt lat="48.70348" lon="1.71877">
        <ele>183.80000305176</ele>
        <time>2012-02-25T13:14:04.000Z</time>
      </trkpt>
      <trkpt lat="48.70344" lon="1.71895">
        <ele>183.60000610352</ele>
        <time>2012-02-25T13:14:12.000Z</time>
      </trkpt>
      <trkpt lat="48.70341" lon="1.7191">
        <ele>183.19999694824</ele>
        <time>2012-02-25T13:14:18.000Z</time>
      </trkpt>
      <trkpt lat="48.70337" lon="1.71926">
        <ele>183</ele>
        <time>2012-02-25T13:14:25.000Z</time>
      </trkpt>
      <trkpt lat="48.70333" lon="1.71943">
        <ele>183</ele>
        <time>2012-02-25T13:14:32.000Z</time>
      </trkpt>
      <trkpt lat="48.7033" lon="1.71962">
        <ele>182.80000305176</ele>
        <time>2012-02-25T13:14:39.000Z</time>
      </trkpt>
      <trkpt lat="48.70329" lon="1.71964">
        <ele>182.80000305176</ele>
        <time>2012-02-25T13:14:40.000Z</time>
      </trkpt>
      <trkpt lat="48.70329" lon="1.71966">
        <ele>182.80000305176</ele>
        <time>2012-02-25T13:14:43.000Z</time>
      </trkpt>
      <trkpt lat="48.70327" lon="1.71974">
        <ele>182.60000610352</ele>
        <time>2012-02-25T13:14:54.000Z</time>
      </trkpt>
      <trkpt lat="48.70323" lon="1.71994">
        <ele>182.39999389648</ele>
        <time>2012-02-25T13:15:01.000Z</time>
      </trkpt>
      <trkpt lat="48.70319" lon="1.7201">
        <ele>182.39999389648</ele>
        <time>2012-02-25T13:15:08.000Z</time>
      </trkpt>
      <trkpt lat="48.70315" lon="1.72031">
        <ele>182.80000305176</ele>
        <time>2012-02-25T13:15:17.000Z</time>
      </trkpt>
      <trkpt lat="48.70311" lon="1.72044">
        <ele>182.80000305176</ele>
        <time>2012-02-25T13:15:23.000Z</time>
      </trkpt>
      <trkpt lat="48.70311" lon="1.72047">
        <ele>183</ele>
        <time>2012-02-25T13:15:24.000Z</time>
      </trkpt>
      <trkpt lat="48.70308" lon="1.72064">
        <ele>183.19999694824</ele>
        <time>2012-02-25T13:15:31.000Z</time>
      </trkpt>
      <trkpt lat="48.70303" lon="1.7208">
        <ele>183.39999389648</ele>
        <time>2012-02-25T13:15:38.000Z</time>
      </trkpt>
      <trkpt lat="48.703" lon="1.72096">
        <ele>183.60000610352</ele>
        <time>2012-02-25T13:15:45.000Z</time>
      </trkpt>
      <trkpt lat="48.70297" lon="1.72112">
        <ele>183.80000305176</ele>
        <time>2012-02-25T13:15:52.000Z</time>
      </trkpt>
      <trkpt lat="48.70295" lon="1.72124">
        <ele>184.19999694824</ele>
        <time>2012-02-25T13:15:58.000Z</time>
      </trkpt>
      <trkpt lat="48.70291" lon="1.7214">
        <ele>184.39999389648</ele>
        <time>2012-02-25T13:16:04.000Z</time>
      </trkpt>
      <trkpt lat="48.70287" lon="1.72161">
        <ele>184.80000305176</ele>
        <time>2012-02-25T13:16:13.000Z</time>
      </trkpt>
      <trkpt lat="48.70285" lon="1.72169">
        <ele>184.80000305176</ele>
        <time>2012-02-25T13:16:17.000Z</time>
      </trkpt>
      <trkpt lat="48.70281" lon="1.72186">
        <ele>184.80000305176</ele>
        <time>2012-02-25T13:16:24.000Z</time>
      </trkpt>
      <trkpt lat="48.70278" lon="1.72199">
        <ele>185</ele>
        <time>2012-02-25T13:16:30.000Z</time>
      </trkpt>
      <trkpt lat="48.70276" lon="1.72213">
        <ele>185</ele>
        <time>2012-02-25T13:16:36.000Z</time>
      </trkpt>
      <trkpt lat="48.70271" lon="1.72233">
        <ele>185.19999694824</ele>
        <time>2012-02-25T13:16:44.000Z</time>
      </trkpt>
      <trkpt lat="48.70269" lon="1.72245">
        <ele>185.19999694824</ele>
        <time>2012-02-25T13:16:50.000Z</time>
      </trkpt>
      <trkpt lat="48.70267" lon="1.72267">
        <ele>185.19999694824</ele>
        <time>2012-02-25T13:16:59.000Z</time>
      </trkpt>
      <trkpt lat="48.70265" lon="1.72281">
        <ele>185</ele>
        <time>2012-02-25T13:17:05.000Z</time>
      </trkpt>
      <trkpt lat="48.70265" lon="1.72284">
        <ele>185</ele>
        <time>2012-02-25T13:17:06.000Z</time>
      </trkpt>
      <trkpt lat="48.70259" lon="1.72299">
        <ele>185</ele>
        <time>2012-02-25T13:17:13.000Z</time>
      </trkpt>
      <trkpt lat="48.70255" lon="1.72318">
        <ele>185</ele>
        <time>2012-02-25T13:17:20.000Z</time>
      </trkpt>
      <trkpt lat="48.70252" lon="1.72333">
        <ele>185</ele>
        <time>2012-02-25T13:17:26.000Z</time>
      </trkpt>
      <trkpt lat="48.70249" lon="1.72339">
        <ele>184.80000305176</ele>
        <time>2012-02-25T13:17:29.000Z</time>
      </trkpt>
      <trkpt lat="48.70249" lon="1.7234">
        <ele>184.80000305176</ele>
        <time>2012-02-25T13:17:32.000Z</time>
      </trkpt>
      <trkpt lat="48.70247" lon="1.72345">
        <ele>184.60000610352</ele>
        <time>2012-02-25T13:17:39.000Z</time>
      </trkpt>
      <trkpt lat="48.70245" lon="1.72362">
        <ele>184</ele>
        <time>2012-02-25T13:17:46.000Z</time>
      </trkpt>
      <trkpt lat="48.70242" lon="1.72376">
        <ele>183.60000610352</ele>
        <time>2012-02-25T13:17:52.000Z</time>
      </trkpt>
      <trkpt lat="48.7024" lon="1.72394">
        <ele>183</ele>
        <time>2012-02-25T13:17:59.000Z</time>
      </trkpt>
      <trkpt lat="48.70238" lon="1.7241">
        <ele>182.80000305176</ele>
        <time>2012-02-25T13:18:06.000Z</time>
      </trkpt>
      <trkpt lat="48.70235" lon="1.72429">
        <ele>182.39999389648</ele>
        <time>2012-02-25T13:18:14.000Z</time>
      </trkpt>
      <trkpt lat="48.7023" lon="1.72451">
        <ele>182.19999694824</ele>
        <time>2012-02-25T13:18:23.000Z</time>
      </trkpt>
      <trkpt lat="48.70225" lon="1.72471">
        <ele>182.19999694824</ele>
        <time>2012-02-25T13:18:32.000Z</time>
      </trkpt>
      <trkpt lat="48.70222" lon="1.72487">
        <ele>182</ele>
        <time>2012-02-25T13:18:39.000Z</time>
      </trkpt>
      <trkpt lat="48.70217" lon="1.72498">
        <ele>182</ele>
        <time>2012-02-25T13:18:45.000Z</time>
      </trkpt>
      <trkpt lat="48.70213" lon="1.72509">
        <ele>182</ele>
        <time>2012-02-25T13:18:51.000Z</time>
      </trkpt>
      <trkpt lat="48.70211" lon="1.72523">
        <ele>181.80000305176</ele>
        <time>2012-02-25T13:18:57.000Z</time>
      </trkpt>
      <trkpt lat="48.70211" lon="1.7254">
        <ele>181.39999389648</ele>
        <time>2012-02-25T13:19:04.000Z</time>
      </trkpt>
      <trkpt lat="48.70209" lon="1.72553">
        <ele>181.19999694824</ele>
        <time>2012-02-25T13:19:09.000Z</time>
      </trkpt>
      <trkpt lat="48.70204" lon="1.72571">
        <ele>181.19999694824</ele>
        <time>2012-02-25T13:19:16.000Z</time>
      </trkpt>
      <trkpt lat="48.70203" lon="1.72576">
        <ele>181.19999694824</ele>
        <time>2012-02-25T13:19:18.000Z</time>
      </trkpt>
      <trkpt lat="48.70203" lon="1.7259">
        <ele>180.80000305176</ele>
        <time>2012-02-25T13:19:24.000Z</time>
      </trkpt>
      <trkpt lat="48.70202" lon="1.72593">
        <ele>180.80000305176</ele>
        <time>2012-02-25T13:19:25.000Z</time>
      </trkpt>
      <trkpt lat="48.70197" lon="1.7261">
        <ele>180.60000610352</ele>
        <time>2012-02-25T13:19:32.000Z</time>
      </trkpt>
      <trkpt lat="48.70191" lon="1.72629">
        <ele>180.19999694824</ele>
        <time>2012-02-25T13:19:40.000Z</time>
      </trkpt>
      <trkpt lat="48.70188" lon="1.72641">
        <ele>180</ele>
        <time>2012-02-25T13:19:44.000Z</time>
      </trkpt>
      <trkpt lat="48.70187" lon="1.72654">
        <ele>179.60000610352</ele>
        <time>2012-02-25T13:19:49.000Z</time>
      </trkpt>
      <trkpt lat="48.70185" lon="1.72668">
        <ele>179</ele>
        <time>2012-02-25T13:19:55.000Z</time>
      </trkpt>
      <trkpt lat="48.70178" lon="1.72685">
        <ele>178.80000305176</ele>
        <time>2012-02-25T13:20:02.000Z</time>
      </trkpt>
      <trkpt lat="48.70178" lon="1.72688">
        <ele>178.60000610352</ele>
        <time>2012-02-25T13:20:06.000Z</time>
      </trkpt>
      <trkpt lat="48.70173" lon="1.72695">
        <ele>178.39999389648</ele>
        <time>2012-02-25T13:20:19.000Z</time>
      </trkpt>
      <trkpt lat="48.70161" lon="1.72695">
        <ele>178.60000610352</ele>
        <time>2012-02-25T13:20:25.000Z</time>
      </trkpt>
      <trkpt lat="48.70158" lon="1.72695">
        <ele>178.80000305176</ele>
        <time>2012-02-25T13:20:27.000Z</time>
      </trkpt>
      <trkpt lat="48.7015" lon="1.72695">
        <ele>178.80000305176</ele>
        <time>2012-02-25T13:20:33.000Z</time>
      </trkpt>
      <trkpt lat="48.70136" lon="1.72693">
        <ele>179</ele>
        <time>2012-02-25T13:20:42.000Z</time>
      </trkpt>
      <trkpt lat="48.70126" lon="1.72694">
        <ele>179.19999694824</ele>
        <time>2012-02-25T13:20:48.000Z</time>
      </trkpt>
      <trkpt lat="48.70111" lon="1.72694">
        <ele>179.39999389648</ele>
        <time>2012-02-25T13:20:57.000Z</time>
      </trkpt>
      <trkpt lat="48.70097" lon="1.72693">
        <ele>179.39999389648</ele>
        <time>2012-02-25T13:21:05.000Z</time>
      </trkpt>
      <trkpt lat="48.70083" lon="1.72695">
        <ele>179.60000610352</ele>
        <time>2012-02-25T13:21:12.000Z</time>
      </trkpt>
      <trkpt lat="48.70072" lon="1.72695">
        <ele>178.80000305176</ele>
        <time>2012-02-25T13:21:18.000Z</time>
      </trkpt>
      <trkpt lat="48.70061" lon="1.72695">
        <ele>177.80000305176</ele>
        <time>2012-02-25T13:21:24.000Z</time>
      </trkpt>
      <trkpt lat="48.7005" lon="1.72694">
        <ele>176.80000305176</ele>
        <time>2012-02-25T13:21:30.000Z</time>
      </trkpt>
      <trkpt lat="48.70031" lon="1.72693">
        <ele>175.19999694824</ele>
        <time>2012-02-25T13:21:41.000Z</time>
      </trkpt>
      <trkpt lat="48.70016" lon="1.72693">
        <ele>174</ele>
        <time>2012-02-25T13:21:49.000Z</time>
      </trkpt>
      <trkpt lat="48.70008" lon="1.72692">
        <ele>173.19999694824</ele>
        <time>2012-02-25T13:21:54.000Z</time>
      </trkpt>
      <trkpt lat="48.7" lon="1.72695">
        <ele>172.60000610352</ele>
        <time>2012-02-25T13:22:00.000Z</time>
      </trkpt>
      <trkpt lat="48.69998" lon="1.72694">
        <ele>172.60000610352</ele>
        <time>2012-02-25T13:22:01.000Z</time>
      </trkpt>
      <trkpt lat="48.69983" lon="1.72694">
        <ele>172.19999694824</ele>
        <time>2012-02-25T13:22:10.000Z</time>
      </trkpt>
      <trkpt lat="48.69967" lon="1.72693">
        <ele>171.80000305176</ele>
        <time>2012-02-25T13:22:19.000Z</time>
      </trkpt>
      <trkpt lat="48.69955" lon="1.72693">
        <ele>171.60000610352</ele>
        <time>2012-02-25T13:22:26.000Z</time>
      </trkpt>
      <trkpt lat="48.69941" lon="1.72692">
        <ele>171.19999694824</ele>
        <time>2012-02-25T13:22:34.000Z</time>
      </trkpt>
      <trkpt lat="48.69928" lon="1.72692">
        <ele>171</ele>
        <time>2012-02-25T13:22:41.000Z</time>
      </trkpt>
      <trkpt lat="48.69918" lon="1.72691">
        <ele>170.80000305176</ele>
        <time>2012-02-25T13:22:47.000Z</time>
      </trkpt>
      <trkpt lat="48.69906" lon="1.72691">
        <ele>170.60000610352</ele>
        <time>2012-02-25T13:22:54.000Z</time>
      </trkpt>
      <trkpt lat="48.6989" lon="1.72692">
        <ele>170.39999389648</ele>
        <time>2012-02-25T13:23:03.000Z</time>
      </trkpt>
      <trkpt lat="48.69885" lon="1.72692">
        <ele>170.19999694824</ele>
        <time>2012-02-25T13:23:06.000Z</time>
      </trkpt>
      <trkpt lat="48.69873" lon="1.72693">
        <ele>170.19999694824</ele>
        <time>2012-02-25T13:23:13.000Z</time>
      </trkpt>
      <trkpt lat="48.69861" lon="1.72694">
        <ele>170</ele>
        <time>2012-02-25T13:23:20.000Z</time>
      </trkpt>
      <trkpt lat="48.69849" lon="1.72696">
        <ele>169.80000305176</ele>
        <time>2012-02-25T13:23:27.000Z</time>
      </trkpt>
      <trkpt lat="48.69842" lon="1.72695">
        <ele>169.80000305176</ele>
        <time>2012-02-25T13:23:31.000Z</time>
      </trkpt>
      <trkpt lat="48.69831" lon="1.72695">
        <ele>169.60000610352</ele>
        <time>2012-02-25T13:23:38.000Z</time>
      </trkpt>
      <trkpt lat="48.69821" lon="1.72696">
        <ele>169.39999389648</ele>
        <time>2012-02-25T13:23:44.000Z</time>
      </trkpt>
      <trkpt lat="48.6981" lon="1.72697">
        <ele>169.19999694824</ele>
        <time>2012-02-25T13:23:50.000Z</time>
      </trkpt>
      <trkpt lat="48.69802" lon="1.72697">
        <ele>169</ele>
        <time>2012-02-25T13:23:55.000Z</time>
      </trkpt>
      <trkpt lat="48.6979" lon="1.72697">
        <ele>168.80000305176</ele>
        <time>2012-02-25T13:24:02.000Z</time>
      </trkpt>
      <trkpt lat="48.69779" lon="1.72696">
        <ele>168.60000610352</ele>
        <time>2012-02-25T13:24:09.000Z</time>
      </trkpt>
      <trkpt lat="48.69771" lon="1.72696">
        <ele>168.39999389648</ele>
        <time>2012-02-25T13:24:14.000Z</time>
      </trkpt>
      <trkpt lat="48.69762" lon="1.72696">
        <ele>168.19999694824</ele>
        <time>2012-02-25T13:24:20.000Z</time>
      </trkpt>
      <trkpt lat="48.69753" lon="1.72698">
        <ele>168</ele>
        <time>2012-02-25T13:24:26.000Z</time>
      </trkpt>
      <trkpt lat="48.69744" lon="1.72698">
        <ele>168.19999694824</ele>
        <time>2012-02-25T13:24:32.000Z</time>
      </trkpt>
      <trkpt lat="48.69734" lon="1.72698">
        <ele>168.19999694824</ele>
        <time>2012-02-25T13:24:38.000Z</time>
      </trkpt>
      <trkpt lat="48.69726" lon="1.72701">
        <ele>168.39999389648</ele>
        <time>2012-02-25T13:24:43.000Z</time>
      </trkpt>
      <trkpt lat="48.69715" lon="1.727">
        <ele>168.60000610352</ele>
        <time>2012-02-25T13:24:50.000Z</time>
      </trkpt>
      <trkpt lat="48.69712" lon="1.72699">
        <ele>168.60000610352</ele>
        <time>2012-02-25T13:24:52.000Z</time>
      </trkpt>
      <trkpt lat="48.69697" lon="1.72702">
        <ele>168.80000305176</ele>
        <time>2012-02-25T13:25:01.000Z</time>
      </trkpt>
      <trkpt lat="48.69691" lon="1.72705">
        <ele>168.80000305176</ele>
        <time>2012-02-25T13:25:05.000Z</time>
      </trkpt>
      <trkpt lat="48.69684" lon="1.72703">
        <ele>169</ele>
        <time>2012-02-25T13:25:11.000Z</time>
      </trkpt>
      <trkpt lat="48.69677" lon="1.72701">
        <ele>169.19999694824</ele>
        <time>2012-02-25T13:25:16.000Z</time>
      </trkpt>
      <trkpt lat="48.69666" lon="1.72702">
        <ele>169.39999389648</ele>
        <time>2012-02-25T13:25:23.000Z</time>
      </trkpt>
      <trkpt lat="48.6966" lon="1.72701">
        <ele>169.39999389648</ele>
        <time>2012-02-25T13:25:28.000Z</time>
      </trkpt>
      <trkpt lat="48.69655" lon="1.72701">
        <ele>169.39999389648</ele>
        <time>2012-02-25T13:25:31.000Z</time>
      </trkpt>
      <trkpt lat="48.69644" lon="1.72701">
        <ele>169.39999389648</ele>
        <time>2012-02-25T13:25:39.000Z</time>
      </trkpt>
      <trkpt lat="48.69635" lon="1.72701">
        <ele>169.19999694824</ele>
        <time>2012-02-25T13:25:45.000Z</time>
      </trkpt>
      <trkpt lat="48.69635" lon="1.72711">
        <ele>169</ele>
        <time>2012-02-25T13:25:51.000Z</time>
      </trkpt>
      <trkpt lat="48.69639" lon="1.72716">
        <ele>168.60000610352</ele>
        <time>2012-02-25T13:25:55.000Z</time>
      </trkpt>
      <trkpt lat="48.69647" lon="1.72719">
        <ele>168.60000610352</ele>
        <time>2012-02-25T13:26:01.000Z</time>
      </trkpt>
      <trkpt lat="48.69652" lon="1.72722">
        <ele>168.39999389648</ele>
        <time>2012-02-25T13:26:05.000Z</time>
      </trkpt>
      <trkpt lat="48.69656" lon="1.72731">
        <ele>168</ele>
        <time>2012-02-25T13:26:10.000Z</time>
      </trkpt>
      <trkpt lat="48.69661" lon="1.72739">
        <ele>167.60000610352</ele>
        <time>2012-02-25T13:26:14.000Z</time>
      </trkpt>
      <trkpt lat="48.69665" lon="1.72755">
        <ele>167</ele>
        <time>2012-02-25T13:26:21.000Z</time>
      </trkpt>
      <trkpt lat="48.69669" lon="1.72767">
        <ele>166.80000305176</ele>
        <time>2012-02-25T13:26:28.000Z</time>
      </trkpt>
      <trkpt lat="48.69674" lon="1.72783">
        <ele>166.80000305176</ele>
        <time>2012-02-25T13:26:36.000Z</time>
      </trkpt>
      <trkpt lat="48.69678" lon="1.72794">
        <ele>166.60000610352</ele>
        <time>2012-02-25T13:26:41.000Z</time>
      </trkpt>
      <trkpt lat="48.69687" lon="1.72804">
        <ele>166.80000305176</ele>
        <time>2012-02-25T13:26:47.000Z</time>
      </trkpt>
      <trkpt lat="48.69695" lon="1.72811">
        <ele>166.80000305176</ele>
        <time>2012-02-25T13:26:53.000Z</time>
      </trkpt>
      <trkpt lat="48.69704" lon="1.72819">
        <ele>167</ele>
        <time>2012-02-25T13:27:00.000Z</time>
      </trkpt>
      <trkpt lat="48.69715" lon="1.72823">
        <ele>167.19999694824</ele>
        <time>2012-02-25T13:27:05.000Z</time>
      </trkpt>
      <trkpt lat="48.69735" lon="1.72833">
        <ele>167.60000610352</ele>
        <time>2012-02-25T13:27:12.000Z</time>
      </trkpt>
      <trkpt lat="48.69752" lon="1.72842">
        <ele>168.19999694824</ele>
        <time>2012-02-25T13:27:17.000Z</time>
      </trkpt>
      <trkpt lat="48.6977" lon="1.72861">
        <ele>169.19999694824</ele>
        <time>2012-02-25T13:27:23.000Z</time>
      </trkpt>
      <trkpt lat="48.69782" lon="1.72883">
        <ele>169.60000610352</ele>
        <time>2012-02-25T13:27:28.000Z</time>
      </trkpt>
      <trkpt lat="48.69792" lon="1.72909">
        <ele>170</ele>
        <time>2012-02-25T13:27:33.000Z</time>
      </trkpt>
      <trkpt lat="48.69801" lon="1.7294">
        <ele>170.60000610352</ele>
        <time>2012-02-25T13:27:39.000Z</time>
      </trkpt>
      <trkpt lat="48.69816" lon="1.72983">
        <ele>171.60000610352</ele>
        <time>2012-02-25T13:27:47.000Z</time>
      </trkpt>
      <trkpt lat="48.69825" lon="1.73022">
        <ele>172.80000305176</ele>
        <time>2012-02-25T13:27:54.000Z</time>
      </trkpt>
      <trkpt lat="48.6983" lon="1.73063">
        <ele>174.19999694824</ele>
        <time>2012-02-25T13:28:01.000Z</time>
      </trkpt>
      <trkpt lat="48.6983" lon="1.73098">
        <ele>175</ele>
        <time>2012-02-25T13:28:07.000Z</time>
      </trkpt>
      <trkpt lat="48.69836" lon="1.73126">
        <ele>175.19999694824</ele>
        <time>2012-02-25T13:28:12.000Z</time>
      </trkpt>
      <trkpt lat="48.6984" lon="1.73154">
        <ele>175.19999694824</ele>
        <time>2012-02-25T13:28:17.000Z</time>
      </trkpt>
      <trkpt lat="48.69835" lon="1.73179">
        <ele>175</ele>
        <time>2012-02-25T13:28:22.000Z</time>
      </trkpt>
      <trkpt lat="48.69838" lon="1.73202">
        <ele>175</ele>
        <time>2012-02-25T13:28:26.000Z</time>
      </trkpt>
      <trkpt lat="48.69847" lon="1.73233">
        <ele>175.19999694824</ele>
        <time>2012-02-25T13:28:32.000Z</time>
      </trkpt>
      <trkpt lat="48.69854" lon="1.73259">
        <ele>175.19999694824</ele>
        <time>2012-02-25T13:28:37.000Z</time>
      </trkpt>
      <trkpt lat="48.69864" lon="1.73282">
        <ele>176</ele>
        <time>2012-02-25T13:28:42.000Z</time>
      </trkpt>
      <trkpt lat="48.69872" lon="1.73308">
        <ele>176.80000305176</ele>
        <time>2012-02-25T13:28:47.000Z</time>
      </trkpt>
      <trkpt lat="48.69872" lon="1.73343">
        <ele>177.80000305176</ele>
        <time>2012-02-25T13:28:53.000Z</time>
      </trkpt>
      <trkpt lat="48.69869" lon="1.73377">
        <ele>178.39999389648</ele>
        <time>2012-02-25T13:28:59.000Z</time>
      </trkpt>
      <trkpt lat="48.69871" lon="1.73405">
        <ele>178.80000305176</ele>
        <time>2012-02-25T13:29:04.000Z</time>
      </trkpt>
      <trkpt lat="48.69883" lon="1.73435">
        <ele>178.60000610352</ele>
        <time>2012-02-25T13:29:11.000Z</time>
      </trkpt>
      <trkpt lat="48.6988" lon="1.73452">
        <ele>178.19999694824</ele>
        <time>2012-02-25T13:29:15.000Z</time>
      </trkpt>
      <trkpt lat="48.69879" lon="1.73472">
        <ele>178</ele>
        <time>2012-02-25T13:29:19.000Z</time>
      </trkpt>
      <trkpt lat="48.6988" lon="1.73477">
        <ele>177.80000305176</ele>
        <time>2012-02-25T13:29:20.000Z</time>
      </trkpt>
      <trkpt lat="48.69886" lon="1.73502">
        <ele>177</ele>
        <time>2012-02-25T13:29:25.000Z</time>
      </trkpt>
      <trkpt lat="48.69896" lon="1.73517">
        <ele>176.80000305176</ele>
        <time>2012-02-25T13:29:29.000Z</time>
      </trkpt>
      <trkpt lat="48.69904" lon="1.73522">
        <ele>176.39999389648</ele>
        <time>2012-02-25T13:29:33.000Z</time>
      </trkpt>
      <trkpt lat="48.69913" lon="1.73529">
        <ele>176.19999694824</ele>
        <time>2012-02-25T13:29:39.000Z</time>
      </trkpt>
      <trkpt lat="48.69914" lon="1.7353">
        <ele>176</ele>
        <time>2012-02-25T13:29:40.000Z</time>
      </trkpt>
      <trkpt lat="48.69922" lon="1.7354">
        <ele>176</ele>
        <time>2012-02-25T13:29:47.000Z</time>
      </trkpt>
      <trkpt lat="48.6993" lon="1.73548">
        <ele>176</ele>
        <time>2012-02-25T13:29:53.000Z</time>
      </trkpt>
      <trkpt lat="48.69938" lon="1.73559">
        <ele>176.19999694824</ele>
        <time>2012-02-25T13:30:00.000Z</time>
      </trkpt>
      <trkpt lat="48.69942" lon="1.73564">
        <ele>176.19999694824</ele>
        <time>2012-02-25T13:30:03.000Z</time>
      </trkpt>
      <trkpt lat="48.69948" lon="1.73575">
        <ele>176.39999389648</ele>
        <time>2012-02-25T13:30:09.000Z</time>
      </trkpt>
      <trkpt lat="48.69955" lon="1.73586">
        <ele>176.39999389648</ele>
        <time>2012-02-25T13:30:15.000Z</time>
      </trkpt>
      <trkpt lat="48.69959" lon="1.73595">
        <ele>176.80000305176</ele>
        <time>2012-02-25T13:30:20.000Z</time>
      </trkpt>
      <trkpt lat="48.69965" lon="1.73603">
        <ele>177</ele>
        <time>2012-02-25T13:30:25.000Z</time>
      </trkpt>
      <trkpt lat="48.69974" lon="1.73616">
        <ele>177.39999389648</ele>
        <time>2012-02-25T13:30:33.000Z</time>
      </trkpt>
      <trkpt lat="48.69981" lon="1.73626">
        <ele>177.60000610352</ele>
        <time>2012-02-25T13:30:39.000Z</time>
      </trkpt>
      <trkpt lat="48.69986" lon="1.73632">
        <ele>177.80000305176</ele>
        <time>2012-02-25T13:30:45.000Z</time>
      </trkpt>
      <trkpt lat="48.69992" lon="1.73643">
        <ele>178.19999694824</ele>
        <time>2012-02-25T13:30:50.000Z</time>
      </trkpt>
      <trkpt lat="48.7" lon="1.7366">
        <ele>178.80000305176</ele>
        <time>2012-02-25T13:30:58.000Z</time>
      </trkpt>
      <trkpt lat="48.70002" lon="1.73663">
        <ele>178.80000305176</ele>
        <time>2012-02-25T13:31:00.000Z</time>
      </trkpt>
      <trkpt lat="48.70008" lon="1.73667">
        <ele>178.80000305176</ele>
        <time>2012-02-25T13:31:04.000Z</time>
      </trkpt>
      <trkpt lat="48.70011" lon="1.73668">
        <ele>178.80000305176</ele>
        <time>2012-02-25T13:31:06.000Z</time>
      </trkpt>
      <trkpt lat="48.70017" lon="1.73679">
        <ele>178.39999389648</ele>
        <time>2012-02-25T13:31:12.000Z</time>
      </trkpt>
      <trkpt lat="48.70023" lon="1.73687">
        <ele>178.19999694824</ele>
        <time>2012-02-25T13:31:17.000Z</time>
      </trkpt>
      <trkpt lat="48.70032" lon="1.73704">
        <ele>178</ele>
        <time>2012-02-25T13:31:25.000Z</time>
      </trkpt>
      <trkpt lat="48.70036" lon="1.73712">
        <ele>177.80000305176</ele>
        <time>2012-02-25T13:31:29.000Z</time>
      </trkpt>
      <trkpt lat="48.7004" lon="1.73715">
        <ele>177.80000305176</ele>
        <time>2012-02-25T13:31:32.000Z</time>
      </trkpt>
      <trkpt lat="48.70051" lon="1.73718">
        <ele>177.60000610352</ele>
        <time>2012-02-25T13:31:39.000Z</time>
      </trkpt>
      <trkpt lat="48.70059" lon="1.73721">
        <ele>177.39999389648</ele>
        <time>2012-02-25T13:31:44.000Z</time>
      </trkpt>
      <trkpt lat="48.70066" lon="1.73725">
        <ele>177.19999694824</ele>
        <time>2012-02-25T13:31:48.000Z</time>
      </trkpt>
      <trkpt lat="48.70076" lon="1.73735">
        <ele>177.19999694824</ele>
        <time>2012-02-25T13:31:56.000Z</time>
      </trkpt>
      <trkpt lat="48.70085" lon="1.73739">
        <ele>177</ele>
        <time>2012-02-25T13:32:03.000Z</time>
      </trkpt>
      <trkpt lat="48.70086" lon="1.7374">
        <ele>177</ele>
        <time>2012-02-25T13:32:04.000Z</time>
      </trkpt>
      <trkpt lat="48.70093" lon="1.73742">
        <ele>177.19999694824</ele>
        <time>2012-02-25T13:32:08.000Z</time>
      </trkpt>
      <trkpt lat="48.70101" lon="1.73753">
        <ele>177.19999694824</ele>
        <time>2012-02-25T13:32:14.000Z</time>
      </trkpt>
      <trkpt lat="48.70112" lon="1.73766">
        <ele>177.39999389648</ele>
        <time>2012-02-25T13:32:22.000Z</time>
      </trkpt>
      <trkpt lat="48.70122" lon="1.73778">
        <ele>177.60000610352</ele>
        <time>2012-02-25T13:32:30.000Z</time>
      </trkpt>
      <trkpt lat="48.70131" lon="1.73785">
        <ele>177.80000305176</ele>
        <time>2012-02-25T13:32:36.000Z</time>
      </trkpt>
      <trkpt lat="48.70134" lon="1.73789">
        <ele>177.80000305176</ele>
        <time>2012-02-25T13:32:39.000Z</time>
      </trkpt>
      <trkpt lat="48.70141" lon="1.73793">
        <ele>177.80000305176</ele>
        <time>2012-02-25T13:32:44.000Z</time>
      </trkpt>
      <trkpt lat="48.70144" lon="1.73796">
        <ele>177.80000305176</ele>
        <time>2012-02-25T13:32:46.000Z</time>
      </trkpt>
      <trkpt lat="48.70148" lon="1.73798">
        <ele>178</ele>
        <time>2012-02-25T13:32:49.000Z</time>
      </trkpt>
      <trkpt lat="48.70155" lon="1.73803">
        <ele>178</ele>
        <time>2012-02-25T13:32:55.000Z</time>
      </trkpt>
      <trkpt lat="48.70163" lon="1.73812">
        <ele>178</ele>
        <time>2012-02-25T13:33:02.000Z</time>
      </trkpt>
      <trkpt lat="48.70173" lon="1.73823">
        <ele>178</ele>
        <time>2012-02-25T13:33:08.000Z</time>
      </trkpt>
      <trkpt lat="48.70182" lon="1.73838">
        <ele>178</ele>
        <time>2012-02-25T13:33:16.000Z</time>
      </trkpt>
      <trkpt lat="48.70188" lon="1.73846">
        <ele>178</ele>
        <time>2012-02-25T13:33:22.000Z</time>
      </trkpt>
      <trkpt lat="48.70196" lon="1.73852">
        <ele>178</ele>
        <time>2012-02-25T13:33:28.000Z</time>
      </trkpt>
      <trkpt lat="48.70201" lon="1.73856">
        <ele>178</ele>
        <time>2012-02-25T13:33:32.000Z</time>
      </trkpt>
      <trkpt lat="48.7021" lon="1.73863">
        <ele>178</ele>
        <time>2012-02-25T13:33:38.000Z</time>
      </trkpt>
      <trkpt lat="48.70217" lon="1.7387">
        <ele>178</ele>
        <time>2012-02-25T13:33:44.000Z</time>
      </trkpt>
      <trkpt lat="48.70224" lon="1.73879">
        <ele>178</ele>
        <time>2012-02-25T13:33:50.000Z</time>
      </trkpt>
      <trkpt lat="48.70232" lon="1.73886">
        <ele>178</ele>
        <time>2012-02-25T13:33:56.000Z</time>
      </trkpt>
      <trkpt lat="48.70233" lon="1.73888">
        <ele>178</ele>
        <time>2012-02-25T13:33:57.000Z</time>
      </trkpt>
      <trkpt lat="48.70241" lon="1.73897">
        <ele>178</ele>
        <time>2012-02-25T13:34:04.000Z</time>
      </trkpt>
      <trkpt lat="48.70244" lon="1.739">
        <ele>178</ele>
        <time>2012-02-25T13:34:07.000Z</time>
      </trkpt>
      <trkpt lat="48.70249" lon="1.73906">
        <ele>178</ele>
        <time>2012-02-25T13:34:11.000Z</time>
      </trkpt>
      <trkpt lat="48.7026" lon="1.7392">
        <ele>178.19999694824</ele>
        <time>2012-02-25T13:34:20.000Z</time>
      </trkpt>
      <trkpt lat="48.70267" lon="1.73934">
        <ele>178.80000305176</ele>
        <time>2012-02-25T13:34:27.000Z</time>
      </trkpt>
      <trkpt lat="48.70273" lon="1.73944">
        <ele>179</ele>
        <time>2012-02-25T13:34:33.000Z</time>
      </trkpt>
      <trkpt lat="48.70278" lon="1.73955">
        <ele>179.39999389648</ele>
        <time>2012-02-25T13:34:39.000Z</time>
      </trkpt>
      <trkpt lat="48.70286" lon="1.73968">
        <ele>179.80000305176</ele>
        <time>2012-02-25T13:34:47.000Z</time>
      </trkpt>
      <trkpt lat="48.70292" lon="1.73982">
        <ele>180</ele>
        <time>2012-02-25T13:34:55.000Z</time>
      </trkpt>
      <trkpt lat="48.703" lon="1.73992">
        <ele>180.19999694824</ele>
        <time>2012-02-25T13:35:02.000Z</time>
      </trkpt>
      <trkpt lat="48.70308" lon="1.74">
        <ele>180.19999694824</ele>
        <time>2012-02-25T13:35:08.000Z</time>
      </trkpt>
      <trkpt lat="48.70315" lon="1.74009">
        <ele>180.19999694824</ele>
        <time>2012-02-25T13:35:14.000Z</time>
      </trkpt>
      <trkpt lat="48.70319" lon="1.74015">
        <ele>180.19999694824</ele>
        <time>2012-02-25T13:35:18.000Z</time>
      </trkpt>
      <trkpt lat="48.7033" lon="1.74026">
        <ele>180</ele>
        <time>2012-02-25T13:35:26.000Z</time>
      </trkpt>
      <trkpt lat="48.70335" lon="1.7403">
        <ele>180</ele>
        <time>2012-02-25T13:35:29.000Z</time>
      </trkpt>
      <trkpt lat="48.70345" lon="1.74035">
        <ele>179.80000305176</ele>
        <time>2012-02-25T13:35:36.000Z</time>
      </trkpt>
      <trkpt lat="48.70354" lon="1.74039">
        <ele>179.80000305176</ele>
        <time>2012-02-25T13:35:41.000Z</time>
      </trkpt>
      <trkpt lat="48.70363" lon="1.74049">
        <ele>179.60000610352</ele>
        <time>2012-02-25T13:35:47.000Z</time>
      </trkpt>
      <trkpt lat="48.70372" lon="1.74061">
        <ele>179.39999389648</ele>
        <time>2012-02-25T13:35:54.000Z</time>
      </trkpt>
      <trkpt lat="48.7038" lon="1.74071">
        <ele>179</ele>
        <time>2012-02-25T13:36:01.000Z</time>
      </trkpt>
      <trkpt lat="48.70388" lon="1.74079">
        <ele>178.80000305176</ele>
        <time>2012-02-25T13:36:07.000Z</time>
      </trkpt>
      <trkpt lat="48.70391" lon="1.74081">
        <ele>178.60000610352</ele>
        <time>2012-02-25T13:36:09.000Z</time>
      </trkpt>
      <trkpt lat="48.70394" lon="1.74084">
        <ele>178.60000610352</ele>
        <time>2012-02-25T13:36:11.000Z</time>
      </trkpt>
      <trkpt lat="48.70399" lon="1.74086">
        <ele>178.39999389648</ele>
        <time>2012-02-25T13:36:16.000Z</time>
      </trkpt>
      <trkpt lat="48.70411" lon="1.74099">
        <ele>178</ele>
        <time>2012-02-25T13:36:23.000Z</time>
      </trkpt>
      <trkpt lat="48.70422" lon="1.74115">
        <ele>177.60000610352</ele>
        <time>2012-02-25T13:36:31.000Z</time>
      </trkpt>
      <trkpt lat="48.70424" lon="1.74118">
        <ele>177.60000610352</ele>
        <time>2012-02-25T13:36:33.000Z</time>
      </trkpt>
      <trkpt lat="48.70429" lon="1.74123">
        <ele>177.60000610352</ele>
        <time>2012-02-25T13:36:37.000Z</time>
      </trkpt>
      <trkpt lat="48.70433" lon="1.74125">
        <ele>177.60000610352</ele>
        <time>2012-02-25T13:36:41.000Z</time>
      </trkpt>
      <trkpt lat="48.70438" lon="1.74129">
        <ele>177.60000610352</ele>
        <time>2012-02-25T13:36:46.000Z</time>
      </trkpt>
      <trkpt lat="48.7044" lon="1.74131">
        <ele>177.60000610352</ele>
        <time>2012-02-25T13:36:48.000Z</time>
      </trkpt>
      <trkpt lat="48.70443" lon="1.74133">
        <ele>177.60000610352</ele>
        <time>2012-02-25T13:36:50.000Z</time>
      </trkpt>
      <trkpt lat="48.7045" lon="1.74143">
        <ele>177.60000610352</ele>
        <time>2012-02-25T13:36:57.000Z</time>
      </trkpt>
      <trkpt lat="48.70457" lon="1.74151">
        <ele>177.60000610352</ele>
        <time>2012-02-25T13:37:03.000Z</time>
      </trkpt>
      <trkpt lat="48.70466" lon="1.74162">
        <ele>177.60000610352</ele>
        <time>2012-02-25T13:37:11.000Z</time>
      </trkpt>
      <trkpt lat="48.70472" lon="1.74172">
        <ele>177.80000305176</ele>
        <time>2012-02-25T13:37:16.000Z</time>
      </trkpt>
      <trkpt lat="48.70479" lon="1.74187">
        <ele>177.80000305176</ele>
        <time>2012-02-25T13:37:24.000Z</time>
      </trkpt>
      <trkpt lat="48.70483" lon="1.74199">
        <ele>178</ele>
        <time>2012-02-25T13:37:29.000Z</time>
      </trkpt>
      <trkpt lat="48.70484" lon="1.74201">
        <ele>178</ele>
        <time>2012-02-25T13:37:30.000Z</time>
      </trkpt>
      <trkpt lat="48.7049" lon="1.74214">
        <ele>178</ele>
        <time>2012-02-25T13:37:37.000Z</time>
      </trkpt>
      <trkpt lat="48.70497" lon="1.74224">
        <ele>178</ele>
        <time>2012-02-25T13:37:43.000Z</time>
      </trkpt>
      <trkpt lat="48.70503" lon="1.74236">
        <ele>177.80000305176</ele>
        <time>2012-02-25T13:37:50.000Z</time>
      </trkpt>
      <trkpt lat="48.70508" lon="1.74242">
        <ele>177.60000610352</ele>
        <time>2012-02-25T13:37:55.000Z</time>
      </trkpt>
      <trkpt lat="48.70516" lon="1.74247">
        <ele>177.39999389648</ele>
        <time>2012-02-25T13:38:01.000Z</time>
      </trkpt>
      <trkpt lat="48.70519" lon="1.7425">
        <ele>177.39999389648</ele>
        <time>2012-02-25T13:38:04.000Z</time>
      </trkpt>
      <trkpt lat="48.70527" lon="1.74261">
        <ele>177.39999389648</ele>
        <time>2012-02-25T13:38:12.000Z</time>
      </trkpt>
      <trkpt lat="48.70534" lon="1.74265">
        <ele>177.39999389648</ele>
        <time>2012-02-25T13:38:18.000Z</time>
      </trkpt>
      <trkpt lat="48.70539" lon="1.74268">
        <ele>177.39999389648</ele>
        <time>2012-02-25T13:38:22.000Z</time>
      </trkpt>
      <trkpt lat="48.70551" lon="1.74277">
        <ele>177.60000610352</ele>
        <time>2012-02-25T13:38:31.000Z</time>
      </trkpt>
      <trkpt lat="48.7056" lon="1.74284">
        <ele>178</ele>
        <time>2012-02-25T13:38:39.000Z</time>
      </trkpt>
      <trkpt lat="48.70563" lon="1.74286">
        <ele>178.19999694824</ele>
        <time>2012-02-25T13:38:41.000Z</time>
      </trkpt>
      <trkpt lat="48.70568" lon="1.74292">
        <ele>178.60000610352</ele>
        <time>2012-02-25T13:38:46.000Z</time>
      </trkpt>
      <trkpt lat="48.70573" lon="1.74299">
        <ele>179</ele>
        <time>2012-02-25T13:38:50.000Z</time>
      </trkpt>
      <trkpt lat="48.70578" lon="1.74311">
        <ele>180</ele>
        <time>2012-02-25T13:38:56.000Z</time>
      </trkpt>
      <trkpt lat="48.70584" lon="1.74319">
        <ele>180.80000305176</ele>
        <time>2012-02-25T13:39:01.000Z</time>
      </trkpt>
      <trkpt lat="48.70589" lon="1.74326">
        <ele>181.19999694824</ele>
        <time>2012-02-25T13:39:05.000Z</time>
      </trkpt>
      <trkpt lat="48.70596" lon="1.74333">
        <ele>181.60000610352</ele>
        <time>2012-02-25T13:39:10.000Z</time>
      </trkpt>
      <trkpt lat="48.70601" lon="1.7434">
        <ele>181.60000610352</ele>
        <time>2012-02-25T13:39:15.000Z</time>
      </trkpt>
      <trkpt lat="48.70607" lon="1.74346">
        <ele>181.39999389648</ele>
        <time>2012-02-25T13:39:20.000Z</time>
      </trkpt>
      <trkpt lat="48.70615" lon="1.74355">
        <ele>181.39999389648</ele>
        <time>2012-02-25T13:39:27.000Z</time>
      </trkpt>
      <trkpt lat="48.70622" lon="1.74362">
        <ele>181.39999389648</ele>
        <time>2012-02-25T13:39:33.000Z</time>
      </trkpt>
      <trkpt lat="48.70626" lon="1.7437">
        <ele>181.39999389648</ele>
        <time>2012-02-25T13:39:38.000Z</time>
      </trkpt>
      <trkpt lat="48.7063" lon="1.74376">
        <ele>181.39999389648</ele>
        <time>2012-02-25T13:39:42.000Z</time>
      </trkpt>
      <trkpt lat="48.70639" lon="1.7439">
        <ele>181.39999389648</ele>
        <time>2012-02-25T13:39:50.000Z</time>
      </trkpt>
      <trkpt lat="48.70649" lon="1.74397">
        <ele>181.19999694824</ele>
        <time>2012-02-25T13:39:56.000Z</time>
      </trkpt>
      <trkpt lat="48.70655" lon="1.74404">
        <ele>181.19999694824</ele>
        <time>2012-02-25T13:40:01.000Z</time>
      </trkpt>
      <trkpt lat="48.70661" lon="1.7441">
        <ele>181</ele>
        <time>2012-02-25T13:40:06.000Z</time>
      </trkpt>
      <trkpt lat="48.70662" lon="1.74411">
        <ele>181</ele>
        <time>2012-02-25T13:40:07.000Z</time>
      </trkpt>
      <trkpt lat="48.70664" lon="1.74415">
        <ele>181</ele>
        <time>2012-02-25T13:40:09.000Z</time>
      </trkpt>
      <trkpt lat="48.70669" lon="1.74422">
        <ele>180.80000305176</ele>
        <time>2012-02-25T13:40:14.000Z</time>
      </trkpt>
      <trkpt lat="48.70678" lon="1.74433">
        <ele>180.39999389648</ele>
        <time>2012-02-25T13:40:21.000Z</time>
      </trkpt>
      <trkpt lat="48.7068" lon="1.74436">
        <ele>180.19999694824</ele>
        <time>2012-02-25T13:40:23.000Z</time>
      </trkpt>
      <trkpt lat="48.70691" lon="1.74449">
        <ele>179.80000305176</ele>
        <time>2012-02-25T13:40:31.000Z</time>
      </trkpt>
      <trkpt lat="48.70694" lon="1.74454">
        <ele>179.60000610352</ele>
        <time>2012-02-25T13:40:34.000Z</time>
      </trkpt>
      <trkpt lat="48.70698" lon="1.74462">
        <ele>179.39999389648</ele>
        <time>2012-02-25T13:40:40.000Z</time>
      </trkpt>
      <trkpt lat="48.70699" lon="1.74463">
        <ele>179.19999694824</ele>
        <time>2012-02-25T13:40:43.000Z</time>
      </trkpt>
      <trkpt lat="48.70705" lon="1.74464">
        <ele>179</ele>
        <time>2012-02-25T13:40:53.000Z</time>
      </trkpt>
      <trkpt lat="48.70711" lon="1.74463">
        <ele>178.80000305176</ele>
        <time>2012-02-25T13:40:56.000Z</time>
      </trkpt>
      <trkpt lat="48.70725" lon="1.74468">
        <ele>178.19999694824</ele>
        <time>2012-02-25T13:41:05.000Z</time>
      </trkpt>
      <trkpt lat="48.7074" lon="1.74478">
        <ele>177.60000610352</ele>
        <time>2012-02-25T13:41:14.000Z</time>
      </trkpt>
      <trkpt lat="48.70746" lon="1.74486">
        <ele>177.39999389648</ele>
        <time>2012-02-25T13:41:19.000Z</time>
      </trkpt>
      <trkpt lat="48.7075" lon="1.74488">
        <ele>177.19999694824</ele>
        <time>2012-02-25T13:41:25.000Z</time>
      </trkpt>
      <trkpt lat="48.7075" lon="1.74488">
        <ele>177.19999694824</ele>
        <time>2012-02-25T13:41:26.000Z</time>
      </trkpt>
      <trkpt lat="48.70757" lon="1.74502">
        <ele>177</ele>
        <time>2012-02-25T13:41:51.000Z</time>
      </trkpt>
      <trkpt lat="48.70765" lon="1.74511">
        <ele>176.80000305176</ele>
        <time>2012-02-25T13:41:56.000Z</time>
      </trkpt>
      <trkpt lat="48.70774" lon="1.74519">
        <ele>176.80000305176</ele>
        <time>2012-02-25T13:42:03.000Z</time>
      </trkpt>
      <trkpt lat="48.70775" lon="1.7452">
        <ele>176.60000610352</ele>
        <time>2012-02-25T13:42:05.000Z</time>
      </trkpt>
      <trkpt lat="48.70776" lon="1.7452">
        <ele>176.60000610352</ele>
        <time>2012-02-25T13:42:08.000Z</time>
      </trkpt>
      <trkpt lat="48.70785" lon="1.74533">
        <ele>176.60000610352</ele>
        <time>2012-02-25T13:43:25.000Z</time>
      </trkpt>
      <trkpt lat="48.70793" lon="1.74544">
        <ele>176.39999389648</ele>
        <time>2012-02-25T13:43:31.000Z</time>
      </trkpt>
      <trkpt lat="48.70801" lon="1.74552">
        <ele>176.39999389648</ele>
        <time>2012-02-25T13:43:39.000Z</time>
      </trkpt>
      <trkpt lat="48.70802" lon="1.74553">
        <ele>176.39999389648</ele>
        <time>2012-02-25T13:43:41.000Z</time>
      </trkpt>
      <trkpt lat="48.70817" lon="1.74574">
        <ele>176.19999694824</ele>
        <time>2012-02-25T13:45:17.000Z</time>
      </trkpt>
      <trkpt lat="48.7082" lon="1.7458">
        <ele>176.19999694824</ele>
        <time>2012-02-25T13:45:21.000Z</time>
      </trkpt>
      <trkpt lat="48.70823" lon="1.74587">
        <ele>176.19999694824</ele>
        <time>2012-02-25T13:45:25.000Z</time>
      </trkpt>
      <trkpt lat="48.70834" lon="1.74602">
        <ele>176</ele>
        <time>2012-02-25T13:45:34.000Z</time>
      </trkpt>
      <trkpt lat="48.70843" lon="1.74615">
        <ele>176</ele>
        <time>2012-02-25T13:45:42.000Z</time>
      </trkpt>
      <trkpt lat="48.70853" lon="1.74629">
        <ele>175.80000305176</ele>
        <time>2012-02-25T13:45:50.000Z</time>
      </trkpt>
      <trkpt lat="48.70863" lon="1.74643">
        <ele>175.80000305176</ele>
        <time>2012-02-25T13:45:58.000Z</time>
      </trkpt>
      <trkpt lat="48.70873" lon="1.74659">
        <ele>176</ele>
        <time>2012-02-25T13:46:07.000Z</time>
      </trkpt>
      <trkpt lat="48.70875" lon="1.74661">
        <ele>176</ele>
        <time>2012-02-25T13:46:08.000Z</time>
      </trkpt>
      <trkpt lat="48.70883" lon="1.74669">
        <ele>176</ele>
        <time>2012-02-25T13:46:14.000Z</time>
      </trkpt>
      <trkpt lat="48.70892" lon="1.74681">
        <ele>176.39999389648</ele>
        <time>2012-02-25T13:46:21.000Z</time>
      </trkpt>
      <trkpt lat="48.70896" lon="1.74688">
        <ele>176.60000610352</ele>
        <time>2012-02-25T13:46:25.000Z</time>
      </trkpt>
      <trkpt lat="48.70904" lon="1.747">
        <ele>177</ele>
        <time>2012-02-25T13:46:32.000Z</time>
      </trkpt>
      <trkpt lat="48.70905" lon="1.74702">
        <ele>177</ele>
        <time>2012-02-25T13:46:33.000Z</time>
      </trkpt>
      <trkpt lat="48.70911" lon="1.74707">
        <ele>177</ele>
        <time>2012-02-25T13:46:37.000Z</time>
      </trkpt>
      <trkpt lat="48.70916" lon="1.74714">
        <ele>177.19999694824</ele>
        <time>2012-02-25T13:46:41.000Z</time>
      </trkpt>
      <trkpt lat="48.70923" lon="1.74724">
        <ele>177.39999389648</ele>
        <time>2012-02-25T13:46:47.000Z</time>
      </trkpt>
      <trkpt lat="48.70931" lon="1.74734">
        <ele>177.80000305176</ele>
        <time>2012-02-25T13:46:53.000Z</time>
      </trkpt>
      <trkpt lat="48.7094" lon="1.74747">
        <ele>178</ele>
        <time>2012-02-25T13:47:01.000Z</time>
      </trkpt>
      <trkpt lat="48.70956" lon="1.74766">
        <ele>178</ele>
        <time>2012-02-25T13:47:13.000Z</time>
      </trkpt>
      <trkpt lat="48.70964" lon="1.74777">
        <ele>178.19999694824</ele>
        <time>2012-02-25T13:47:20.000Z</time>
      </trkpt>
      <trkpt lat="48.70979" lon="1.74797">
        <ele>178.39999389648</ele>
        <time>2012-02-25T13:47:33.000Z</time>
      </trkpt>
      <trkpt lat="48.70994" lon="1.74818">
        <ele>178.80000305176</ele>
        <time>2012-02-25T13:47:46.000Z</time>
      </trkpt>
      <trkpt lat="48.71006" lon="1.74835">
        <ele>178.60000610352</ele>
        <time>2012-02-25T13:47:57.000Z</time>
      </trkpt>
      <trkpt lat="48.71008" lon="1.74849">
        <ele>178.60000610352</ele>
        <time>2012-02-25T13:48:04.000Z</time>
      </trkpt>
      <trkpt lat="48.71007" lon="1.74853">
        <ele>178.60000610352</ele>
        <time>2012-02-25T13:48:06.000Z</time>
      </trkpt>
      <trkpt lat="48.71002" lon="1.74863">
        <ele>178.80000305176</ele>
        <time>2012-02-25T13:48:13.000Z</time>
      </trkpt>
      <trkpt lat="48.70994" lon="1.74878">
        <ele>178.80000305176</ele>
        <time>2012-02-25T13:48:22.000Z</time>
      </trkpt>
      <trkpt lat="48.7099" lon="1.74882">
        <ele>178.60000610352</ele>
        <time>2012-02-25T13:48:25.000Z</time>
      </trkpt>
      <trkpt lat="48.70984" lon="1.74891">
        <ele>178.39999389648</ele>
        <time>2012-02-25T13:48:30.000Z</time>
      </trkpt>
      <trkpt lat="48.70977" lon="1.74897">
        <ele>178</ele>
        <time>2012-02-25T13:48:35.000Z</time>
      </trkpt>
      <trkpt lat="48.70968" lon="1.74908">
        <ele>177.60000610352</ele>
        <time>2012-02-25T13:48:42.000Z</time>
      </trkpt>
      <trkpt lat="48.70958" lon="1.74922">
        <ele>177</ele>
        <time>2012-02-25T13:48:50.000Z</time>
      </trkpt>
      <trkpt lat="48.70948" lon="1.74936">
        <ele>176.39999389648</ele>
        <time>2012-02-25T13:48:58.000Z</time>
      </trkpt>
      <trkpt lat="48.7094" lon="1.7495">
        <ele>176</ele>
        <time>2012-02-25T13:49:05.000Z</time>
      </trkpt>
      <trkpt lat="48.70932" lon="1.74964">
        <ele>175.60000610352</ele>
        <time>2012-02-25T13:49:13.000Z</time>
      </trkpt>
      <trkpt lat="48.70923" lon="1.74975">
        <ele>175.19999694824</ele>
        <time>2012-02-25T13:49:20.000Z</time>
      </trkpt>
      <trkpt lat="48.70919" lon="1.74984">
        <ele>175</ele>
        <time>2012-02-25T13:49:25.000Z</time>
      </trkpt>
      <trkpt lat="48.70918" lon="1.74985">
        <ele>175</ele>
        <time>2012-02-25T13:49:28.000Z</time>
      </trkpt>
      <trkpt lat="48.70909" lon="1.75011">
        <ele>174.80000305176</ele>
        <time>2012-02-25T13:51:40.000Z</time>
      </trkpt>
      <trkpt lat="48.70905" lon="1.75017">
        <ele>174.80000305176</ele>
        <time>2012-02-25T13:51:45.000Z</time>
      </trkpt>
      <trkpt lat="48.70901" lon="1.75026">
        <ele>174.60000610352</ele>
        <time>2012-02-25T13:51:52.000Z</time>
      </trkpt>
      <trkpt lat="48.709" lon="1.7503">
        <ele>174.60000610352</ele>
        <time>2012-02-25T13:51:55.000Z</time>
      </trkpt>
      <trkpt lat="48.70894" lon="1.75042">
        <ele>174.60000610352</ele>
        <time>2012-02-25T13:52:03.000Z</time>
      </trkpt>
      <trkpt lat="48.70892" lon="1.75046">
        <ele>174.39999389648</ele>
        <time>2012-02-25T13:52:07.000Z</time>
      </trkpt>
      <trkpt lat="48.70889" lon="1.75052">
        <ele>174.39999389648</ele>
        <time>2012-02-25T13:52:12.000Z</time>
      </trkpt>
      <trkpt lat="48.70887" lon="1.75056">
        <ele>174.39999389648</ele>
        <time>2012-02-25T13:52:15.000Z</time>
      </trkpt>
      <trkpt lat="48.70882" lon="1.75067">
        <ele>174.19999694824</ele>
        <time>2012-02-25T13:52:22.000Z</time>
      </trkpt>
      <trkpt lat="48.70879" lon="1.75071">
        <ele>174.19999694824</ele>
        <time>2012-02-25T13:52:29.000Z</time>
      </trkpt>
      <trkpt lat="48.70877" lon="1.75079">
        <ele>174</ele>
        <time>2012-02-25T13:52:34.000Z</time>
      </trkpt>
      <trkpt lat="48.70875" lon="1.75084">
        <ele>174</ele>
        <time>2012-02-25T13:52:38.000Z</time>
      </trkpt>
      <trkpt lat="48.7087" lon="1.75094">
        <ele>174</ele>
        <time>2012-02-25T13:52:44.000Z</time>
      </trkpt>
      <trkpt lat="48.7087" lon="1.75103">
        <ele>174.19999694824</ele>
        <time>2012-02-25T13:52:49.000Z</time>
      </trkpt>
      <trkpt lat="48.7087" lon="1.75104">
        <ele>174.19999694824</ele>
        <time>2012-02-25T13:52:50.000Z</time>
      </trkpt>
      <trkpt lat="48.70869" lon="1.75107">
        <ele>174.19999694824</ele>
        <time>2012-02-25T13:52:52.000Z</time>
      </trkpt>
      <trkpt lat="48.70864" lon="1.7511">
        <ele>174.19999694824</ele>
        <time>2012-02-25T13:52:56.000Z</time>
      </trkpt>
      <trkpt lat="48.70859" lon="1.75121">
        <ele>174.19999694824</ele>
        <time>2012-02-25T13:53:03.000Z</time>
      </trkpt>
      <trkpt lat="48.70856" lon="1.75128">
        <ele>174.19999694824</ele>
        <time>2012-02-25T13:53:10.000Z</time>
      </trkpt>
      <trkpt lat="48.70851" lon="1.75137">
        <ele>174.19999694824</ele>
        <time>2012-02-25T13:53:17.000Z</time>
      </trkpt>
      <trkpt lat="48.7085" lon="1.75141">
        <ele>174.19999694824</ele>
        <time>2012-02-25T13:53:20.000Z</time>
      </trkpt>
      <trkpt lat="48.70846" lon="1.7515">
        <ele>174.19999694824</ele>
        <time>2012-02-25T13:53:27.000Z</time>
      </trkpt>
      <trkpt lat="48.70841" lon="1.7516">
        <ele>174</ele>
        <time>2012-02-25T13:53:33.000Z</time>
      </trkpt>
      <trkpt lat="48.70836" lon="1.75173">
        <ele>174</ele>
        <time>2012-02-25T13:53:42.000Z</time>
      </trkpt>
      <trkpt lat="48.70833" lon="1.7518">
        <ele>174</ele>
        <time>2012-02-25T13:53:47.000Z</time>
      </trkpt>
      <trkpt lat="48.70828" lon="1.75189">
        <ele>174</ele>
        <time>2012-02-25T13:53:53.000Z</time>
      </trkpt>
      <trkpt lat="48.70827" lon="1.75191">
        <ele>174</ele>
        <time>2012-02-25T13:53:54.000Z</time>
      </trkpt>
      <trkpt lat="48.70823" lon="1.75201">
        <ele>173.80000305176</ele>
        <time>2012-02-25T13:54:01.000Z</time>
      </trkpt>
      <trkpt lat="48.70821" lon="1.75205">
        <ele>173.80000305176</ele>
        <time>2012-02-25T13:54:03.000Z</time>
      </trkpt>
      <trkpt lat="48.70816" lon="1.75218">
        <ele>173.80000305176</ele>
        <time>2012-02-25T13:54:11.000Z</time>
      </trkpt>
      <trkpt lat="48.70815" lon="1.75219">
        <ele>173.80000305176</ele>
        <time>2012-02-25T13:54:12.000Z</time>
      </trkpt>
      <trkpt lat="48.70814" lon="1.75225">
        <ele>173.80000305176</ele>
        <time>2012-02-25T13:54:16.000Z</time>
      </trkpt>
      <trkpt lat="48.7081" lon="1.75233">
        <ele>173.80000305176</ele>
        <time>2012-02-25T13:54:22.000Z</time>
      </trkpt>
      <trkpt lat="48.70809" lon="1.75235">
        <ele>173.80000305176</ele>
        <time>2012-02-25T13:54:23.000Z</time>
      </trkpt>
      <trkpt lat="48.70806" lon="1.75244">
        <ele>173.60000610352</ele>
        <time>2012-02-25T13:54:28.000Z</time>
      </trkpt>
      <trkpt lat="48.70799" lon="1.75261">
        <ele>173.60000610352</ele>
        <time>2012-02-25T13:54:37.000Z</time>
      </trkpt>
      <trkpt lat="48.70793" lon="1.75272">
        <ele>173.60000610352</ele>
        <time>2012-02-25T13:54:44.000Z</time>
      </trkpt>
      <trkpt lat="48.70792" lon="1.75278">
        <ele>173.60000610352</ele>
        <time>2012-02-25T13:54:49.000Z</time>
      </trkpt>
      <trkpt lat="48.70791" lon="1.75283">
        <ele>173.39999389648</ele>
        <time>2012-02-25T13:54:55.000Z</time>
      </trkpt>
      <trkpt lat="48.70787" lon="1.75287">
        <ele>173.39999389648</ele>
        <time>2012-02-25T13:55:28.000Z</time>
      </trkpt>
      <trkpt lat="48.70785" lon="1.75291">
        <ele>173.39999389648</ele>
        <time>2012-02-25T13:55:29.000Z</time>
      </trkpt>
      <trkpt lat="48.70782" lon="1.75301">
        <ele>173.39999389648</ele>
        <time>2012-02-25T13:55:35.000Z</time>
      </trkpt>
      <trkpt lat="48.70781" lon="1.75303">
        <ele>173.39999389648</ele>
        <time>2012-02-25T13:55:36.000Z</time>
      </trkpt>
      <trkpt lat="48.70778" lon="1.75313">
        <ele>173.39999389648</ele>
        <time>2012-02-25T13:55:41.000Z</time>
      </trkpt>
      <trkpt lat="48.70774" lon="1.75325">
        <ele>173.19999694824</ele>
        <time>2012-02-25T13:55:46.000Z</time>
      </trkpt>
      <trkpt lat="48.7077" lon="1.75331">
        <ele>173.19999694824</ele>
        <time>2012-02-25T13:55:50.000Z</time>
      </trkpt>
      <trkpt lat="48.70763" lon="1.75347">
        <ele>173</ele>
        <time>2012-02-25T13:55:59.000Z</time>
      </trkpt>
      <trkpt lat="48.70758" lon="1.75358">
        <ele>172.80000305176</ele>
        <time>2012-02-25T13:56:05.000Z</time>
      </trkpt>
      <trkpt lat="48.70753" lon="1.75371">
        <ele>172.60000610352</ele>
        <time>2012-02-25T13:56:13.000Z</time>
      </trkpt>
      <trkpt lat="48.7075" lon="1.75378">
        <ele>172.39999389648</ele>
        <time>2012-02-25T13:56:17.000Z</time>
      </trkpt>
      <trkpt lat="48.70747" lon="1.75388">
        <ele>172.39999389648</ele>
        <time>2012-02-25T13:56:23.000Z</time>
      </trkpt>
      <trkpt lat="48.70746" lon="1.7539">
        <ele>172.19999694824</ele>
        <time>2012-02-25T13:56:25.000Z</time>
      </trkpt>
      <trkpt lat="48.70745" lon="1.7539">
        <ele>172.19999694824</ele>
        <time>2012-02-25T13:56:28.000Z</time>
      </trkpt>
    </trkseg>
  </trk>
</gpx>